Darstellungsparameter: Aktuell verwendete Einstellungen:
Skalierung der Graphiken ... ?
xyx+y,   Skalierungsfaktor:      Skalierung: Modus: x, Faktor: 1
Darstellungszeitraum ... ?
Vom - - bis: - -   Zeitraum: 22.04.2016 - 21.05.2016
Min/Max/Avg-Anzeige ... ?
Zeige MMA aktuell
Zeige MMA Monat
Zeige MMA alles
Zeige --A aktuell
Zeige --A Monat
Zeige --A alles
Keine MMA-Anzeige
MMA:
Keine MMA-Graphiken
MMA-Basis: 22.04.2016 - 21.05.2016
Quicknavigation für Darstellung... ?
Tage:      1T, 2T, 3T, 5T -1T -2T -3T -5T +1T +2T +3T +5T
Wochen: 1W, 2W, 3W -1W -2W -3W +1W +2W +3W
Monate: 1M, 3M, 6M -1M -3M -6M +1M +3M +6M
Jahre:    1J, 3J, 5J, 10J -1J -3J -5J -10J +1J +3J +5J +10J
Nutze für die Darstellung ... ?
Originaldaten oder Mittelwerte auf ...
Stundenbasis Tagesbasis Wochenbasis
Monatsbasis Jahresbasis      Datenbasis: Original-Daten
Darstellen als:
Statistik (Auto) Statistik J:M      Darstellung:
Zur Graphik,    zurück zur Übersicht aller Sensoren.
 
Tabellarische Datenbersicht: ?
 
Sensor: Nr:Datum:Temp:Feuchte:Taupunkt:
Aussen-T/F 1 22-04-2016 00:00:00 10.7 C 73 % 6.07 C
2 22-04-2016 00:05:00 10.7 C 73 % 6.07 C
3 22-04-2016 00:10:00 10.7 C 73 % 6.07 C
4 22-04-2016 00:15:00 10.7 C 74 % 6.26 C
5 22-04-2016 00:20:00 10.7 C 76 % 6.65 C
6 22-04-2016 00:25:00 10.5 C 76 % 6.45 C
7 22-04-2016 00:30:00 10.4 C 77 % 6.55 C
8 22-04-2016 00:35:00 10.4 C 77 % 6.55 C
9 22-04-2016 00:40:00 10.3 C 77 % 6.45 C
10 22-04-2016 00:45:00 10.3 C 76 % 6.26 C
11 22-04-2016 00:50:00 10.3 C 77 % 6.45 C
12 22-04-2016 00:55:00 10.2 C 76 % 6.16 C
13 22-04-2016 01:00:00 10.2 C 76 % 6.16 C
14 22-04-2016 01:05:00 10.1 C 77 % 6.26 C
15 22-04-2016 01:10:00 9.9 C 78 % 6.25 C
16 22-04-2016 01:15:00 9.8 C 77 % 5.97 C
17 22-04-2016 01:20:00 9.7 C 78 % 6.06 C
18 22-04-2016 01:25:00 9.6 C 80 % 6.32 C
19 22-04-2016 01:30:00 9.6 C 80 % 6.32 C
20 22-04-2016 01:35:00 9.6 C 81 % 6.5 C
21 22-04-2016 01:40:00 9.6 C 81 % 6.5 C
22 22-04-2016 01:45:00 9.6 C 81 % 6.5 C
23 22-04-2016 01:50:00 9.6 C 81 % 6.5 C
24 22-04-2016 01:55:00 9.7 C 82 % 6.78 C
25 22-04-2016 02:00:00 9.8 C 82 % 6.88 C
Sensor: Nr:Datum:Temp:Feuchte:Taupunkt:
Aussen-T/F 26 22-04-2016 02:05:00 9.8 C 82 % 6.88 C
27 22-04-2016 02:10:00 10 C 80 % 6.71 C
28 22-04-2016 02:15:00 10.3 C 78 % 6.64 C
29 22-04-2016 02:20:00 10.6 C 78 % 6.93 C
30 22-04-2016 02:25:00 10.8 C 76 % 6.75 C
31 22-04-2016 02:30:00 10.9 C 75 % 6.65 C
32 22-04-2016 02:35:00 11.1 C 74 % 6.65 C
33 22-04-2016 02:40:00 11.2 C 74 % 6.74 C
34 22-04-2016 02:45:00 11.2 C 74 % 6.74 C
35 22-04-2016 02:50:00 11.2 C 75 % 6.94 C
36 22-04-2016 02:55:00 11.1 C 75 % 6.84 C
37 22-04-2016 03:00:00 11 C 75 % 6.75 C
38 22-04-2016 03:05:00 10.9 C 77 % 7.03 C
39 22-04-2016 03:10:00 10.8 C 77 % 6.94 C
40 22-04-2016 03:15:00 10.8 C 77 % 6.94 C
41 22-04-2016 03:20:00 10.7 C 78 % 7.03 C
42 22-04-2016 03:25:00 10.7 C 78 % 7.03 C
43 22-04-2016 03:30:00 10.6 C 78 % 6.93 C
44 22-04-2016 03:35:00 10.6 C 78 % 6.93 C
45 22-04-2016 03:40:00 10.5 C 78 % 6.83 C
46 22-04-2016 03:45:00 10.5 C 79 % 7.02 C
47 22-04-2016 03:50:00 10.4 C 79 % 6.92 C
48 22-04-2016 03:55:00 10.4 C 78 % 6.74 C
49 22-04-2016 04:00:00 10.4 C 79 % 6.92 C
50 22-04-2016 04:05:00 10.3 C 79 % 6.82 C
Sensor: Nr:Datum:Temp:Feuchte:Taupunkt:
Aussen-T/F 51 22-04-2016 04:10:00 10.3 C 79 % 6.82 C
52 22-04-2016 04:15:00 10.3 C 79 % 6.82 C
53 22-04-2016 04:20:00 10.3 C 77 % 6.45 C
54 22-04-2016 04:25:00 10.4 C 75 % 6.17 C
55 22-04-2016 04:30:00 10.4 C 76 % 6.36 C
56 22-04-2016 04:35:00 10.4 C 76 % 6.36 C
57 22-04-2016 04:40:00 10.4 C 76 % 6.36 C
58 22-04-2016 04:45:00 10.3 C 76 % 6.26 C
59 22-04-2016 04:50:00 10.2 C 77 % 6.35 C
60 22-04-2016 04:55:00 10.1 C 77 % 6.26 C
61 22-04-2016 05:00:00 10.1 C 78 % 6.44 C
62 22-04-2016 05:05:00 10 C 78 % 6.35 C
63 22-04-2016 05:10:00 9.9 C 79 % 6.43 C
64 22-04-2016 05:15:00 9.9 C 79 % 6.43 C
65 22-04-2016 05:20:00 9.8 C 79 % 6.34 C
66 22-04-2016 05:25:00 9.8 C 79 % 6.34 C
67 22-04-2016 05:30:00 9.8 C 79 % 6.34 C
68 22-04-2016 05:35:00 9.8 C 79 % 6.34 C
69 22-04-2016 05:40:00 9.8 C 78 % 6.15 C
70 22-04-2016 05:45:00 9.8 C 78 % 6.15 C
71 22-04-2016 05:50:00 9.8 C 77 % 5.97 C
72 22-04-2016 05:55:00 9.8 C 76 % 5.78 C
73 22-04-2016 06:00:00 9.9 C 76 % 5.87 C
74 22-04-2016 06:05:00 9.9 C 77 % 6.06 C
75 22-04-2016 06:10:00 9.8 C 77 % 5.97 C
Sensor: Nr:Datum:Temp:Feuchte:Taupunkt:
Aussen-T/F 76 22-04-2016 06:15:00 9.8 C 78 % 6.15 C
77 22-04-2016 06:20:00 9.7 C 78 % 6.06 C
78 22-04-2016 06:25:00 9.8 C 75 % 5.59 C
79 22-04-2016 06:30:00 10 C 74 % 5.59 C
80 22-04-2016 06:35:00 10.1 C 73 % 5.49 C
81 22-04-2016 06:40:00 10.2 C 74 % 5.78 C
82 22-04-2016 06:45:00 10.2 C 73 % 5.58 C
83 22-04-2016 06:50:00 10.1 C 75 % 5.88 C
84 22-04-2016 06:55:00 10 C 75 % 5.78 C
85 22-04-2016 07:00:00 9.9 C 76 % 5.87 C
86 22-04-2016 07:05:00 9.8 C 76 % 5.78 C
87 22-04-2016 07:10:00 9.7 C 77 % 5.87 C
88 22-04-2016 07:15:00 9.6 C 77 % 5.77 C
89 22-04-2016 07:20:00 9.4 C 78 % 5.76 C
90 22-04-2016 07:25:00 9.4 C 79 % 5.95 C
91 22-04-2016 07:30:00 9.4 C 79 % 5.95 C
92 22-04-2016 07:35:00 9.4 C 79 % 5.95 C
93 22-04-2016 07:40:00 9.4 C 79 % 5.95 C
94 22-04-2016 07:45:00 9.6 C 78 % 5.96 C
95 22-04-2016 07:50:00 9.6 C 78 % 5.96 C
96 22-04-2016 07:55:00 9.7 C 78 % 6.06 C
97 22-04-2016 08:00:00 9.8 C 77 % 5.97 C
98 22-04-2016 08:05:00 9.8 C 75 % 5.59 C
99 22-04-2016 08:10:00 9.9 C 75 % 5.68 C
100 22-04-2016 08:15:00 10.1 C 75 % 5.88 C
Sensor: Nr:Datum:Temp:Feuchte:Taupunkt:
Aussen-T/F 101 22-04-2016 08:20:00 10.1 C 75 % 5.88 C
102 22-04-2016 08:25:00 10.2 C 74 % 5.78 C
103 22-04-2016 08:30:00 10.3 C 75 % 6.07 C
104 22-04-2016 08:35:00 10.4 C 73 % 5.78 C
105 22-04-2016 08:40:00 10.5 C 74 % 6.07 C
106 22-04-2016 08:45:00 10.6 C 73 % 5.97 C
107 22-04-2016 08:50:00 10.6 C 72 % 5.77 C
108 22-04-2016 08:55:00 10.7 C 73 % 6.07 C
109 22-04-2016 09:00:00 10.7 C 73 % 6.07 C
110 22-04-2016 09:05:00 10.8 C 74 % 6.36 C
111 22-04-2016 09:10:00 10.9 C 73 % 6.26 C
112 22-04-2016 09:15:00 11 C 73 % 6.35 C
113 22-04-2016 09:20:00 11.1 C 73 % 6.45 C
114 22-04-2016 09:25:00 11.2 C 73 % 6.55 C
115 22-04-2016 09:30:00 11.3 C 73 % 6.64 C
116 22-04-2016 09:35:00 11.3 C 73 % 6.64 C
117 22-04-2016 09:40:00 11.4 C 72 % 6.54 C
118 22-04-2016 09:45:00 11.5 C 73 % 6.84 C
119 22-04-2016 09:50:00 11.6 C 71 % 6.53 C
120 22-04-2016 09:55:00 11.6 C 72 % 6.73 C
121 22-04-2016 10:00:00 11.7 C 72 % 6.83 C
122 22-04-2016 10:05:00 11.9 C 71 % 6.82 C
123 22-04-2016 10:10:00 12.1 C 70 % 6.8 C
124 22-04-2016 10:15:00 12.2 C 69 % 6.69 C
125 22-04-2016 10:20:00 12.4 C 67 % 6.45 C
Sensor: Nr:Datum:Temp:Feuchte:Taupunkt:
Aussen-T/F 126 22-04-2016 10:25:00 12.4 C 66 % 6.23 C
127 22-04-2016 10:30:00 12.5 C 63 % 5.66 C
128 22-04-2016 10:35:00 12.6 C 63 % 5.75 C
129 22-04-2016 10:40:00 12.8 C 64 % 6.17 C
130 22-04-2016 10:45:00 12.9 C 64 % 6.26 C
131 22-04-2016 10:50:00 13.1 C 63 % 6.22 C
132 22-04-2016 10:55:00 13.3 C 58 % 5.22 C
133 22-04-2016 11:00:00 13.3 C 58 % 5.22 C
134 22-04-2016 11:05:00 13.4 C 59 % 5.56 C
135 22-04-2016 11:10:00 13.5 C 57 % 5.16 C
136 22-04-2016 11:15:00 13.5 C 57 % 5.16 C
137 22-04-2016 11:20:00 13.6 C 56 % 5 C
138 22-04-2016 11:25:00 13.6 C 56 % 5 C
139 22-04-2016 11:30:00 13.6 C 57 % 5.25 C
140 22-04-2016 11:35:00 13.7 C 57 % 5.35 C
141 22-04-2016 11:40:00 13.7 C 56 % 5.09 C
142 22-04-2016 11:45:00 13.7 C 56 % 5.09 C
143 22-04-2016 11:50:00 13.8 C 56 % 5.19 C
144 22-04-2016 11:55:00 13.9 C 56 % 5.28 C
145 22-04-2016 12:00:00 14 C 54 % 4.85 C
146 22-04-2016 12:05:00 14 C 55 % 5.11 C
147 22-04-2016 12:10:00 14.1 C 55 % 5.21 C
148 22-04-2016 12:15:00 14.1 C 55 % 5.21 C
149 22-04-2016 12:20:00 14.2 C 54 % 5.04 C
150 22-04-2016 12:25:00 14.3 C 54 % 5.13 C
Sensor: Nr:Datum:Temp:Feuchte:Taupunkt:
Aussen-T/F 151 22-04-2016 12:30:00 14.4 C 53 % 4.95 C
152 22-04-2016 12:35:00 14.4 C 52 % 4.68 C
153 22-04-2016 12:40:00 14.6 C 52 % 4.87 C
154 22-04-2016 12:45:00 14.6 C 50 % 4.31 C
155 22-04-2016 12:50:00 14.6 C 51 % 4.59 C
156 22-04-2016 12:55:00 14.7 C 52 % 4.96 C
157 22-04-2016 13:00:00 14.9 C 49 % 4.29 C
158 22-04-2016 13:05:00 14.9 C 49 % 4.29 C
159 22-04-2016 13:10:00 15 C 50 % 4.67 C
160 22-04-2016 13:15:00 15.1 C 49 % 4.48 C
161 22-04-2016 13:20:00 15.1 C 49 % 4.48 C
162 22-04-2016 13:25:00 15 C 49 % 4.39 C
163 22-04-2016 13:30:00 15.1 C 48 % 4.18 C
164 22-04-2016 13:35:00 15.1 C 49 % 4.48 C
165 22-04-2016 13:40:00 15.3 C 50 % 4.95 C
166 22-04-2016 13:45:00 15.4 C 47 % 4.16 C
167 22-04-2016 13:50:00 15.4 C 47 % 4.16 C
168 22-04-2016 13:55:00 15.6 C 46 % 4.03 C
169 22-04-2016 14:00:00 15.5 C 47 % 4.25 C
170 22-04-2016 14:05:00 15.6 C 46 % 4.03 C
171 22-04-2016 14:10:00 15.7 C 46 % 4.13 C
172 22-04-2016 14:15:00 15.7 C 46 % 4.13 C
173 22-04-2016 14:20:00 15.7 C 46 % 4.13 C
174 22-04-2016 14:25:00 15.8 C 46 % 4.22 C
175 22-04-2016 14:30:00 15.8 C 44 % 3.59 C
Sensor: Nr:Datum:Temp:Feuchte:Taupunkt:
Aussen-T/F 176 22-04-2016 14:35:00 15.8 C 46 % 4.22 C
177 22-04-2016 14:40:00 16 C 44 % 3.77 C
178 22-04-2016 14:45:00 16.1 C 43 % 3.53 C
179 22-04-2016 14:50:00 16.1 C 42 % 3.2 C
180 22-04-2016 14:55:00 16.1 C 45 % 4.18 C
181 22-04-2016 15:00:00 16.3 C 45 % 4.36 C
182 22-04-2016 15:05:00 16.6 C 43 % 3.98 C
183 22-04-2016 15:10:00 16.7 C 44 % 4.4 C
184 22-04-2016 15:15:00 16.9 C 43 % 4.25 C
185 22-04-2016 15:20:00 16.9 C 42 % 3.92 C
186 22-04-2016 15:25:00 17.1 C 43 % 4.43 C
187 22-04-2016 15:30:00 17.2 C 42 % 4.19 C
188 22-04-2016 15:35:00 17.3 C 42 % 4.28 C
189 22-04-2016 15:40:00 17.4 C 41 % 4.03 C
190 22-04-2016 15:45:00 17.6 C 43 % 4.89 C
191 22-04-2016 15:50:00 17.7 C 40 % 3.95 C
192 22-04-2016 15:55:00 17.7 C 42 % 4.64 C
193 22-04-2016 16:00:00 17.7 C 40 % 3.95 C
194 22-04-2016 16:05:00 17.8 C 40 % 4.03 C
195 22-04-2016 16:10:00 17.8 C 41 % 4.39 C
196 22-04-2016 16:15:00 17.9 C 41 % 4.48 C
197 22-04-2016 16:20:00 18.2 C 44 % 5.76 C
198 22-04-2016 16:25:00 18.4 C 43 % 5.61 C
199 22-04-2016 16:30:00 18.6 C 45 % 6.45 C
200 22-04-2016 16:35:00 18.9 C 44 % 6.39 C
Sensor: Nr:Datum:Temp:Feuchte:Taupunkt:
Aussen-T/F 201 22-04-2016 16:40:00 19.3 C 43 % 6.42 C
202 22-04-2016 16:45:00 19.3 C 44 % 6.75 C
203 22-04-2016 16:50:00 19.4 C 46 % 7.49 C
204 22-04-2016 16:55:00 19.7 C 42 % 6.44 C
205 22-04-2016 17:00:00 19.6 C 43 % 6.69 C
206 22-04-2016 17:05:00 19.4 C 43 % 6.51 C
207 22-04-2016 17:10:00 19.3 C 42 % 6.08 C
208 22-04-2016 17:15:00 19.3 C 43 % 6.42 C
209 22-04-2016 17:20:00 19.5 C 43 % 6.6 C
210 22-04-2016 17:25:00 19.4 C 41 % 5.82 C
211 22-04-2016 17:30:00 19.5 C 41 % 5.91 C
212 22-04-2016 17:35:00 19.3 C 41 % 5.73 C
213 22-04-2016 17:40:00 19 C 41 % 5.46 C
214 22-04-2016 17:45:00 18.7 C 42 % 5.54 C
215 22-04-2016 17:50:00 18.4 C 41 % 4.92 C
216 22-04-2016 17:55:00 18.2 C 41 % 4.75 C
217 22-04-2016 18:00:00 18.1 C 42 % 5 C
218 22-04-2016 18:05:00 18.2 C 41 % 4.75 C
219 22-04-2016 18:10:00 18.2 C 41 % 4.75 C
220 22-04-2016 18:15:00 18.2 C 40 % 4.39 C
221 22-04-2016 18:20:00 18.2 C 42 % 5.09 C
222 22-04-2016 18:25:00 18.1 C 40 % 4.3 C
223 22-04-2016 18:30:00 17.9 C 41 % 4.48 C
224 22-04-2016 18:35:00 17.6 C 41 % 4.21 C
225 22-04-2016 18:40:00 17.4 C 45 % 5.36 C
Sensor: Nr:Datum:Temp:Feuchte:Taupunkt:
Aussen-T/F 226 22-04-2016 18:45:00 17.3 C 45 % 5.27 C
227 22-04-2016 18:50:00 17.1 C 45 % 5.08 C
228 22-04-2016 18:55:00 16.9 C 46 % 5.22 C
229 22-04-2016 19:00:00 16.8 C 45 % 4.81 C
230 22-04-2016 19:05:00 16.6 C 45 % 4.63 C
231 22-04-2016 19:10:00 16.4 C 45 % 4.45 C
232 22-04-2016 19:15:00 16.3 C 46 % 4.67 C
233 22-04-2016 19:20:00 16.3 C 46 % 4.67 C
234 22-04-2016 19:25:00 16.2 C 47 % 4.89 C
235 22-04-2016 19:30:00 16 C 48 % 5.01 C
236 22-04-2016 19:35:00 15.9 C 49 % 5.21 C
237 22-04-2016 19:40:00 15.8 C 49 % 5.12 C
238 22-04-2016 19:45:00 15.7 C 50 % 5.32 C
239 22-04-2016 19:50:00 15.6 C 50 % 5.23 C
240 22-04-2016 19:55:00 15.4 C 51 % 5.33 C
241 22-04-2016 20:00:00 15.3 C 51 % 5.23 C
242 22-04-2016 20:05:00 15.3 C 52 % 5.51 C
243 22-04-2016 20:10:00 15.2 C 52 % 5.42 C
244 22-04-2016 20:15:00 15.1 C 53 % 5.6 C
245 22-04-2016 20:20:00 14.9 C 53 % 5.42 C
246 22-04-2016 20:25:00 14.9 C 54 % 5.69 C
247 22-04-2016 20:30:00 14.8 C 54 % 5.59 C
248 22-04-2016 20:35:00 14.7 C 55 % 5.76 C
249 22-04-2016 20:40:00 14.7 C 54 % 5.5 C
250 22-04-2016 20:45:00 14.6 C 54 % 5.41 C
Sensor: Nr:Datum:Temp:Feuchte:Taupunkt:
Aussen-T/F 251 22-04-2016 20:50:00 14.6 C 54 % 5.41 C
252 22-04-2016 20:55:00 14.4 C 54 % 5.22 C
253 22-04-2016 21:00:00 14.4 C 54 % 5.22 C
254 22-04-2016 21:05:00 14.3 C 54 % 5.13 C
255 22-04-2016 21:10:00 14.3 C 54 % 5.13 C
256 22-04-2016 21:15:00 14.2 C 54 % 5.04 C
257 22-04-2016 21:20:00 14.1 C 55 % 5.21 C
258 22-04-2016 21:25:00 14.1 C 55 % 5.21 C
259 22-04-2016 21:30:00 13.9 C 55 % 5.02 C
260 22-04-2016 21:35:00 13.9 C 57 % 5.53 C
261 22-04-2016 21:40:00 13.8 C 57 % 5.44 C
262 22-04-2016 21:45:00 13.7 C 60 % 6.09 C
263 22-04-2016 21:50:00 13.6 C 60 % 5.99 C
264 22-04-2016 21:55:00 13.4 C 58 % 5.32 C
265 22-04-2016 22:00:00 13.3 C 62 % 6.18 C
266 22-04-2016 22:05:00 13.2 C 62 % 6.09 C
267 22-04-2016 22:10:00 13.1 C 60 % 5.52 C
268 22-04-2016 22:15:00 13 C 63 % 6.13 C
269 22-04-2016 22:20:00 12.9 C 64 % 6.26 C
270 22-04-2016 22:25:00 12.8 C 64 % 6.17 C
271 22-04-2016 22:30:00 12.7 C 64 % 6.07 C
272 22-04-2016 22:35:00 12.5 C 65 % 6.11 C
273 22-04-2016 22:40:00 12.4 C 65 % 6.01 C
274 22-04-2016 22:45:00 12.3 C 68 % 6.57 C
275 22-04-2016 22:50:00 12.2 C 67 % 6.26 C
Sensor: Nr:Datum:Temp:Feuchte:Taupunkt:
Aussen-T/F 276 22-04-2016 22:55:00 12.2 C 67 % 6.26 C
277 22-04-2016 23:00:00 12.1 C 67 % 6.17 C
278 22-04-2016 23:05:00 12.1 C 66 % 5.95 C
279 22-04-2016 23:10:00 12.1 C 68 % 6.38 C
280 22-04-2016 23:15:00 12.1 C 67 % 6.17 C
281 22-04-2016 23:20:00 12 C 67 % 6.07 C
282 22-04-2016 23:25:00 11.9 C 67 % 5.98 C
283 22-04-2016 23:30:00 11.8 C 68 % 6.09 C
284 22-04-2016 23:35:00 11.7 C 68 % 6 C
285 22-04-2016 23:40:00 11.6 C 68 % 5.9 C
286 22-04-2016 23:45:00 11.6 C 69 % 6.11 C
287 22-04-2016 23:50:00 11.6 C 70 % 6.32 C
288 22-04-2016 23:55:00 11.6 C 69 % 6.11 C
289 23-04-2016 00:00:00 11.5 C 70 % 6.23 C
290 23-04-2016 00:05:00 11.5 C 69 % 6.02 C
291 23-04-2016 00:10:00 11.5 C 68 % 5.81 C
292 23-04-2016 00:15:00 11.6 C 69 % 6.11 C
293 23-04-2016 00:20:00 11.6 C 70 % 6.32 C
294 23-04-2016 00:25:00 11.5 C 69 % 6.02 C
295 23-04-2016 00:30:00 11.4 C 70 % 6.13 C
296 23-04-2016 00:35:00 11.4 C 70 % 6.13 C
297 23-04-2016 00:40:00 11.3 C 69 % 5.83 C
298 23-04-2016 00:45:00 11.3 C 70 % 6.03 C
299 23-04-2016 00:50:00 11.2 C 70 % 5.94 C
300 23-04-2016 00:55:00 11.2 C 70 % 5.94 C
Sensor: Nr:Datum:Temp:Feuchte:Taupunkt:
Aussen-T/F 301 23-04-2016 01:00:00 11.2 C 71 % 6.14 C
302 23-04-2016 01:05:00 11.1 C 71 % 6.05 C
303 23-04-2016 01:10:00 11 C 71 % 5.95 C
304 23-04-2016 01:15:00 10.9 C 71 % 5.86 C
305 23-04-2016 01:20:00 10.9 C 71 % 5.86 C
306 23-04-2016 01:25:00 10.9 C 72 % 6.06 C
307 23-04-2016 01:30:00 10.8 C 73 % 6.16 C
308 23-04-2016 01:35:00 10.8 C 74 % 6.36 C
309 23-04-2016 01:40:00 10.7 C 75 % 6.46 C
310 23-04-2016 01:45:00 10.7 C 76 % 6.65 C
311 23-04-2016 01:50:00 10.6 C 76 % 6.55 C
312 23-04-2016 01:55:00 10.4 C 76 % 6.36 C
313 23-04-2016 02:00:00 10.3 C 77 % 6.45 C
314 23-04-2016 02:05:00 10.2 C 78 % 6.54 C
315 23-04-2016 02:10:00 10.1 C 77 % 6.26 C
316 23-04-2016 02:15:00 10.1 C 78 % 6.44 C
317 23-04-2016 02:20:00 10 C 77 % 6.16 C
318 23-04-2016 02:25:00 9.9 C 78 % 6.25 C
319 23-04-2016 02:30:00 9.9 C 79 % 6.43 C
320 23-04-2016 02:35:00 9.8 C 81 % 6.7 C
321 23-04-2016 02:40:00 9.7 C 81 % 6.6 C
322 23-04-2016 02:45:00 9.7 C 82 % 6.78 C
323 23-04-2016 02:50:00 9.6 C 82 % 6.68 C
324 23-04-2016 02:55:00 9.5 C 83 % 6.76 C
325 23-04-2016 03:00:00 9.4 C 82 % 6.49 C
Sensor: Nr:Datum:Temp:Feuchte:Taupunkt:
Aussen-T/F 326 23-04-2016 03:05:00 9.4 C 82 % 6.49 C
327 23-04-2016 03:10:00 9.4 C 84 % 6.84 C
328 23-04-2016 03:15:00 9.3 C 85 % 6.91 C
329 23-04-2016 03:20:00 9.2 C 86 % 6.98 C
330 23-04-2016 03:25:00 9.1 C 86 % 6.89 C
331 23-04-2016 03:30:00 9 C 85 % 6.62 C
332 23-04-2016 03:35:00 8.9 C 84 % 6.35 C
333 23-04-2016 03:40:00 8.9 C 86 % 6.69 C
334 23-04-2016 03:45:00 8.9 C 87 % 6.86 C
335 23-04-2016 03:50:00 8.8 C 87 % 6.76 C
336 23-04-2016 03:55:00 8.8 C 87 % 6.76 C
337 23-04-2016 04:00:00 8.7 C 87 % 6.66 C
338 23-04-2016 04:05:00 8.7 C 88 % 6.83 C
339 23-04-2016 04:10:00 8.6 C 88 % 6.73 C
340 23-04-2016 04:15:00 8.5 C 89 % 6.79 C
341 23-04-2016 04:20:00 8.4 C 89 % 6.7 C
342 23-04-2016 04:25:00 8.4 C 90 % 6.86 C
343 23-04-2016 04:30:00 8.4 C 90 % 6.86 C
344 23-04-2016 04:35:00 8.3 C 90 % 6.76 C
345 23-04-2016 04:40:00 8.3 C 90 % 6.76 C
346 23-04-2016 04:45:00 8.2 C 91 % 6.82 C
347 23-04-2016 04:50:00 8.2 C 91 % 6.82 C
348 23-04-2016 04:55:00 8.1 C 91 % 6.72 C
349 23-04-2016 05:00:00 8 C 91 % 6.62 C
350 23-04-2016 05:05:00 7.9 C 91 % 6.52 C
Sensor: Nr:Datum:Temp:Feuchte:Taupunkt:
Aussen-T/F 351 23-04-2016 05:10:00 7.9 C 92 % 6.68 C
352 23-04-2016 05:15:00 7.9 C 92 % 6.68 C
353 23-04-2016 05:20:00 7.8 C 92 % 6.58 C
354 23-04-2016 05:25:00 7.8 C 92 % 6.58 C
355 23-04-2016 05:30:00 7.8 C 92 % 6.58 C
356 23-04-2016 05:35:00 7.8 C 92 % 6.58 C
357 23-04-2016 05:40:00 7.8 C 92 % 6.58 C
358 23-04-2016 05:45:00 7.7 C 91 % 6.33 C
359 23-04-2016 05:50:00 7.7 C 91 % 6.33 C
360 23-04-2016 05:55:00 7.8 C 91 % 6.43 C
361 23-04-2016 06:00:00 7.7 C 92 % 6.48 C
362 23-04-2016 06:05:00 7.7 C 92 % 6.48 C
363 23-04-2016 06:10:00 7.7 C 92 % 6.48 C
364 23-04-2016 06:15:00 7.6 C 92 % 6.39 C
365 23-04-2016 06:20:00 7.6 C 92 % 6.39 C
366 23-04-2016 06:25:00 7.6 C 93 % 6.54 C
367 23-04-2016 06:30:00 7.5 C 93 % 6.44 C
368 23-04-2016 06:35:00 7.4 C 93 % 6.34 C
369 23-04-2016 06:40:00 7.4 C 92 % 6.19 C
370 23-04-2016 06:45:00 7.3 C 92 % 6.09 C
371 23-04-2016 06:50:00 7.3 C 92 % 6.09 C
372 23-04-2016 06:55:00 7.3 C 91 % 5.93 C
373 23-04-2016 07:00:00 7.3 C 91 % 5.93 C
374 23-04-2016 07:05:00 7.3 C 91 % 5.93 C
375 23-04-2016 07:10:00 7.3 C 91 % 5.93 C
Sensor: Nr:Datum:Temp:Feuchte:Taupunkt:
Aussen-T/F 376 23-04-2016 07:15:00 7.3 C 91 % 5.93 C
377 23-04-2016 07:20:00 7.2 C 90 % 5.67 C
378 23-04-2016 07:25:00 7.1 C 90 % 5.57 C
379 23-04-2016 07:30:00 7.1 C 91 % 5.73 C
380 23-04-2016 07:35:00 7.1 C 91 % 5.73 C
381 23-04-2016 07:40:00 7.1 C 91 % 5.73 C
382 23-04-2016 07:45:00 7.1 C 91 % 5.73 C
383 23-04-2016 07:50:00 7 C 91 % 5.63 C
384 23-04-2016 07:55:00 6.9 C 91 % 5.54 C
385 23-04-2016 08:00:00 6.9 C 91 % 5.54 C
386 23-04-2016 08:05:00 6.8 C 90 % 5.28 C
387 23-04-2016 08:10:00 6.7 C 91 % 5.34 C
388 23-04-2016 08:15:00 6.7 C 91 % 5.34 C
389 23-04-2016 08:20:00 6.7 C 91 % 5.34 C
390 23-04-2016 08:25:00 6.7 C 91 % 5.34 C
391 23-04-2016 08:30:00 6.6 C 91 % 5.24 C
392 23-04-2016 08:35:00 6.6 C 91 % 5.24 C
393 23-04-2016 08:40:00 6.6 C 91 % 5.24 C
394 23-04-2016 08:45:00 6.5 C 90 % 4.98 C
395 23-04-2016 08:50:00 6.4 C 90 % 4.88 C
396 23-04-2016 08:55:00 6.4 C 90 % 4.88 C
397 23-04-2016 09:00:00 6.4 C 90 % 4.88 C
398 23-04-2016 09:05:00 6.4 C 91 % 5.04 C
399 23-04-2016 09:10:00 6.4 C 91 % 5.04 C
400 23-04-2016 09:15:00 6.4 C 91 % 5.04 C
Sensor: Nr:Datum:Temp:Feuchte:Taupunkt:
Aussen-T/F 401 23-04-2016 09:20:00 6.3 C 91 % 4.94 C
402 23-04-2016 09:25:00 6.3 C 91 % 4.94 C
403 23-04-2016 09:30:00 6.3 C 91 % 4.94 C
404 23-04-2016 09:35:00 6.3 C 91 % 4.94 C
405 23-04-2016 09:40:00 6.3 C 92 % 5.1 C
406 23-04-2016 09:45:00 6.3 C 92 % 5.1 C
407 23-04-2016 09:50:00 6.3 C 92 % 5.1 C
408 23-04-2016 09:55:00 6.3 C 91 % 4.94 C
409 23-04-2016 10:00:00 6.3 C 91 % 4.94 C
410 23-04-2016 10:05:00 6.3 C 92 % 5.1 C
411 23-04-2016 10:10:00 6.3 C 92 % 5.1 C
412 23-04-2016 10:15:00 6.3 C 92 % 5.1 C
413 23-04-2016 10:20:00 6.3 C 92 % 5.1 C
414 23-04-2016 10:25:00 6.3 C 92 % 5.1 C
415 23-04-2016 10:30:00 6.2 C 92 % 5 C
416 23-04-2016 10:35:00 6.3 C 92 % 5.1 C
417 23-04-2016 10:40:00 6.3 C 92 % 5.1 C
418 23-04-2016 10:45:00 6.3 C 92 % 5.1 C
419 23-04-2016 10:50:00 6.3 C 93 % 5.25 C
420 23-04-2016 10:55:00 6.4 C 92 % 5.2 C
421 23-04-2016 11:00:00 6.4 C 92 % 5.2 C
422 23-04-2016 11:05:00 6.4 C 92 % 5.2 C
423 23-04-2016 11:10:00 6.4 C 91 % 5.04 C
424 23-04-2016 11:15:00 6.4 C 90 % 4.88 C
425 23-04-2016 11:20:00 6.4 C 91 % 5.04 C
Sensor: Nr:Datum:Temp:Feuchte:Taupunkt:
Aussen-T/F 426 23-04-2016 11:25:00 6.4 C 91 % 5.04 C
427 23-04-2016 11:30:00 6.5 C 91 % 5.14 C
428 23-04-2016 11:35:00 6.4 C 89 % 4.72 C
429 23-04-2016 11:40:00 6.4 C 89 % 4.72 C
430 23-04-2016 11:45:00 6.4 C 90 % 4.88 C
431 23-04-2016 11:50:00 6.4 C 89 % 4.72 C
432 23-04-2016 11:55:00 6.3 C 89 % 4.62 C
433 23-04-2016 12:00:00 6.4 C 90 % 4.88 C
434 23-04-2016 12:05:00 6.4 C 89 % 4.72 C
435 23-04-2016 12:10:00 6.5 C 88 % 4.66 C
436 23-04-2016 12:15:00 6.6 C 88 % 4.76 C
437 23-04-2016 12:20:00 6.6 C 87 % 4.6 C
438 23-04-2016 12:25:00 6.7 C 88 % 4.86 C
439 23-04-2016 12:30:00 6.9 C 88 % 5.05 C
440 23-04-2016 12:35:00 6.9 C 87 % 4.89 C
441 23-04-2016 12:40:00 6.9 C 86 % 4.72 C
442 23-04-2016 12:45:00 6.9 C 86 % 4.72 C
443 23-04-2016 12:50:00 6.8 C 85 % 4.46 C
444 23-04-2016 12:55:00 6.8 C 87 % 4.79 C
445 23-04-2016 13:00:00 6.9 C 87 % 4.89 C
446 23-04-2016 13:05:00 7.2 C 87 % 5.19 C
447 23-04-2016 13:10:00 7.3 C 84 % 4.78 C
448 23-04-2016 13:15:00 7.4 C 83 % 4.71 C
449 23-04-2016 13:20:00 7.2 C 79 % 3.81 C
450 23-04-2016 13:25:00 7.1 C 79 % 3.71 C
Sensor: Nr:Datum:Temp:Feuchte:Taupunkt:
Aussen-T/F 451 23-04-2016 13:30:00 7.2 C 76 % 3.26 C
452 23-04-2016 13:35:00 7.3 C 77 % 3.54 C
453 23-04-2016 13:40:00 7.4 C 79 % 4 C
454 23-04-2016 13:45:00 7.5 C 75 % 3.36 C
455 23-04-2016 13:50:00 7.6 C 77 % 3.83 C
456 23-04-2016 13:55:00 7.8 C 77 % 4.03 C
457 23-04-2016 14:00:00 7.9 C 76 % 3.94 C
458 23-04-2016 14:05:00 7.9 C 77 % 4.12 C
459 23-04-2016 14:10:00 7.9 C 76 % 3.94 C
460 23-04-2016 14:15:00 7.8 C 78 % 4.21 C
461 23-04-2016 14:20:00 7.8 C 78 % 4.21 C
462 23-04-2016 14:25:00 7.9 C 75 % 3.75 C
463 23-04-2016 14:30:00 8.1 C 75 % 3.94 C
464 23-04-2016 14:35:00 8.3 C 71 % 3.36 C
465 23-04-2016 14:40:00 8.5 C 69 % 3.15 C
466 23-04-2016 14:45:00 8.7 C 70 % 3.54 C
467 23-04-2016 14:50:00 8.7 C 68 % 3.13 C
468 23-04-2016 14:55:00 8.9 C 65 % 2.69 C
469 23-04-2016 15:00:00 9.3 C 64 % 2.85 C
470 23-04-2016 15:05:00 9.3 C 59 % 1.71 C
471 23-04-2016 15:10:00 9.1 C 61 % 1.99 C
472 23-04-2016 15:15:00 9 C 62 % 2.12 C
473 23-04-2016 15:20:00 8.9 C 62 % 2.03 C
474 23-04-2016 15:25:00 8.9 C 60 % 1.57 C
475 23-04-2016 15:30:00 9 C 59 % 1.43 C
Sensor: Nr:Datum:Temp:Feuchte:Taupunkt:
Aussen-T/F 476 23-04-2016 15:35:00 9.2 C 59 % 1.62 C
477 23-04-2016 15:40:00 9.6 C 59 % 1.99 C
478 23-04-2016 15:45:00 9.6 C 59 % 1.99 C
479 23-04-2016 15:50:00 9.4 C 59 % 1.81 C
480 23-04-2016 15:55:00 9.2 C 59 % 1.62 C
481 23-04-2016 16:00:00 8.9 C 60 % 1.57 C
482 23-04-2016 16:05:00 8.9 C 60 % 1.57 C
483 23-04-2016 16:10:00 8.9 C 60 % 1.57 C
484 23-04-2016 16:15:00 8.9 C 61 % 1.8 C
485 23-04-2016 16:20:00 9.1 C 59 % 1.52 C
486 23-04-2016 16:25:00 9 C 60 % 1.66 C
487 23-04-2016 16:30:00 8.8 C 58 % 1 C
488 23-04-2016 16:35:00 8.7 C 59 % 1.15 C
489 23-04-2016 16:40:00 8.6 C 57 % 0.58 C
490 23-04-2016 16:45:00 8.6 C 60 % 1.29 C
491 23-04-2016 16:50:00 8.6 C 61 % 1.52 C
492 23-04-2016 16:55:00 8.7 C 60 % 1.38 C
493 23-04-2016 17:00:00 8.8 C 63 % 2.16 C
494 23-04-2016 17:05:00 8.8 C 61 % 1.71 C
495 23-04-2016 17:10:00 9.1 C 62 % 2.22 C
496 23-04-2016 17:15:00 9.4 C 60 % 2.04 C
497 23-04-2016 17:20:00 9.8 C 59 % 2.18 C
498 23-04-2016 17:25:00 10.1 C 57 % 1.98 C
499 23-04-2016 17:30:00 10.5 C 57 % 2.35 C
500 23-04-2016 17:35:00 10.8 C 57 % 2.63 C
Sensor: Nr:Datum:Temp:Feuchte:Taupunkt:
Aussen-T/F 501 23-04-2016 17:40:00 10.8 C 53 % 1.62 C
502 23-04-2016 17:45:00 10.7 C 54 % 1.78 C
503 23-04-2016 17:50:00 10.2 C 51 % 0.53 C
504 23-04-2016 17:55:00 9.9 C 52 % 0.52 C
505 23-04-2016 18:00:00 9.8 C 52 % 0.43 C
506 23-04-2016 18:05:00 10 C 50 % 0.07 C
507 23-04-2016 18:10:00 10.1 C 51 % 0.44 C
508 23-04-2016 18:15:00 10 C 50 % 0.07 C
509 23-04-2016 18:20:00 9.8 C 51 % 0.16 C
510 23-04-2016 18:25:00 9.9 C 52 % 0.52 C
511 23-04-2016 18:30:00 10.1 C 54 % 1.23 C
512 23-04-2016 18:35:00 10.3 C 52 % 0.89 C
513 23-04-2016 18:40:00 10.6 C 50 % 0.62 C
514 23-04-2016 18:45:00 10.7 C 52 % 1.26 C
515 23-04-2016 18:50:00 10.3 C 52 % 0.89 C
516 23-04-2016 18:55:00 10 C 51 % 0.34 C
517 23-04-2016 19:00:00 9.6 C 51 % -0.03 C
518 23-04-2016 19:05:00 9.4 C 53 % 0.32 C
519 23-04-2016 19:10:00 9.3 C 54 % 0.48 C
520 23-04-2016 19:15:00 9.3 C 55 % 0.74 C
521 23-04-2016 19:20:00 8.7 C 59 % 1.15 C
522 23-04-2016 19:25:00 8.2 C 63 % 1.59 C
523 23-04-2016 19:30:00 7.9 C 65 % 1.74 C
524 23-04-2016 19:35:00 7.7 C 65 % 1.55 C
525 23-04-2016 19:40:00 7.5 C 67 % 1.78 C
Sensor: Nr:Datum:Temp:Feuchte:Taupunkt:
Aussen-T/F 526 23-04-2016 19:45:00 7.4 C 67 % 1.69 C
527 23-04-2016 19:50:00 7.5 C 68 % 1.99 C
528 23-04-2016 19:55:00 7.4 C 67 % 1.69 C
529 23-04-2016 20:00:00 7.4 C 68 % 1.89 C
530 23-04-2016 20:05:00 7.3 C 69 % 2 C
531 23-04-2016 20:10:00 7.3 C 69 % 2 C
532 23-04-2016 20:15:00 7.2 C 70 % 2.11 C
533 23-04-2016 20:20:00 7.2 C 68 % 1.7 C
534 23-04-2016 20:25:00 7.2 C 68 % 1.7 C
535 23-04-2016 20:30:00 7.2 C 69 % 1.9 C
536 23-04-2016 20:35:00 7.2 C 69 % 1.9 C
537 23-04-2016 20:40:00 7.1 C 70 % 2.01 C
538 23-04-2016 20:45:00 7.1 C 71 % 2.21 C
539 23-04-2016 20:50:00 6.8 C 73 % 2.31 C
540 23-04-2016 20:55:00 6.5 C 75 % 2.4 C
541 23-04-2016 21:00:00 6.3 C 76 % 2.39 C
542 23-04-2016 21:05:00 6.2 C 77 % 2.48 C
543 23-04-2016 21:10:00 6.1 C 78 % 2.56 C
544 23-04-2016 21:15:00 6 C 78 % 2.46 C
545 23-04-2016 21:20:00 5.9 C 78 % 2.37 C
546 23-04-2016 21:25:00 5.8 C 79 % 2.45 C
547 23-04-2016 21:30:00 5.7 C 79 % 2.35 C
548 23-04-2016 21:35:00 5.7 C 79 % 2.35 C
549 23-04-2016 21:40:00 5.6 C 80 % 2.43 C
550 23-04-2016 21:45:00 5.6 C 81 % 2.6 C
Sensor: Nr:Datum:Temp:Feuchte:Taupunkt:
Aussen-T/F 551 23-04-2016 21:50:00 5.5 C 81 % 2.51 C
552 23-04-2016 21:55:00 5.4 C 82 % 2.58 C
553 23-04-2016 22:00:00 5.4 C 83 % 2.75 C
554 23-04-2016 22:05:00 5.3 C 81 % 2.31 C
555 23-04-2016 22:10:00 5.4 C 81 % 2.41 C
556 23-04-2016 22:15:00 5.4 C 82 % 2.58 C
557 23-04-2016 22:20:00 5.5 C 83 % 2.85 C
558 23-04-2016 22:25:00 5.4 C 84 % 2.92 C
559 23-04-2016 22:30:00 5.3 C 84 % 2.82 C
560 23-04-2016 22:35:00 5.2 C 84 % 2.72 C
561 23-04-2016 22:40:00 5 C 84 % 2.53 C
562 23-04-2016 22:45:00 4.8 C 84 % 2.33 C
563 23-04-2016 22:50:00 4.8 C 84 % 2.33 C
564 23-04-2016 22:55:00 4.7 C 83 % 2.07 C
565 23-04-2016 23:00:00 4.7 C 83 % 2.07 C
566 23-04-2016 23:05:00 4.7 C 83 % 2.07 C
567 23-04-2016 23:10:00 4.6 C 82 % 1.8 C
568 23-04-2016 23:15:00 4.6 C 82 % 1.8 C
569 23-04-2016 23:20:00 4.6 C 79 % 1.28 C
570 23-04-2016 23:25:00 4.6 C 80 % 1.46 C
571 23-04-2016 23:30:00 4.7 C 79 % 1.38 C
572 23-04-2016 23:35:00 4.7 C 79 % 1.38 C
573 23-04-2016 23:40:00 4.7 C 78 % 1.2 C
574 23-04-2016 23:45:00 4.7 C 79 % 1.38 C
575 23-04-2016 23:50:00 4.7 C 79 % 1.38 C
Sensor: Nr:Datum:Temp:Feuchte:Taupunkt:
Aussen-T/F 576 23-04-2016 23:55:00 4.7 C 78 % 1.2 C
577 24-04-2016 00:00:00 4.7 C 79 % 1.38 C
578 24-04-2016 00:05:00 4.6 C 78 % 1.1 C
579 24-04-2016 00:10:00 4.6 C 78 % 1.1 C
580 24-04-2016 00:15:00 4.6 C 78 % 1.1 C
581 24-04-2016 00:20:00 4.6 C 77 % 0.92 C
582 24-04-2016 00:25:00 4.7 C 78 % 1.2 C
583 24-04-2016 00:30:00 4.7 C 78 % 1.2 C
584 24-04-2016 00:35:00 4.7 C 77 % 1.02 C
585 24-04-2016 00:40:00 4.8 C 77 % 1.12 C
586 24-04-2016 00:45:00 4.8 C 78 % 1.3 C
587 24-04-2016 00:50:00 4.8 C 77 % 1.12 C
588 24-04-2016 00:55:00 4.8 C 78 % 1.3 C
589 24-04-2016 01:00:00 4.8 C 77 % 1.12 C
590 24-04-2016 01:05:00 4.8 C 77 % 1.12 C
591 24-04-2016 01:10:00 4.8 C 77 % 1.12 C
592 24-04-2016 01:15:00 4.9 C 78 % 1.39 C
593 24-04-2016 01:20:00 4.8 C 78 % 1.3 C
594 24-04-2016 01:25:00 4.8 C 78 % 1.3 C
595 24-04-2016 01:30:00 4.8 C 78 % 1.3 C
596 24-04-2016 01:35:00 4.8 C 78 % 1.3 C
597 24-04-2016 01:40:00 4.8 C 78 % 1.3 C
598 24-04-2016 01:45:00 4.8 C 79 % 1.47 C
599 24-04-2016 01:50:00 4.8 C 79 % 1.47 C
600 24-04-2016 01:55:00 4.8 C 78 % 1.3 C
Sensor: Nr:Datum:Temp:Feuchte:Taupunkt:
Aussen-T/F 601 24-04-2016 02:00:00 4.8 C 78 % 1.3 C
602 24-04-2016 02:05:00 4.7 C 78 % 1.2 C
603 24-04-2016 02:10:00 4.7 C 78 % 1.2 C
604 24-04-2016 02:15:00 4.7 C 78 % 1.2 C
605 24-04-2016 02:20:00 4.6 C 79 % 1.28 C
606 24-04-2016 02:25:00 4.5 C 79 % 1.18 C
607 24-04-2016 02:30:00 4.4 C 79 % 1.09 C
608 24-04-2016 02:35:00 4.3 C 80 % 1.16 C
609 24-04-2016 02:40:00 4.3 C 79 % 0.99 C
610 24-04-2016 02:45:00 4.3 C 81 % 1.34 C
611 24-04-2016 02:50:00 4.2 C 81 % 1.24 C
612 24-04-2016 02:55:00 4.2 C 82 % 1.41 C
613 24-04-2016 03:00:00 4.1 C 82 % 1.31 C
614 24-04-2016 03:05:00 4 C 82 % 1.21 C
615 24-04-2016 03:10:00 4 C 82 % 1.21 C
616 24-04-2016 03:15:00 4 C 83 % 1.38 C
617 24-04-2016 03:20:00 4 C 83 % 1.38 C
618 24-04-2016 03:25:00 4 C 83 % 1.38 C
619 24-04-2016 03:30:00 4 C 82 % 1.21 C
620 24-04-2016 03:35:00 4.1 C 82 % 1.31 C
621 24-04-2016 03:40:00 4.2 C 82 % 1.41 C
622 24-04-2016 03:45:00 4.2 C 82 % 1.41 C
623 24-04-2016 03:50:00 4.2 C 82 % 1.41 C
624 24-04-2016 03:55:00 4.2 C 82 % 1.41 C
625 24-04-2016 04:00:00 4.2 C 82 % 1.41 C
Sensor: Nr:Datum:Temp:Feuchte:Taupunkt:
Aussen-T/F 626 24-04-2016 04:05:00 4.2 C 81 % 1.24 C
627 24-04-2016 04:10:00 4.2 C 82 % 1.41 C
628 24-04-2016 04:15:00 4.1 C 83 % 1.48 C
629 24-04-2016 04:20:00 4 C 83 % 1.38 C
630 24-04-2016 04:25:00 3.9 C 82 % 1.12 C
631 24-04-2016 04:30:00 3.9 C 83 % 1.28 C
632 24-04-2016 04:35:00 3.8 C 83 % 1.19 C
633 24-04-2016 04:40:00 3.7 C 84 % 1.25 C
634 24-04-2016 04:45:00 3.7 C 84 % 1.25 C
635 24-04-2016 04:50:00 3.6 C 84 % 1.16 C
636 24-04-2016 04:55:00 3.4 C 84 % 0.96 C
637 24-04-2016 05:00:00 3.3 C 84 % 0.86 C
638 24-04-2016 05:05:00 3.2 C 85 % 0.93 C
639 24-04-2016 05:10:00 3.2 C 85 % 0.93 C
640 24-04-2016 05:15:00 3.1 C 85 % 0.83 C
641 24-04-2016 05:20:00 3.1 C 85 % 0.83 C
642 24-04-2016 05:25:00 2.9 C 85 % 0.63 C
643 24-04-2016 05:30:00 2.8 C 85 % 0.54 C
644 24-04-2016 05:35:00 2.8 C 86 % 0.7 C
645 24-04-2016 05:40:00 2.7 C 86 % 0.6 C
646 24-04-2016 05:45:00 2.7 C 87 % 0.76 C
647 24-04-2016 05:50:00 2.7 C 88 % 0.92 C
648 24-04-2016 05:55:00 2.7 C 88 % 0.92 C
649 24-04-2016 06:00:00 2.7 C 88 % 0.92 C
650 24-04-2016 06:05:00 2.7 C 88 % 0.92 C
Sensor: Nr:Datum:Temp:Feuchte:Taupunkt:
Aussen-T/F 651 24-04-2016 06:10:00 2.6 C 88 % 0.82 C
652 24-04-2016 06:15:00 2.6 C 88 % 0.82 C
653 24-04-2016 06:20:00 2.5 C 88 % 0.72 C
654 24-04-2016 06:25:00 2.5 C 88 % 0.72 C
655 24-04-2016 06:30:00 2.6 C 89 % 0.97 C
656 24-04-2016 06:35:00 2.7 C 89 % 1.07 C
657 24-04-2016 06:40:00 2.7 C 88 % 0.92 C
658 24-04-2016 06:45:00 2.8 C 89 % 1.17 C
659 24-04-2016 06:50:00 2.8 C 89 % 1.17 C
660 24-04-2016 06:55:00 2.8 C 89 % 1.17 C
661 24-04-2016 07:00:00 2.9 C 89 % 1.27 C
662 24-04-2016 07:05:00 2.9 C 90 % 1.43 C
663 24-04-2016 07:10:00 2.9 C 90 % 1.43 C
664 24-04-2016 07:15:00 2.9 C 90 % 1.43 C
665 24-04-2016 07:20:00 3 C 90 % 1.52 C
666 24-04-2016 07:25:00 3 C 90 % 1.52 C
667 24-04-2016 07:30:00 3 C 90 % 1.52 C
668 24-04-2016 07:35:00 3 C 90 % 1.52 C
669 24-04-2016 07:40:00 3.1 C 91 % 1.78 C
670 24-04-2016 07:45:00 3.1 C 91 % 1.78 C
671 24-04-2016 07:50:00 3.2 C 91 % 1.88 C
672 24-04-2016 07:55:00 3.3 C 90 % 1.82 C
673 24-04-2016 08:00:00 3.3 C 90 % 1.82 C
674 24-04-2016 08:05:00 3.4 C 90 % 1.92 C
675 24-04-2016 08:10:00 3.5 C 89 % 1.86 C
Sensor: Nr:Datum:Temp:Feuchte:Taupunkt:
Aussen-T/F 676 24-04-2016 08:15:00 3.6 C 89 % 1.96 C
677 24-04-2016 08:20:00 3.7 C 88 % 1.9 C
678 24-04-2016 08:25:00 3.8 C 87 % 1.84 C
679 24-04-2016 08:30:00 3.9 C 88 % 2.1 C
680 24-04-2016 08:35:00 4 C 87 % 2.04 C
681 24-04-2016 08:40:00 4.1 C 86 % 1.97 C
682 24-04-2016 08:45:00 4.2 C 86 % 2.07 C
683 24-04-2016 08:50:00 4.3 C 86 % 2.17 C
684 24-04-2016 08:55:00 4.5 C 87 % 2.53 C
685 24-04-2016 09:00:00 4.6 C 85 % 2.3 C
686 24-04-2016 09:05:00 4.6 C 83 % 1.97 C
687 24-04-2016 09:10:00 4.7 C 83 % 2.07 C
688 24-04-2016 09:15:00 4.8 C 83 % 2.16 C
689 24-04-2016 09:20:00 4.7 C 81 % 1.73 C
690 24-04-2016 09:25:00 4.7 C 82 % 1.9 C
691 24-04-2016 09:30:00 4.8 C 82 % 1.99 C
692 24-04-2016 09:35:00 4.8 C 81 % 1.82 C
693 24-04-2016 09:40:00 4.7 C 80 % 1.55 C
694 24-04-2016 09:45:00 4.7 C 82 % 1.9 C
695 24-04-2016 09:50:00 4.8 C 82 % 1.99 C
696 24-04-2016 09:55:00 5 C 80 % 1.84 C
697 24-04-2016 10:00:00 5.2 C 80 % 2.04 C
698 24-04-2016 10:05:00 5.5 C 80 % 2.33 C
699 24-04-2016 10:10:00 5.6 C 78 % 2.07 C
700 24-04-2016 10:15:00 5.7 C 77 % 1.99 C
Sensor: Nr:Datum:Temp:Feuchte:Taupunkt:
Aussen-T/F 701 24-04-2016 10:20:00 5.8 C 73 % 1.34 C
702 24-04-2016 10:25:00 5.8 C 73 % 1.34 C
703 24-04-2016 10:30:00 5.9 C 71 % 1.06 C
704 24-04-2016 10:35:00 6.1 C 70 % 1.05 C
705 24-04-2016 10:40:00 6.3 C 69 % 1.04 C
706 24-04-2016 10:45:00 6.3 C 68 % 0.84 C
707 24-04-2016 10:50:00 6 C 72 % 1.35 C
708 24-04-2016 10:55:00 5.7 C 76 % 1.81 C
709 24-04-2016 11:00:00 5.4 C 78 % 1.88 C
710 24-04-2016 11:05:00 5.5 C 77 % 1.8 C
711 24-04-2016 11:10:00 5.6 C 76 % 1.71 C
712 24-04-2016 11:15:00 5.8 C 76 % 1.91 C
713 24-04-2016 11:20:00 5.9 C 76 % 2 C
714 24-04-2016 11:25:00 6 C 76 % 2.1 C
715 24-04-2016 11:30:00 6.1 C 76 % 2.2 C
716 24-04-2016 11:35:00 6.2 C 75 % 2.11 C
717 24-04-2016 11:40:00 6.3 C 74 % 2.02 C
718 24-04-2016 11:45:00 6.5 C 74 % 2.21 C
719 24-04-2016 11:50:00 6.7 C 73 % 2.21 C
720 24-04-2016 11:55:00 6.8 C 71 % 1.92 C
721 24-04-2016 12:00:00 6.9 C 70 % 1.82 C
722 24-04-2016 12:05:00 6.7 C 63 % 0.17 C
723 24-04-2016 12:10:00 6.8 C 64 % 0.48 C
724 24-04-2016 12:15:00 6.9 C 68 % 1.41 C
725 24-04-2016 12:20:00 7.2 C 67 % 1.49 C
Sensor: Nr:Datum:Temp:Feuchte:Taupunkt:
Aussen-T/F 726 24-04-2016 12:25:00 7.4 C 65 % 1.26 C
727 24-04-2016 12:30:00 7.5 C 64 % 1.14 C
728 24-04-2016 12:35:00 7.1 C 71 % 2.21 C
729 24-04-2016 12:40:00 6.5 C 73 % 2.02 C
730 24-04-2016 12:45:00 6.2 C 77 % 2.48 C
731 24-04-2016 12:50:00 6.1 C 80 % 2.92 C
732 24-04-2016 12:55:00 5.8 C 82 % 2.97 C
733 24-04-2016 13:00:00 5.7 C 84 % 3.21 C
734 24-04-2016 13:05:00 5.3 C 83 % 2.65 C
735 24-04-2016 13:10:00 4.9 C 81 % 1.92 C
736 24-04-2016 13:15:00 4.8 C 83 % 2.16 C
737 24-04-2016 13:20:00 4.8 C 83 % 2.16 C
738 24-04-2016 13:25:00 4.9 C 83 % 2.26 C
739 24-04-2016 13:30:00 5.1 C 84 % 2.63 C
740 24-04-2016 13:35:00 5.4 C 85 % 3.09 C
741 24-04-2016 13:40:00 5.7 C 84 % 3.21 C
742 24-04-2016 13:45:00 5.9 C 80 % 2.72 C
743 24-04-2016 13:50:00 6.1 C 79 % 2.74 C
744 24-04-2016 13:55:00 6.3 C 82 % 3.46 C
745 24-04-2016 14:00:00 6.6 C 81 % 3.58 C
746 24-04-2016 14:05:00 6.9 C 81 % 3.87 C
747 24-04-2016 14:10:00 7.1 C 74 % 2.79 C
748 24-04-2016 14:15:00 6.8 C 77 % 3.06 C
749 24-04-2016 14:20:00 6.4 C 77 % 2.67 C
750 24-04-2016 14:25:00 6.4 C 78 % 2.85 C
Sensor: Nr:Datum:Temp:Feuchte:Taupunkt:
Aussen-T/F 751 24-04-2016 14:30:00 6.4 C 77 % 2.67 C
752 24-04-2016 14:35:00 6.6 C 77 % 2.86 C
753 24-04-2016 14:40:00 6.9 C 77 % 3.16 C
754 24-04-2016 14:45:00 7.2 C 76 % 3.26 C
755 24-04-2016 14:50:00 7.3 C 73 % 2.79 C
756 24-04-2016 14:55:00 7.3 C 70 % 2.2 C
757 24-04-2016 15:00:00 7.4 C 70 % 2.3 C
758 24-04-2016 15:05:00 7.6 C 70 % 2.49 C
759 24-04-2016 15:10:00 7.6 C 68 % 2.08 C
760 24-04-2016 15:15:00 7.6 C 67 % 1.88 C
761 24-04-2016 15:20:00 7.7 C 67 % 1.97 C
762 24-04-2016 15:25:00 7.8 C 67 % 2.07 C
763 24-04-2016 15:30:00 7.8 C 68 % 2.27 C
764 24-04-2016 15:35:00 7.9 C 69 % 2.57 C
765 24-04-2016 15:40:00 8.3 C 70 % 3.16 C
766 24-04-2016 15:45:00 8.5 C 70 % 3.35 C
767 24-04-2016 15:50:00 8.9 C 69 % 3.53 C
768 24-04-2016 15:55:00 9.4 C 64 % 2.95 C
769 24-04-2016 16:00:00 9.5 C 62 % 2.59 C
770 24-04-2016 16:05:00 9.6 C 60 % 2.23 C
771 24-04-2016 16:10:00 9.6 C 60 % 2.23 C
772 24-04-2016 16:15:00 9.8 C 59 % 2.18 C
773 24-04-2016 16:20:00 10.2 C 58 % 2.32 C
774 24-04-2016 16:25:00 10.1 C 51 % 0.44 C
775 24-04-2016 16:30:00 9.5 C 53 % 0.41 C
Sensor: Nr:Datum:Temp:Feuchte:Taupunkt:
Aussen-T/F 776 24-04-2016 16:35:00 9.2 C 54 % 0.39 C
777 24-04-2016 16:40:00 9.1 C 54 % 0.3 C
778 24-04-2016 16:45:00 7.8 C 67 % 2.07 C
779 24-04-2016 16:50:00 6.7 C 73 % 2.21 C
780 24-04-2016 16:55:00 6.3 C 75 % 2.2 C
781 24-04-2016 17:00:00 6.3 C 77 % 2.57 C
782 24-04-2016 17:05:00 6.4 C 77 % 2.67 C
783 24-04-2016 17:10:00 6.5 C 75 % 2.4 C
784 24-04-2016 17:15:00 6.2 C 75 % 2.11 C
785 24-04-2016 17:20:00 5.8 C 79 % 2.45 C
786 24-04-2016 17:25:00 5.4 C 77 % 1.7 C
787 24-04-2016 17:30:00 5.1 C 80 % 1.94 C
788 24-04-2016 17:35:00 5 C 82 % 2.19 C
789 24-04-2016 17:40:00 5 C 82 % 2.19 C
790 24-04-2016 17:45:00 5.4 C 83 % 2.75 C
791 24-04-2016 17:50:00 6.3 C 80 % 3.11 C
792 24-04-2016 17:55:00 7.1 C 72 % 2.4 C
793 24-04-2016 18:00:00 7.7 C 73 % 3.18 C
794 24-04-2016 18:05:00 8.3 C 69 % 2.96 C
795 24-04-2016 18:10:00 8.4 C 66 % 2.43 C
796 24-04-2016 18:15:00 8.6 C 68 % 3.04 C
797 24-04-2016 18:20:00 9 C 68 % 3.42 C
798 24-04-2016 18:25:00 9.3 C 67 % 3.5 C
799 24-04-2016 18:30:00 9.3 C 67 % 3.5 C
800 24-04-2016 18:35:00 9.3 C 65 % 3.07 C
Sensor: Nr:Datum:Temp:Feuchte:Taupunkt:
Aussen-T/F 801 24-04-2016 18:40:00 9.4 C 64 % 2.95 C
802 24-04-2016 18:45:00 9.3 C 62 % 2.4 C
803 24-04-2016 18:50:00 9 C 63 % 2.35 C
804 24-04-2016 18:55:00 8.6 C 63 % 1.97 C
805 24-04-2016 19:00:00 8.5 C 65 % 2.31 C
806 24-04-2016 19:05:00 8.4 C 65 % 2.21 C
807 24-04-2016 19:10:00 8.3 C 65 % 2.12 C
808 24-04-2016 19:15:00 8.2 C 66 % 2.24 C
809 24-04-2016 19:20:00 8.1 C 66 % 2.14 C
810 24-04-2016 19:25:00 7.9 C 65 % 1.74 C
811 24-04-2016 19:30:00 7.8 C 63 % 1.21 C
812 24-04-2016 19:35:00 7.6 C 64 % 1.24 C
813 24-04-2016 19:40:00 7.3 C 63 % 0.74 C
814 24-04-2016 19:45:00 7.1 C 65 % 0.98 C
815 24-04-2016 19:50:00 7 C 65 % 0.88 C
816 24-04-2016 19:55:00 6.8 C 65 % 0.69 C
817 24-04-2016 20:00:00 6.7 C 66 % 0.81 C
818 24-04-2016 20:05:00 6.4 C 66 % 0.52 C
819 24-04-2016 20:10:00 6.2 C 67 % 0.54 C
820 24-04-2016 20:15:00 6.1 C 69 % 0.85 C
821 24-04-2016 20:20:00 5.9 C 69 % 0.66 C
822 24-04-2016 20:25:00 5.8 C 70 % 0.76 C
823 24-04-2016 20:30:00 5.7 C 70 % 0.67 C
824 24-04-2016 20:35:00 5.7 C 71 % 0.86 C
825 24-04-2016 20:40:00 5.6 C 75 % 1.53 C
Sensor: Nr:Datum:Temp:Feuchte:Taupunkt:
Aussen-T/F 826 24-04-2016 20:45:00 5.2 C 78 % 1.69 C
827 24-04-2016 20:50:00 4.8 C 81 % 1.82 C
828 24-04-2016 20:55:00 4.7 C 81 % 1.73 C
829 24-04-2016 21:00:00 4.6 C 82 % 1.8 C
830 24-04-2016 21:05:00 4.5 C 81 % 1.53 C
831 24-04-2016 21:10:00 4.4 C 82 % 1.6 C
832 24-04-2016 21:15:00 4.3 C 82 % 1.51 C
833 24-04-2016 21:20:00 4.3 C 83 % 1.67 C
834 24-04-2016 21:25:00 4.2 C 83 % 1.58 C
835 24-04-2016 21:30:00 4.2 C 83 % 1.58 C
836 24-04-2016 21:35:00 4.2 C 83 % 1.58 C
837 24-04-2016 21:40:00 4.3 C 83 % 1.67 C
838 24-04-2016 21:45:00 4.2 C 85 % 1.91 C
839 24-04-2016 21:50:00 4.1 C 86 % 1.97 C
840 24-04-2016 21:55:00 3.9 C 86 % 1.78 C
841 24-04-2016 22:00:00 3.7 C 86 % 1.58 C
842 24-04-2016 22:05:00 3.4 C 87 % 1.45 C
843 24-04-2016 22:10:00 3.3 C 88 % 1.51 C
844 24-04-2016 22:15:00 3.2 C 89 % 1.57 C
845 24-04-2016 22:20:00 3.2 C 90 % 1.72 C
846 24-04-2016 22:25:00 3.3 C 90 % 1.82 C
847 24-04-2016 22:30:00 3.3 C 90 % 1.82 C
848 24-04-2016 22:35:00 3.3 C 90 % 1.82 C
849 24-04-2016 22:40:00 3.2 C 90 % 1.72 C
850 24-04-2016 22:45:00 3.2 C 90 % 1.72 C
Sensor: Nr:Datum:Temp:Feuchte:Taupunkt:
Aussen-T/F 851 24-04-2016 22:50:00 3.1 C 90 % 1.62 C
852 24-04-2016 22:55:00 3.1 C 90 % 1.62 C
853 24-04-2016 23:00:00 3.1 C 90 % 1.62 C
854 24-04-2016 23:05:00 3.1 C 90 % 1.62 C
855 24-04-2016 23:10:00 3.1 C 90 % 1.62 C
856 24-04-2016 23:15:00 3.1 C 90 % 1.62 C
857 24-04-2016 23:20:00 3.2 C 89 % 1.57 C
858 24-04-2016 23:25:00 3.2 C 89 % 1.57 C
859 24-04-2016 23:30:00 3.3 C 89 % 1.67 C
860 24-04-2016 23:35:00 3.3 C 89 % 1.67 C
861 24-04-2016 23:40:00 3.1 C 89 % 1.47 C
862 24-04-2016 23:45:00 2.9 C 89 % 1.27 C
863 24-04-2016 23:50:00 2.7 C 90 % 1.23 C
864 24-04-2016 23:55:00 2.6 C 90 % 1.13 C
865 25-04-2016 00:00:00 2.5 C 91 % 1.18 C
866 25-04-2016 00:05:00 2.4 C 91 % 1.08 C
867 25-04-2016 00:10:00 2.3 C 91 % 0.99 C
868 25-04-2016 00:15:00 2.3 C 92 % 1.14 C
869 25-04-2016 00:20:00 2.2 C 92 % 1.04 C
870 25-04-2016 00:25:00 2.2 C 92 % 1.04 C
871 25-04-2016 00:30:00 2.2 C 93 % 1.19 C
872 25-04-2016 00:35:00 2.2 C 93 % 1.19 C
873 25-04-2016 00:40:00 2.2 C 93 % 1.19 C
874 25-04-2016 00:45:00 2.3 C 93 % 1.29 C
875 25-04-2016 00:50:00 2.3 C 93 % 1.29 C
Sensor: Nr:Datum:Temp:Feuchte:Taupunkt:
Aussen-T/F 876 25-04-2016 00:55:00 2.3 C 94 % 1.44 C
877 25-04-2016 01:00:00 2.3 C 94 % 1.44 C
878 25-04-2016 01:05:00 2.3 C 94 % 1.44 C
879 25-04-2016 01:10:00 2.3 C 94 % 1.44 C
880 25-04-2016 01:15:00 2.3 C 94 % 1.44 C
881 25-04-2016 01:20:00 2.3 C 94 % 1.44 C
882 25-04-2016 01:25:00 2.4 C 94 % 1.54 C
883 25-04-2016 01:30:00 2.4 C 94 % 1.54 C
884 25-04-2016 01:35:00 2.4 C 94 % 1.54 C
885 25-04-2016 01:40:00 2.4 C 94 % 1.54 C
886 25-04-2016 01:45:00 2.4 C 94 % 1.54 C
887 25-04-2016 01:50:00 2.4 C 94 % 1.54 C
888 25-04-2016 01:55:00 2.4 C 94 % 1.54 C
889 25-04-2016 02:00:00 2.3 C 94 % 1.44 C
890 25-04-2016 02:05:00 2.3 C 94 % 1.44 C
891 25-04-2016 02:10:00 2.3 C 94 % 1.44 C
892 25-04-2016 02:15:00 2.2 C 94 % 1.34 C
893 25-04-2016 02:20:00 2.2 C 94 % 1.34 C
894 25-04-2016 02:25:00 2.1 C 94 % 1.24 C
895 25-04-2016 02:30:00 1.9 C 94 % 1.04 C
896 25-04-2016 02:35:00 1.9 C 94 % 1.04 C
897 25-04-2016 02:40:00 1.8 C 94 % 0.94 C
898 25-04-2016 02:45:00 1.8 C 94 % 0.94 C
899 25-04-2016 02:50:00 1.8 C 94 % 0.94 C
900 25-04-2016 02:55:00 1.8 C 94 % 0.94 C
Sensor: Nr:Datum:Temp:Feuchte:Taupunkt:
Aussen-T/F 901 25-04-2016 03:00:00 1.7 C 94 % 0.84 C
902 25-04-2016 03:05:00 1.6 C 94 % 0.74 C
903 25-04-2016 03:10:00 1.6 C 94 % 0.74 C
904 25-04-2016 03:15:00 1.4 C 94 % 0.54 C
905 25-04-2016 03:20:00 1.3 C 94 % 0.44 C
906 25-04-2016 03:25:00 1.2 C 94 % 0.34 C
907 25-04-2016 03:30:00 1.2 C 94 % 0.34 C
908 25-04-2016 03:35:00 1.2 C 94 % 0.34 C
909 25-04-2016 03:40:00 1.2 C 94 % 0.34 C
910 25-04-2016 03:45:00 1.2 C 94 % 0.34 C
911 25-04-2016 03:50:00 1.2 C 94 % 0.34 C
912 25-04-2016 03:55:00 1.2 C 95 % 0.49 C
913 25-04-2016 04:00:00 1.2 C 95 % 0.49 C
914 25-04-2016 04:05:00 1.2 C 95 % 0.49 C
915 25-04-2016 04:10:00 1.1 C 95 % 0.39 C
916 25-04-2016 04:15:00 1.1 C 95 % 0.39 C
917 25-04-2016 04:20:00 1.1 C 95 % 0.39 C
918 25-04-2016 04:25:00 1.1 C 95 % 0.39 C
919 25-04-2016 04:30:00 1 C 95 % 0.29 C
920 25-04-2016 04:35:00 0.9 C 95 % 0.19 C
921 25-04-2016 04:40:00 0.9 C 95 % 0.19 C
922 25-04-2016 04:45:00 0.9 C 95 % 0.19 C
923 25-04-2016 04:50:00 0.9 C 95 % 0.19 C
924 25-04-2016 04:55:00 0.9 C 95 % 0.19 C
925 25-04-2016 05:00:00 0.9 C 95 % 0.19 C
Sensor: Nr:Datum:Temp:Feuchte:Taupunkt:
Aussen-T/F 926 25-04-2016 05:05:00 0.9 C 95 % 0.19 C
927 25-04-2016 05:10:00 0.9 C 95 % 0.19 C
928 25-04-2016 05:15:00 1 C 95 % 0.29 C
929 25-04-2016 05:20:00 1.1 C 95 % 0.39 C
930 25-04-2016 05:25:00 1.2 C 95 % 0.49 C
931 25-04-2016 05:30:00 1.2 C 95 % 0.49 C
932 25-04-2016 05:35:00 1.3 C 95 % 0.59 C
933 25-04-2016 05:40:00 1.3 C 95 % 0.59 C
934 25-04-2016 05:45:00 1.2 C 95 % 0.49 C
935 25-04-2016 05:50:00 1.2 C 95 % 0.49 C
936 25-04-2016 05:55:00 1.1 C 95 % 0.39 C
937 25-04-2016 06:00:00 1.1 C 95 % 0.39 C
938 25-04-2016 06:05:00 1.1 C 95 % 0.39 C
939 25-04-2016 06:10:00 1.1 C 95 % 0.39 C
940 25-04-2016 06:15:00 1.1 C 95 % 0.39 C
941 25-04-2016 06:20:00 1.1 C 95 % 0.39 C
942 25-04-2016 06:25:00 1.2 C 95 % 0.49 C
943 25-04-2016 06:30:00 1.2 C 95 % 0.49 C
944 25-04-2016 06:35:00 1.3 C 95 % 0.59 C
945 25-04-2016 06:40:00 1.3 C 95 % 0.59 C
946 25-04-2016 06:45:00 1.3 C 95 % 0.59 C
947 25-04-2016 06:50:00 1.4 C 95 % 0.69 C
948 25-04-2016 06:55:00 1.5 C 94 % 0.64 C
949 25-04-2016 07:00:00 1.5 C 94 % 0.64 C
950 25-04-2016 07:05:00 1.6 C 94 % 0.74 C
Sensor: Nr:Datum:Temp:Feuchte:Taupunkt:
Aussen-T/F 951 25-04-2016 07:10:00 1.6 C 93 % 0.59 C
952 25-04-2016 07:15:00 1.6 C 93 % 0.59 C
953 25-04-2016 07:20:00 1.6 C 93 % 0.59 C
954 25-04-2016 07:25:00 1.6 C 92 % 0.44 C
955 25-04-2016 07:30:00 1.6 C 92 % 0.44 C
956 25-04-2016 07:35:00 1.6 C 92 % 0.44 C
957 25-04-2016 07:40:00 1.7 C 92 % 0.54 C
958 25-04-2016 07:45:00 1.7 C 92 % 0.54 C
959 25-04-2016 07:50:00 1.8 C 91 % 0.49 C
960 25-04-2016 07:55:00 1.8 C 91 % 0.49 C
961 25-04-2016 08:00:00 1.9 C 91 % 0.59 C
962 25-04-2016 08:05:00 2.1 C 91 % 0.79 C
963 25-04-2016 08:10:00 2.2 C 90 % 0.73 C
964 25-04-2016 08:15:00 2.4 C 90 % 0.93 C
965 25-04-2016 08:20:00 2.6 C 90 % 1.13 C
966 25-04-2016 08:25:00 2.7 C 89 % 1.07 C
967 25-04-2016 08:30:00 2.9 C 89 % 1.27 C
968 25-04-2016 08:35:00 3.1 C 89 % 1.47 C
969 25-04-2016 08:40:00 3.2 C 89 % 1.57 C
970 25-04-2016 08:45:00 3.2 C 88 % 1.41 C
971 25-04-2016 08:50:00 3.3 C 88 % 1.51 C
972 25-04-2016 08:55:00 3.4 C 88 % 1.61 C
973 25-04-2016 09:00:00 3.6 C 88 % 1.8 C
974 25-04-2016 09:05:00 3.7 C 88 % 1.9 C
975 25-04-2016 09:10:00 3.8 C 88 % 2 C
Sensor: Nr:Datum:Temp:Feuchte:Taupunkt:
Aussen-T/F 976 25-04-2016 09:15:00 4 C 88 % 2.2 C
977 25-04-2016 09:20:00 4.1 C 86 % 1.97 C
978 25-04-2016 09:25:00 4.2 C 85 % 1.91 C
979 25-04-2016 09:30:00 4.3 C 86 % 2.17 C
980 25-04-2016 09:35:00 4.4 C 85 % 2.11 C
981 25-04-2016 09:40:00 4.6 C 84 % 2.14 C
982 25-04-2016 09:45:00 4.6 C 85 % 2.3 C
983 25-04-2016 09:50:00 4.7 C 84 % 2.23 C
984 25-04-2016 09:55:00 4.7 C 84 % 2.23 C
985 25-04-2016 10:00:00 4.9 C 84 % 2.43 C
986 25-04-2016 10:05:00 5.1 C 84 % 2.63 C
987 25-04-2016 10:10:00 5.2 C 83 % 2.56 C
988 25-04-2016 10:15:00 5.3 C 82 % 2.48 C
989 25-04-2016 10:20:00 5.3 C 82 % 2.48 C
990 25-04-2016 10:25:00 5.4 C 81 % 2.41 C
991 25-04-2016 10:30:00 5.4 C 80 % 2.23 C
992 25-04-2016 10:35:00 5.6 C 81 % 2.6 C
993 25-04-2016 10:40:00 5.8 C 79 % 2.45 C
994 25-04-2016 10:45:00 5.9 C 79 % 2.54 C
995 25-04-2016 10:50:00 6.1 C 78 % 2.56 C
996 25-04-2016 10:55:00 6.3 C 76 % 2.39 C
997 25-04-2016 11:00:00 6.4 C 75 % 2.3 C
998 25-04-2016 11:05:00 6.3 C 74 % 2.02 C
999 25-04-2016 11:10:00 6.4 C 75 % 2.3 C
1000 25-04-2016 11:15:00 6.6 C 75 % 2.49 C
Sensor: Nr:Datum:Temp:Feuchte:Taupunkt:
Aussen-T/F 1001 25-04-2016 11:20:00 6.8 C 74 % 2.5 C
1002 25-04-2016 11:25:00 6.9 C 74 % 2.6 C
1003 25-04-2016 11:30:00 7 C 72 % 2.31 C
1004 25-04-2016 11:35:00 7.1 C 71 % 2.21 C
1005 25-04-2016 11:40:00 7.1 C 71 % 2.21 C
1006 25-04-2016 11:45:00 7.2 C 71 % 2.3 C
1007 25-04-2016 11:50:00 7.2 C 72 % 2.5 C
1008 25-04-2016 11:55:00 7.2 C 71 % 2.3 C
1009 25-04-2016 12:00:00 7.3 C 72 % 2.6 C
1010 25-04-2016 12:05:00 7.4 C 71 % 2.5 C
1011 25-04-2016 12:10:00 7.5 C 70 % 2.39 C
1012 25-04-2016 12:15:00 7.4 C 69 % 2.1 C
1013 25-04-2016 12:20:00 7.4 C 71 % 2.5 C
1014 25-04-2016 12:25:00 7.6 C 69 % 2.29 C
1015 25-04-2016 12:30:00 7.8 C 70 % 2.68 C
1016 25-04-2016 12:35:00 7.9 C 70 % 2.78 C
1017 25-04-2016 12:40:00 7.8 C 69 % 2.48 C
1018 25-04-2016 12:45:00 7.6 C 69 % 2.29 C
1019 25-04-2016 12:50:00 7.7 C 70 % 2.58 C
1020 25-04-2016 12:55:00 7.7 C 69 % 2.38 C
1021 25-04-2016 13:00:00 7.6 C 70 % 2.49 C
1022 25-04-2016 13:05:00 7.3 C 70 % 2.2 C
1023 25-04-2016 13:10:00 7.2 C 72 % 2.5 C
1024 25-04-2016 13:15:00 7.2 C 73 % 2.69 C
1025 25-04-2016 13:20:00 7.2 C 72 % 2.5 C
Sensor: Nr:Datum:Temp:Feuchte:Taupunkt:
Aussen-T/F 1026 25-04-2016 13:25:00 7.4 C 73 % 2.89 C
1027 25-04-2016 13:30:00 7.6 C 75 % 3.46 C
1028 25-04-2016 13:35:00 7.8 C 72 % 3.08 C
1029 25-04-2016 13:40:00 7.7 C 72 % 2.98 C
1030 25-04-2016 13:45:00 7.6 C 73 % 3.08 C
1031 25-04-2016 13:50:00 7.4 C 73 % 2.89 C
1032 25-04-2016 13:55:00 7.4 C 73 % 2.89 C
1033 25-04-2016 14:00:00 7.4 C 73 % 2.89 C
1034 25-04-2016 14:05:00 7.4 C 73 % 2.89 C
1035 25-04-2016 14:10:00 7.3 C 73 % 2.79 C
1036 25-04-2016 14:15:00 7.2 C 74 % 2.89 C
1037 25-04-2016 14:20:00 7.3 C 75 % 3.17 C
1038 25-04-2016 14:25:00 7.3 C 74 % 2.98 C
1039 25-04-2016 14:30:00 7.4 C 75 % 3.27 C
1040 25-04-2016 14:35:00 7.6 C 74 % 3.27 C
1041 25-04-2016 14:40:00 7.6 C 73 % 3.08 C
1042 25-04-2016 14:45:00 7.7 C 74 % 3.37 C
1043 25-04-2016 14:50:00 7.7 C 74 % 3.37 C
1044 25-04-2016 14:55:00 7.7 C 74 % 3.37 C
1045 25-04-2016 15:00:00 7.8 C 74 % 3.46 C
1046 25-04-2016 15:05:00 7.9 C 73 % 3.37 C
1047 25-04-2016 15:10:00 7.9 C 73 % 3.37 C
1048 25-04-2016 15:15:00 7.9 C 73 % 3.37 C
1049 25-04-2016 15:20:00 8 C 73 % 3.46 C
1050 25-04-2016 15:25:00 8 C 72 % 3.27 C
Sensor: Nr:Datum:Temp:Feuchte:Taupunkt:
Aussen-T/F 1051 25-04-2016 15:30:00 7.9 C 72 % 3.17 C
1052 25-04-2016 15:35:00 7.7 C 72 % 2.98 C
1053 25-04-2016 15:40:00 7.6 C 74 % 3.27 C
1054 25-04-2016 15:45:00 7.6 C 75 % 3.46 C
1055 25-04-2016 15:50:00 7.4 C 78 % 3.82 C
1056 25-04-2016 15:55:00 7.2 C 80 % 3.99 C
1057 25-04-2016 16:00:00 7.1 C 80 % 3.89 C
1058 25-04-2016 16:05:00 7 C 81 % 3.97 C
1059 25-04-2016 16:10:00 6.9 C 81 % 3.87 C
1060 25-04-2016 16:15:00 6.8 C 81 % 3.77 C
1061 25-04-2016 16:20:00 6.9 C 81 % 3.87 C
1062 25-04-2016 16:25:00 6.9 C 82 % 4.05 C
1063 25-04-2016 16:30:00 7 C 82 % 4.14 C
1064 25-04-2016 16:35:00 7.1 C 82 % 4.24 C
1065 25-04-2016 16:40:00 7.1 C 82 % 4.24 C
1066 25-04-2016 16:45:00 7.2 C 82 % 4.34 C
1067 25-04-2016 16:50:00 7.2 C 82 % 4.34 C
1068 25-04-2016 16:55:00 7 C 83 % 4.32 C
1069 25-04-2016 17:00:00 6.9 C 83 % 4.22 C
1070 25-04-2016 17:05:00 6.8 C 84 % 4.29 C
1071 25-04-2016 17:10:00 6.8 C 84 % 4.29 C
1072 25-04-2016 17:15:00 6.8 C 84 % 4.29 C
1073 25-04-2016 17:20:00 6.8 C 83 % 4.12 C
1074 25-04-2016 17:25:00 6.9 C 83 % 4.22 C
1075 25-04-2016 17:30:00 6.9 C 83 % 4.22 C
Sensor: Nr:Datum:Temp:Feuchte:Taupunkt:
Aussen-T/F 1076 25-04-2016 17:35:00 6.9 C 83 % 4.22 C
1077 25-04-2016 17:40:00 6.9 C 82 % 4.05 C
1078 25-04-2016 17:45:00 6.9 C 83 % 4.22 C
1079 25-04-2016 17:50:00 6.9 C 83 % 4.22 C
1080 25-04-2016 17:55:00 6.9 C 82 % 4.05 C
1081 25-04-2016 18:00:00 6.9 C 82 % 4.05 C
1082 25-04-2016 18:05:00 6.9 C 82 % 4.05 C
1083 25-04-2016 18:10:00 6.9 C 82 % 4.05 C
1084 25-04-2016 18:15:00 6.8 C 82 % 3.95 C
1085 25-04-2016 18:20:00 6.8 C 82 % 3.95 C
1086 25-04-2016 18:25:00 6.8 C 83 % 4.12 C
1087 25-04-2016 18:30:00 6.8 C 83 % 4.12 C
1088 25-04-2016 18:35:00 6.8 C 84 % 4.29 C
1089 25-04-2016 18:40:00 6.8 C 84 % 4.29 C
1090 25-04-2016 18:45:00 6.7 C 85 % 4.36 C
1091 25-04-2016 18:50:00 6.7 C 86 % 4.53 C
1092 25-04-2016 18:55:00 6.6 C 86 % 4.43 C
1093 25-04-2016 19:00:00 6.5 C 87 % 4.5 C
1094 25-04-2016 19:05:00 6.5 C 87 % 4.5 C
1095 25-04-2016 19:10:00 6.5 C 87 % 4.5 C
1096 25-04-2016 19:15:00 6.5 C 88 % 4.66 C
1097 25-04-2016 19:20:00 6.5 C 87 % 4.5 C
1098 25-04-2016 19:25:00 6.5 C 87 % 4.5 C
1099 25-04-2016 19:30:00 6.4 C 87 % 4.4 C
1100 25-04-2016 19:35:00 6.4 C 87 % 4.4 C
Sensor: Nr:Datum:Temp:Feuchte:Taupunkt:
Aussen-T/F 1101 25-04-2016 19:40:00 6.4 C 87 % 4.4 C
1102 25-04-2016 19:45:00 6.4 C 87 % 4.4 C
1103 25-04-2016 19:50:00 6.4 C 87 % 4.4 C
1104 25-04-2016 19:55:00 6.3 C 87 % 4.3 C
1105 25-04-2016 20:00:00 6.3 C 87 % 4.3 C
1106 25-04-2016 20:05:00 6.3 C 87 % 4.3 C
1107 25-04-2016 20:10:00 6.2 C 87 % 4.2 C
1108 25-04-2016 20:15:00 6.2 C 87 % 4.2 C
1109 25-04-2016 20:20:00 6.2 C 87 % 4.2 C
1110 25-04-2016 20:25:00 6.2 C 88 % 4.36 C
1111 25-04-2016 20:30:00 6.1 C 88 % 4.27 C
1112 25-04-2016 20:35:00 6.1 C 88 % 4.27 C
1113 25-04-2016 20:40:00 6 C 88 % 4.17 C
1114 25-04-2016 20:45:00 6 C 89 % 4.33 C
1115 25-04-2016 20:50:00 6 C 89 % 4.33 C
1116 25-04-2016 20:55:00 6 C 89 % 4.33 C
1117 25-04-2016 21:00:00 6 C 90 % 4.49 C
1118 25-04-2016 21:05:00 6.1 C 89 % 4.43 C
1119 25-04-2016 21:10:00 6.1 C 89 % 4.43 C
1120 25-04-2016 21:15:00 6.1 C 89 % 4.43 C
1121 25-04-2016 21:20:00 6.2 C 89 % 4.53 C
1122 25-04-2016 21:25:00 6.2 C 89 % 4.53 C
1123 25-04-2016 21:30:00 6.3 C 89 % 4.62 C
1124 25-04-2016 21:35:00 6.3 C 88 % 4.46 C
1125 25-04-2016 21:40:00 6.3 C 88 % 4.46 C
Sensor: Nr:Datum:Temp:Feuchte:Taupunkt:
Aussen-T/F 1126 25-04-2016 21:45:00 6.4 C 88 % 4.56 C
1127 25-04-2016 21:50:00 6.4 C 88 % 4.56 C
1128 25-04-2016 21:55:00 6.4 C 88 % 4.56 C
1129 25-04-2016 22:00:00 6.3 C 88 % 4.46 C
1130 25-04-2016 22:05:00 6.3 C 89 % 4.62 C
1131 25-04-2016 22:10:00 6.2 C 89 % 4.53 C
1132 25-04-2016 22:15:00 6.2 C 89 % 4.53 C
1133 25-04-2016 22:20:00 6.2 C 89 % 4.53 C
1134 25-04-2016 22:25:00 6.2 C 90 % 4.69 C
1135 25-04-2016 22:30:00 6.2 C 90 % 4.69 C
1136 25-04-2016 22:35:00 6.2 C 90 % 4.69 C
1137 25-04-2016 22:40:00 6.2 C 90 % 4.69 C
1138 25-04-2016 22:45:00 6.2 C 90 % 4.69 C
1139 25-04-2016 22:50:00 6.2 C 91 % 4.84 C
1140 25-04-2016 22:55:00 6.2 C 91 % 4.84 C
1141 25-04-2016 23:00:00 6.2 C 92 % 5 C
1142 25-04-2016 23:05:00 6.1 C 92 % 4.9 C
1143 25-04-2016 23:10:00 6.1 C 92 % 4.9 C
1144 25-04-2016 23:15:00 5.9 C 91 % 4.55 C
1145 25-04-2016 23:20:00 5.2 C 89 % 3.54 C
1146 25-04-2016 23:25:00 4.7 C 90 % 3.2 C
1147 25-04-2016 23:30:00 4.3 C 91 % 2.96 C
1148 25-04-2016 23:35:00 4.2 C 91 % 2.87 C
1149 25-04-2016 23:40:00 4.1 C 92 % 2.92 C
1150 25-04-2016 23:45:00 4 C 92 % 2.82 C
Sensor: Nr:Datum:Temp:Feuchte:Taupunkt:
Aussen-T/F 1151 25-04-2016 23:50:00 3.9 C 92 % 2.72 C
1152 25-04-2016 23:55:00 3.9 C 92 % 2.72 C
1153 26-04-2016 00:00:00 3.9 C 92 % 2.72 C
1154 26-04-2016 00:05:00 3.8 C 93 % 2.77 C
1155 26-04-2016 00:10:00 3.9 C 93 % 2.87 C
1156 26-04-2016 00:15:00 3.8 C 93 % 2.77 C
1157 26-04-2016 00:20:00 3.8 C 93 % 2.77 C
1158 26-04-2016 00:25:00 3.8 C 93 % 2.77 C
1159 26-04-2016 00:30:00 3.8 C 93 % 2.77 C
1160 26-04-2016 00:35:00 3.8 C 94 % 2.93 C
1161 26-04-2016 00:40:00 3.7 C 94 % 2.83 C
1162 26-04-2016 00:45:00 3.7 C 94 % 2.83 C
1163 26-04-2016 00:50:00 3.7 C 94 % 2.83 C
1164 26-04-2016 00:55:00 3.7 C 94 % 2.83 C
1165 26-04-2016 01:00:00 3.7 C 94 % 2.83 C
1166 26-04-2016 01:05:00 3.7 C 94 % 2.83 C
1167 26-04-2016 01:10:00 3.7 C 94 % 2.83 C
1168 26-04-2016 01:15:00 3.7 C 94 % 2.83 C
1169 26-04-2016 01:20:00 3.7 C 94 % 2.83 C
1170 26-04-2016 01:25:00 3.7 C 94 % 2.83 C
1171 26-04-2016 01:30:00 3.7 C 94 % 2.83 C
1172 26-04-2016 01:35:00 3.7 C 95 % 2.98 C
1173 26-04-2016 01:40:00 3.7 C 95 % 2.98 C
1174 26-04-2016 01:45:00 3.7 C 95 % 2.98 C
1175 26-04-2016 01:50:00 3.7 C 95 % 2.98 C
Sensor: Nr:Datum:Temp:Feuchte:Taupunkt:
Aussen-T/F 1176 26-04-2016 01:55:00 3.7 C 95 % 2.98 C
1177 26-04-2016 02:00:00 3.7 C 95 % 2.98 C
1178 26-04-2016 02:05:00 3.7 C 95 % 2.98 C
1179 26-04-2016 02:10:00 3.7 C 95 % 2.98 C
1180 26-04-2016 02:15:00 3.7 C 95 % 2.98 C
1181 26-04-2016 02:20:00 3.7 C 95 % 2.98 C
1182 26-04-2016 02:25:00 3.7 C 95 % 2.98 C
1183 26-04-2016 02:30:00 3.7 C 95 % 2.98 C
1184 26-04-2016 02:35:00 3.7 C 95 % 2.98 C
1185 26-04-2016 02:40:00 3.7 C 95 % 2.98 C
1186 26-04-2016 02:45:00 3.7 C 95 % 2.98 C
1187 26-04-2016 02:50:00 3.7 C 95 % 2.98 C
1188 26-04-2016 02:55:00 3.8 C 95 % 3.07 C
1189 26-04-2016 03:00:00 3.8 C 95 % 3.07 C
1190 26-04-2016 03:05:00 3.8 C 95 % 3.07 C
1191 26-04-2016 03:10:00 3.8 C 95 % 3.07 C
1192 26-04-2016 03:15:00 3.7 C 95 % 2.98 C
1193 26-04-2016 03:20:00 3.5 C 95 % 2.78 C
1194 26-04-2016 03:25:00 3.2 C 94 % 2.33 C
1195 26-04-2016 03:30:00 2.9 C 94 % 2.03 C
1196 26-04-2016 03:35:00 2.7 C 93 % 1.68 C
1197 26-04-2016 03:40:00 2.6 C 93 % 1.59 C
1198 26-04-2016 03:45:00 2.5 C 93 % 1.49 C
1199 26-04-2016 03:50:00 2.4 C 93 % 1.39 C
1200 26-04-2016 03:55:00 2.3 C 93 % 1.29 C
Sensor: Nr:Datum:Temp:Feuchte:Taupunkt:
Aussen-T/F 1201 26-04-2016 04:00:00 2.3 C 94 % 1.44 C
1202 26-04-2016 04:05:00 2.3 C 94 % 1.44 C
1203 26-04-2016 04:10:00 2.3 C 94 % 1.44 C
1204 26-04-2016 04:15:00 2.4 C 94 % 1.54 C
1205 26-04-2016 04:20:00 2.3 C 94 % 1.44 C
1206 26-04-2016 04:25:00 2.3 C 94 % 1.44 C
1207 26-04-2016 04:30:00 2.3 C 94 % 1.44 C
1208 26-04-2016 04:35:00 2.3 C 94 % 1.44 C
1209 26-04-2016 04:40:00 2.3 C 94 % 1.44 C
1210 26-04-2016 04:45:00 2.3 C 94 % 1.44 C
1211 26-04-2016 04:50:00 2.3 C 94 % 1.44 C
1212 26-04-2016 04:55:00 2.3 C 95 % 1.58 C
1213 26-04-2016 05:00:00 2.3 C 95 % 1.58 C
1214 26-04-2016 05:05:00 2.3 C 95 % 1.58 C
1215 26-04-2016 05:10:00 2.2 C 95 % 1.48 C
1216 26-04-2016 05:15:00 2.2 C 95 % 1.48 C
1217 26-04-2016 05:20:00 2.2 C 95 % 1.48 C
1218 26-04-2016 05:25:00 2.2 C 95 % 1.48 C
1219 26-04-2016 05:30:00 2.1 C 95 % 1.38 C
1220 26-04-2016 05:35:00 2.1 C 95 % 1.38 C
1221 26-04-2016 05:40:00 2.1 C 95 % 1.38 C
1222 26-04-2016 05:45:00 2.1 C 95 % 1.38 C
1223 26-04-2016 05:50:00 2.1 C 95 % 1.38 C
1224 26-04-2016 05:55:00 2 C 95 % 1.29 C
1225 26-04-2016 06:00:00 2 C 95 % 1.29 C
Sensor: Nr:Datum:Temp:Feuchte:Taupunkt:
Aussen-T/F 1226 26-04-2016 06:05:00 2 C 95 % 1.29 C
1227 26-04-2016 06:10:00 2 C 95 % 1.29 C
1228 26-04-2016 06:15:00 2 C 95 % 1.29 C
1229 26-04-2016 06:20:00 1.9 C 95 % 1.19 C
1230 26-04-2016 06:25:00 1.9 C 95 % 1.19 C
1231 26-04-2016 06:30:00 1.9 C 95 % 1.19 C
1232 26-04-2016 06:35:00 1.9 C 95 % 1.19 C
1233 26-04-2016 06:40:00 1.8 C 95 % 1.09 C
1234 26-04-2016 06:45:00 1.8 C 95 % 1.09 C
1235 26-04-2016 06:50:00 1.7 C 95 % 0.99 C
1236 26-04-2016 06:55:00 1.7 C 95 % 0.99 C
1237 26-04-2016 07:00:00 1.7 C 95 % 0.99 C
1238 26-04-2016 07:05:00 1.6 C 95 % 0.89 C
1239 26-04-2016 07:10:00 1.7 C 95 % 0.99 C
1240 26-04-2016 07:15:00 1.8 C 95 % 1.09 C
1241 26-04-2016 07:20:00 1.9 C 96 % 1.33 C
1242 26-04-2016 07:25:00 2.1 C 96 % 1.53 C
1243 26-04-2016 07:30:00 2.1 C 96 % 1.53 C
1244 26-04-2016 07:35:00 2.2 C 95 % 1.48 C
1245 26-04-2016 07:40:00 2.2 C 96 % 1.63 C
1246 26-04-2016 07:45:00 2.2 C 96 % 1.63 C
1247 26-04-2016 07:50:00 2.2 C 95 % 1.48 C
1248 26-04-2016 07:55:00 2.1 C 95 % 1.38 C
1249 26-04-2016 08:00:00 2.1 C 95 % 1.38 C
1250 26-04-2016 08:05:00 2 C 95 % 1.29 C
Sensor: Nr:Datum:Temp:Feuchte:Taupunkt:
Aussen-T/F 1251 26-04-2016 08:10:00 1.9 C 95 % 1.19 C
1252 26-04-2016 08:15:00 1.9 C 95 % 1.19 C
1253 26-04-2016 08:20:00 1.9 C 95 % 1.19 C
1254 26-04-2016 08:25:00 2 C 95 % 1.29 C
1255 26-04-2016 08:30:00 2.1 C 95 % 1.38 C
1256 26-04-2016 08:35:00 2.2 C 96 % 1.63 C
1257 26-04-2016 08:40:00 2.3 C 96 % 1.73 C
1258 26-04-2016 08:45:00 2.4 C 95 % 1.68 C
1259 26-04-2016 08:50:00 2.7 C 96 % 2.13 C
1260 26-04-2016 08:55:00 2.9 C 95 % 2.18 C
1261 26-04-2016 09:00:00 3.1 C 95 % 2.38 C
1262 26-04-2016 09:05:00 3.2 C 94 % 2.33 C
1263 26-04-2016 09:10:00 3.4 C 93 % 2.38 C
1264 26-04-2016 09:15:00 3.5 C 92 % 2.33 C
1265 26-04-2016 09:20:00 3.6 C 91 % 2.27 C
1266 26-04-2016 09:25:00 3.7 C 89 % 2.06 C
1267 26-04-2016 09:30:00 3.7 C 87 % 1.74 C
1268 26-04-2016 09:35:00 3.7 C 85 % 1.42 C
1269 26-04-2016 09:40:00 3.8 C 85 % 1.52 C
1270 26-04-2016 09:45:00 4 C 84 % 1.55 C
1271 26-04-2016 09:50:00 4.1 C 83 % 1.48 C
1272 26-04-2016 09:55:00 4.2 C 83 % 1.58 C
1273 26-04-2016 10:00:00 4.4 C 83 % 1.77 C
1274 26-04-2016 10:05:00 4.6 C 80 % 1.46 C
1275 26-04-2016 10:10:00 4.8 C 79 % 1.47 C
Sensor: Nr:Datum:Temp:Feuchte:Taupunkt:
Aussen-T/F 1276 26-04-2016 10:15:00 4.9 C 78 % 1.39 C
1277 26-04-2016 10:20:00 5 C 78 % 1.49 C
1278 26-04-2016 10:25:00 5.2 C 78 % 1.69 C
1279 26-04-2016 10:30:00 5.2 C 76 % 1.32 C
1280 26-04-2016 10:35:00 5.3 C 76 % 1.42 C
1281 26-04-2016 10:40:00 5.3 C 75 % 1.24 C
1282 26-04-2016 10:45:00 5.3 C 74 % 1.05 C
1283 26-04-2016 10:50:00 5.4 C 75 % 1.33 C
1284 26-04-2016 10:55:00 5.8 C 75 % 1.72 C
1285 26-04-2016 11:00:00 5.9 C 72 % 1.25 C
1286 26-04-2016 11:05:00 5.8 C 72 % 1.15 C
1287 26-04-2016 11:10:00 5.7 C 73 % 1.25 C
1288 26-04-2016 11:15:00 5.7 C 71 % 0.86 C
1289 26-04-2016 11:20:00 5.7 C 73 % 1.25 C
1290 26-04-2016 11:25:00 5.8 C 72 % 1.15 C
1291 26-04-2016 11:30:00 5.9 C 72 % 1.25 C
1292 26-04-2016 11:35:00 5.9 C 71 % 1.06 C
1293 26-04-2016 11:40:00 5.9 C 71 % 1.06 C
1294 26-04-2016 11:45:00 6.1 C 71 % 1.25 C
1295 26-04-2016 11:50:00 6.2 C 71 % 1.34 C
1296 26-04-2016 11:55:00 6.3 C 69 % 1.04 C
1297 26-04-2016 12:00:00 6.2 C 68 % 0.75 C
1298 26-04-2016 12:05:00 6.4 C 70 % 1.34 C
1299 26-04-2016 12:10:00 6.7 C 69 % 1.43 C
1300 26-04-2016 12:15:00 6.9 C 65 % 0.79 C
Sensor: Nr:Datum:Temp:Feuchte:Taupunkt:
Aussen-T/F 1301 26-04-2016 12:20:00 6.9 C 65 % 0.79 C
1302 26-04-2016 12:25:00 6.9 C 64 % 0.57 C
1303 26-04-2016 12:30:00 6.9 C 65 % 0.79 C
1304 26-04-2016 12:35:00 6.9 C 65 % 0.79 C
1305 26-04-2016 12:40:00 6.9 C 66 % 1 C
1306 26-04-2016 12:45:00 6.9 C 64 % 0.57 C
1307 26-04-2016 12:50:00 6.9 C 65 % 0.79 C
1308 26-04-2016 12:55:00 6.9 C 66 % 1 C
1309 26-04-2016 13:00:00 6.9 C 65 % 0.79 C
1310 26-04-2016 13:05:00 7 C 66 % 1.09 C
1311 26-04-2016 13:10:00 7.2 C 66 % 1.29 C
1312 26-04-2016 13:15:00 7.3 C 65 % 1.17 C
1313 26-04-2016 13:20:00 7.3 C 65 % 1.17 C
1314 26-04-2016 13:25:00 7.3 C 65 % 1.17 C
1315 26-04-2016 13:30:00 7.2 C 65 % 1.07 C
1316 26-04-2016 13:35:00 7.2 C 66 % 1.29 C
1317 26-04-2016 13:40:00 7.3 C 66 % 1.38 C
1318 26-04-2016 13:45:00 7.3 C 65 % 1.17 C
1319 26-04-2016 13:50:00 7.3 C 65 % 1.17 C
1320 26-04-2016 13:55:00 7.3 C 66 % 1.38 C
1321 26-04-2016 14:00:00 7.3 C 67 % 1.59 C
1322 26-04-2016 14:05:00 7.4 C 65 % 1.26 C
1323 26-04-2016 14:10:00 7.4 C 67 % 1.69 C
1324 26-04-2016 14:15:00 7.3 C 67 % 1.59 C
1325 26-04-2016 14:20:00 7.5 C 67 % 1.78 C
Sensor: Nr:Datum:Temp:Feuchte:Taupunkt:
Aussen-T/F 1326 26-04-2016 14:25:00 7.7 C 68 % 2.18 C
1327 26-04-2016 14:30:00 7.7 C 67 % 1.97 C
1328 26-04-2016 14:35:00 7.4 C 67 % 1.69 C
1329 26-04-2016 14:40:00 7.4 C 69 % 2.1 C
1330 26-04-2016 14:45:00 7.4 C 68 % 1.89 C
1331 26-04-2016 14:50:00 7.4 C 69 % 2.1 C
1332 26-04-2016 14:55:00 7.6 C 69 % 2.29 C
1333 26-04-2016 15:00:00 7.9 C 69 % 2.57 C
1334 26-04-2016 15:05:00 7.9 C 67 % 2.16 C
1335 26-04-2016 15:10:00 7.5 C 69 % 2.19 C
1336 26-04-2016 15:15:00 7.1 C 71 % 2.21 C
1337 26-04-2016 15:20:00 7.1 C 74 % 2.79 C
1338 26-04-2016 15:25:00 7.1 C 72 % 2.4 C
1339 26-04-2016 15:30:00 6.1 C 78 % 2.56 C
1340 26-04-2016 15:35:00 4.8 C 81 % 1.82 C
1341 26-04-2016 15:40:00 4.2 C 85 % 1.91 C
1342 26-04-2016 15:45:00 3.9 C 88 % 2.1 C
1343 26-04-2016 15:50:00 4 C 90 % 2.51 C
1344 26-04-2016 15:55:00 4.3 C 92 % 3.12 C
1345 26-04-2016 16:00:00 4.8 C 93 % 3.77 C
1346 26-04-2016 16:05:00 4.8 C 91 % 3.46 C
1347 26-04-2016 16:10:00 4.7 C 90 % 3.2 C
1348 26-04-2016 16:15:00 4.8 C 90 % 3.3 C
1349 26-04-2016 16:20:00 4.8 C 90 % 3.3 C
1350 26-04-2016 16:25:00 5.1 C 90 % 3.6 C
Sensor: Nr:Datum:Temp:Feuchte:Taupunkt:
Aussen-T/F 1351 26-04-2016 16:30:00 5.6 C 92 % 4.41 C
1352 26-04-2016 16:35:00 6.5 C 91 % 5.14 C
1353 26-04-2016 16:40:00 6.8 C 85 % 4.46 C
1354 26-04-2016 16:45:00 6.7 C 84 % 4.19 C
1355 26-04-2016 16:50:00 6.6 C 85 % 4.26 C
1356 26-04-2016 16:55:00 6.6 C 84 % 4.1 C
1357 26-04-2016 17:00:00 6.6 C 84 % 4.1 C
1358 26-04-2016 17:05:00 6.7 C 81 % 3.68 C
1359 26-04-2016 17:10:00 7.1 C 83 % 4.41 C
1360 26-04-2016 17:15:00 7.4 C 81 % 4.36 C
1361 26-04-2016 17:20:00 8 C 79 % 4.59 C
1362 26-04-2016 17:25:00 8.3 C 74 % 3.95 C
1363 26-04-2016 17:30:00 8.2 C 69 % 2.86 C
1364 26-04-2016 17:35:00 7.9 C 67 % 2.16 C
1365 26-04-2016 17:40:00 7.7 C 68 % 2.18 C
1366 26-04-2016 17:45:00 7.4 C 68 % 1.89 C
1367 26-04-2016 17:50:00 7.1 C 70 % 2.01 C
1368 26-04-2016 17:55:00 6.8 C 72 % 2.12 C
1369 26-04-2016 18:00:00 6.8 C 73 % 2.31 C
1370 26-04-2016 18:05:00 6.8 C 75 % 2.69 C
1371 26-04-2016 18:10:00 6.8 C 73 % 2.31 C
1372 26-04-2016 18:15:00 6.9 C 74 % 2.6 C
1373 26-04-2016 18:20:00 7 C 74 % 2.69 C
1374 26-04-2016 18:25:00 7.1 C 74 % 2.79 C
1375 26-04-2016 18:30:00 7.1 C 72 % 2.4 C
Sensor: Nr:Datum:Temp:Feuchte:Taupunkt:
Aussen-T/F 1376 26-04-2016 18:35:00 7.1 C 72 % 2.4 C
1377 26-04-2016 18:40:00 7.1 C 70 % 2.01 C
1378 26-04-2016 18:45:00 7 C 71 % 2.11 C
1379 26-04-2016 18:50:00 6.8 C 70 % 1.72 C
1380 26-04-2016 18:55:00 6.7 C 70 % 1.63 C
1381 26-04-2016 19:00:00 6.8 C 71 % 1.92 C
1382 26-04-2016 19:05:00 6.8 C 71 % 1.92 C
1383 26-04-2016 19:10:00 6.7 C 71 % 1.82 C
1384 26-04-2016 19:15:00 6.5 C 72 % 1.83 C
1385 26-04-2016 19:20:00 6.4 C 73 % 1.92 C
1386 26-04-2016 19:25:00 6.3 C 72 % 1.63 C
1387 26-04-2016 19:30:00 6.3 C 74 % 2.02 C
1388 26-04-2016 19:35:00 6.3 C 74 % 2.02 C
1389 26-04-2016 19:40:00 6.4 C 73 % 1.92 C
1390 26-04-2016 19:45:00 6.6 C 73 % 2.12 C
1391 26-04-2016 19:50:00 6.5 C 73 % 2.02 C
1392 26-04-2016 19:55:00 6.4 C 72 % 1.73 C
1393 26-04-2016 20:00:00 6.3 C 72 % 1.63 C
1394 26-04-2016 20:05:00 6.1 C 70 % 1.05 C
1395 26-04-2016 20:10:00 5.9 C 71 % 1.06 C
1396 26-04-2016 20:15:00 5.8 C 72 % 1.15 C
1397 26-04-2016 20:20:00 5.7 C 72 % 1.06 C
1398 26-04-2016 20:25:00 5.6 C 73 % 1.15 C
1399 26-04-2016 20:30:00 5.4 C 74 % 1.15 C
1400 26-04-2016 20:35:00 5.3 C 74 % 1.05 C
Sensor: Nr:Datum:Temp:Feuchte:Taupunkt:
Aussen-T/F 1401 26-04-2016 20:40:00 5.3 C 73 % 0.86 C
1402 26-04-2016 20:45:00 5.3 C 74 % 1.05 C
1403 26-04-2016 20:50:00 5.2 C 75 % 1.14 C
1404 26-04-2016 20:55:00 5.1 C 76 % 1.23 C
1405 26-04-2016 21:00:00 4.9 C 76 % 1.03 C
1406 26-04-2016 21:05:00 4.8 C 77 % 1.12 C
1407 26-04-2016 21:10:00 4.7 C 78 % 1.2 C
1408 26-04-2016 21:15:00 4.5 C 78 % 1.01 C
1409 26-04-2016 21:20:00 4.4 C 78 % 0.91 C
1410 26-04-2016 21:25:00 4.3 C 79 % 0.99 C
1411 26-04-2016 21:30:00 4.2 C 79 % 0.89 C
1412 26-04-2016 21:35:00 4.2 C 79 % 0.89 C
1413 26-04-2016 21:40:00 4.1 C 80 % 0.97 C
1414 26-04-2016 21:45:00 4 C 80 % 0.87 C
1415 26-04-2016 21:50:00 3.9 C 80 % 0.77 C
1416 26-04-2016 21:55:00 3.8 C 80 % 0.68 C
1417 26-04-2016 22:00:00 3.8 C 81 % 0.85 C
1418 26-04-2016 22:05:00 3.8 C 81 % 0.85 C
1419 26-04-2016 22:10:00 3.8 C 81 % 0.85 C
1420 26-04-2016 22:15:00 3.8 C 81 % 0.85 C
1421 26-04-2016 22:20:00 3.8 C 81 % 0.85 C
1422 26-04-2016 22:25:00 3.7 C 81 % 0.75 C
1423 26-04-2016 22:30:00 3.7 C 81 % 0.75 C
1424 26-04-2016 22:35:00 3.6 C 82 % 0.82 C
1425 26-04-2016 22:40:00 3.5 C 83 % 0.89 C
Sensor: Nr:Datum:Temp:Feuchte:Taupunkt:
Aussen-T/F 1426 26-04-2016 22:45:00 3.4 C 83 % 0.79 C
1427 26-04-2016 22:50:00 3.3 C 83 % 0.7 C
1428 26-04-2016 22:55:00 3.3 C 84 % 0.86 C
1429 26-04-2016 23:00:00 3.2 C 84 % 0.76 C
1430 26-04-2016 23:05:00 3.2 C 84 % 0.76 C
1431 26-04-2016 23:10:00 3.1 C 85 % 0.83 C
1432 26-04-2016 23:15:00 3.1 C 84 % 0.67 C
1433 26-04-2016 23:20:00 3.1 C 84 % 0.67 C
1434 26-04-2016 23:25:00 3.2 C 83 % 0.6 C
1435 26-04-2016 23:30:00 3.3 C 83 % 0.7 C
1436 26-04-2016 23:35:00 3.4 C 82 % 0.63 C
1437 26-04-2016 23:40:00 3.4 C 82 % 0.63 C
1438 26-04-2016 23:45:00 3.4 C 82 % 0.63 C
1439 26-04-2016 23:50:00 3.3 C 82 % 0.53 C
1440 26-04-2016 23:55:00 3.3 C 82 % 0.53 C
1441 27-04-2016 00:00:00 3.3 C 82 % 0.53 C
1442 27-04-2016 00:05:00 3.3 C 82 % 0.53 C
1443 27-04-2016 00:10:00 3.3 C 82 % 0.53 C
1444 27-04-2016 00:15:00 3.2 C 83 % 0.6 C
1445 27-04-2016 00:20:00 3.2 C 83 % 0.6 C
1446 27-04-2016 00:25:00 3.1 C 83 % 0.5 C
1447 27-04-2016 00:30:00 3.2 C 83 % 0.6 C
1448 27-04-2016 00:35:00 3.2 C 83 % 0.6 C
1449 27-04-2016 00:40:00 3.2 C 83 % 0.6 C
1450 27-04-2016 00:45:00 3.2 C 83 % 0.6 C
Sensor: Nr:Datum:Temp:Feuchte:Taupunkt:
Aussen-T/F 1451 27-04-2016 00:50:00 3.3 C 83 % 0.7 C
1452 27-04-2016 00:55:00 3.3 C 82 % 0.53 C
1453 27-04-2016 01:00:00 3.4 C 82 % 0.63 C
1454 27-04-2016 01:05:00 3.5 C 81 % 0.55 C
1455 27-04-2016 01:10:00 3.5 C 82 % 0.72 C
1456 27-04-2016 01:15:00 3.5 C 81 % 0.55 C
1457 27-04-2016 01:20:00 3.5 C 81 % 0.55 C
1458 27-04-2016 01:25:00 3.5 C 81 % 0.55 C
1459 27-04-2016 01:30:00 3.4 C 82 % 0.63 C
1460 27-04-2016 01:35:00 3.4 C 82 % 0.63 C
1461 27-04-2016 01:40:00 3.4 C 83 % 0.79 C
1462 27-04-2016 01:45:00 3.3 C 83 % 0.7 C
1463 27-04-2016 01:50:00 3.3 C 83 % 0.7 C
1464 27-04-2016 01:55:00 3.3 C 84 % 0.86 C
1465 27-04-2016 02:00:00 3.3 C 84 % 0.86 C
1466 27-04-2016 02:05:00 3.3 C 84 % 0.86 C
1467 27-04-2016 02:10:00 3.3 C 84 % 0.86 C
1468 27-04-2016 02:15:00 3.3 C 84 % 0.86 C
1469 27-04-2016 02:20:00 3.4 C 84 % 0.96 C
1470 27-04-2016 02:25:00 3.4 C 83 % 0.79 C
1471 27-04-2016 02:30:00 3.6 C 83 % 0.99 C
1472 27-04-2016 02:35:00 3.6 C 82 % 0.82 C
1473 27-04-2016 02:40:00 3.7 C 81 % 0.75 C
1474 27-04-2016 02:45:00 3.7 C 81 % 0.75 C
1475 27-04-2016 02:50:00 3.7 C 82 % 0.92 C
Sensor: Nr:Datum:Temp:Feuchte:Taupunkt:
Aussen-T/F 1476 27-04-2016 02:55:00 3.7 C 81 % 0.75 C
1477 27-04-2016 03:00:00 3.8 C 81 % 0.85 C
1478 27-04-2016 03:05:00 3.8 C 81 % 0.85 C
1479 27-04-2016 03:10:00 3.8 C 82 % 1.02 C
1480 27-04-2016 03:15:00 3.7 C 81 % 0.75 C
1481 27-04-2016 03:20:00 3.7 C 82 % 0.92 C
1482 27-04-2016 03:25:00 3.7 C 82 % 0.92 C
1483 27-04-2016 03:30:00 3.6 C 82 % 0.82 C
1484 27-04-2016 03:35:00 3.6 C 82 % 0.82 C
1485 27-04-2016 03:40:00 3.6 C 82 % 0.82 C
1486 27-04-2016 03:45:00 3.6 C 82 % 0.82 C
1487 27-04-2016 03:50:00 3.7 C 82 % 0.92 C
1488 27-04-2016 03:55:00 3.6 C 82 % 0.82 C
1489 27-04-2016 04:00:00 3.6 C 82 % 0.82 C
1490 27-04-2016 04:05:00 3.6 C 82 % 0.82 C
1491 27-04-2016 04:10:00 3.6 C 83 % 0.99 C
1492 27-04-2016 04:15:00 3.6 C 83 % 0.99 C
1493 27-04-2016 04:20:00 3.7 C 82 % 0.92 C
1494 27-04-2016 04:25:00 3.7 C 82 % 0.92 C
1495 27-04-2016 04:30:00 3.7 C 82 % 0.92 C
1496 27-04-2016 04:35:00 3.7 C 82 % 0.92 C
1497 27-04-2016 04:40:00 3.7 C 82 % 0.92 C
1498 27-04-2016 04:45:00 3.7 C 81 % 0.75 C
1499 27-04-2016 04:50:00 3.7 C 82 % 0.92 C
1500 27-04-2016 04:55:00 3.8 C 82 % 1.02 C
Sensor: Nr:Datum:Temp:Feuchte:Taupunkt:
Aussen-T/F 1501 27-04-2016 05:00:00 3.8 C 82 % 1.02 C
1502 27-04-2016 05:05:00 3.8 C 82 % 1.02 C
1503 27-04-2016 05:10:00 3.8 C 81 % 0.85 C
1504 27-04-2016 05:15:00 3.8 C 81 % 0.85 C
1505 27-04-2016 05:20:00 3.8 C 81 % 0.85 C
1506 27-04-2016 05:25:00 3.8 C 81 % 0.85 C
1507 27-04-2016 05:30:00 3.8 C 81 % 0.85 C
1508 27-04-2016 05:35:00 3.8 C 81 % 0.85 C
1509 27-04-2016 05:40:00 3.8 C 81 % 0.85 C
1510 27-04-2016 05:45:00 3.8 C 81 % 0.85 C
1511 27-04-2016 05:50:00 3.7 C 81 % 0.75 C
1512 27-04-2016 05:55:00 3.7 C 81 % 0.75 C
1513 27-04-2016 06:00:00 3.7 C 80 % 0.58 C
1514 27-04-2016 06:05:00 3.8 C 80 % 0.68 C
1515 27-04-2016 06:10:00 3.8 C 80 % 0.68 C
1516 27-04-2016 06:15:00 3.8 C 80 % 0.68 C
1517 27-04-2016 06:20:00 3.8 C 80 % 0.68 C
1518 27-04-2016 06:25:00 3.8 C 80 % 0.68 C
1519 27-04-2016 06:30:00 3.8 C 80 % 0.68 C
1520 27-04-2016 06:35:00 3.8 C 80 % 0.68 C
1521 27-04-2016 06:40:00 3.9 C 80 % 0.77 C
1522 27-04-2016 06:45:00 3.9 C 80 % 0.77 C
1523 27-04-2016 06:50:00 3.9 C 80 % 0.77 C
1524 27-04-2016 06:55:00 3.9 C 80 % 0.77 C
1525 27-04-2016 07:00:00 3.8 C 80 % 0.68 C
Sensor: Nr:Datum:Temp:Feuchte:Taupunkt:
Aussen-T/F 1526 27-04-2016 07:05:00 3.8 C 80 % 0.68 C
1527 27-04-2016 07:10:00 3.7 C 80 % 0.58 C
1528 27-04-2016 07:15:00 3.7 C 81 % 0.75 C
1529 27-04-2016 07:20:00 3.8 C 81 % 0.85 C
1530 27-04-2016 07:25:00 3.8 C 81 % 0.85 C
1531 27-04-2016 07:30:00 3.8 C 80 % 0.68 C
1532 27-04-2016 07:35:00 3.9 C 80 % 0.77 C
1533 27-04-2016 07:40:00 4 C 80 % 0.87 C
1534 27-04-2016 07:45:00 4.1 C 80 % 0.97 C
1535 27-04-2016 07:50:00 4.1 C 80 % 0.97 C
1536 27-04-2016 07:55:00 4.2 C 79 % 0.89 C
1537 27-04-2016 08:00:00 4.2 C 79 % 0.89 C
1538 27-04-2016 08:05:00 4.3 C 79 % 0.99 C
1539 27-04-2016 08:10:00 4.4 C 79 % 1.09 C
1540 27-04-2016 08:15:00 4.5 C 78 % 1.01 C
1541 27-04-2016 08:20:00 4.6 C 78 % 1.1 C
1542 27-04-2016 08:25:00 4.7 C 78 % 1.2 C
1543 27-04-2016 08:30:00 4.7 C 78 % 1.2 C
1544 27-04-2016 08:35:00 4.8 C 78 % 1.3 C
1545 27-04-2016 08:40:00 4.9 C 78 % 1.39 C
1546 27-04-2016 08:45:00 5 C 78 % 1.49 C
1547 27-04-2016 08:50:00 5.1 C 77 % 1.41 C
1548 27-04-2016 08:55:00 5.2 C 76 % 1.32 C
1549 27-04-2016 09:00:00 5.2 C 77 % 1.51 C
1550 27-04-2016 09:05:00 5.3 C 76 % 1.42 C
Sensor: Nr:Datum:Temp:Feuchte:Taupunkt:
Aussen-T/F 1551 27-04-2016 09:10:00 5.3 C 77 % 1.6 C
1552 27-04-2016 09:15:00 5.4 C 77 % 1.7 C
1553 27-04-2016 09:20:00 5.6 C 77 % 1.89 C
1554 27-04-2016 09:25:00 5.7 C 76 % 1.81 C
1555 27-04-2016 09:30:00 5.7 C 75 % 1.62 C
1556 27-04-2016 09:35:00 5.7 C 76 % 1.81 C
1557 27-04-2016 09:40:00 5.7 C 75 % 1.62 C
1558 27-04-2016 09:45:00 5.6 C 76 % 1.71 C
1559 27-04-2016 09:50:00 5.4 C 76 % 1.52 C
1560 27-04-2016 09:55:00 5.3 C 79 % 1.96 C
1561 27-04-2016 10:00:00 5.2 C 81 % 2.21 C
1562 27-04-2016 10:05:00 5 C 81 % 2.02 C
1563 27-04-2016 10:10:00 4.8 C 82 % 1.99 C
1564 27-04-2016 10:15:00 4.8 C 84 % 2.33 C
1565 27-04-2016 10:20:00 4.8 C 84 % 2.33 C
1566 27-04-2016 10:25:00 4.8 C 84 % 2.33 C
1567 27-04-2016 10:30:00 4.7 C 86 % 2.56 C
1568 27-04-2016 10:35:00 4.7 C 86 % 2.56 C
1569 27-04-2016 10:40:00 4.7 C 86 % 2.56 C
1570 27-04-2016 10:45:00 4.7 C 86 % 2.56 C
1571 27-04-2016 10:50:00 4.8 C 86 % 2.66 C
1572 27-04-2016 10:55:00 4.9 C 87 % 2.92 C
1573 27-04-2016 11:00:00 5 C 85 % 2.69 C
1574 27-04-2016 11:05:00 5.1 C 85 % 2.79 C
1575 27-04-2016 11:10:00 5.1 C 83 % 2.46 C
Sensor: Nr:Datum:Temp:Feuchte:Taupunkt:
Aussen-T/F 1576 27-04-2016 11:15:00 5.1 C 84 % 2.63 C
1577 27-04-2016 11:20:00 5.1 C 84 % 2.63 C
1578 27-04-2016 11:25:00 5.1 C 83 % 2.46 C
1579 27-04-2016 11:30:00 5.1 C 83 % 2.46 C
1580 27-04-2016 11:35:00 5.2 C 84 % 2.72 C
1581 27-04-2016 11:40:00 5.2 C 83 % 2.56 C
1582 27-04-2016 11:45:00 5.3 C 84 % 2.82 C
1583 27-04-2016 11:50:00 5.4 C 83 % 2.75 C
1584 27-04-2016 11:55:00 5.5 C 82 % 2.68 C
1585 27-04-2016 12:00:00 5.6 C 82 % 2.78 C
1586 27-04-2016 12:05:00 5.6 C 82 % 2.78 C
1587 27-04-2016 12:10:00 5.7 C 83 % 3.04 C
1588 27-04-2016 12:15:00 5.8 C 82 % 2.97 C
1589 27-04-2016 12:20:00 5.8 C 82 % 2.97 C
1590 27-04-2016 12:25:00 5.7 C 82 % 2.87 C
1591 27-04-2016 12:30:00 5.7 C 83 % 3.04 C
1592 27-04-2016 12:35:00 5.7 C 85 % 3.38 C
1593 27-04-2016 12:40:00 5.7 C 84 % 3.21 C
1594 27-04-2016 12:45:00 5.7 C 85 % 3.38 C
1595 27-04-2016 12:50:00 5.8 C 85 % 3.48 C
1596 27-04-2016 12:55:00 6.1 C 83 % 3.44 C
1597 27-04-2016 13:00:00 6.3 C 83 % 3.63 C
1598 27-04-2016 13:05:00 6.5 C 82 % 3.66 C
1599 27-04-2016 13:10:00 6.7 C 81 % 3.68 C
1600 27-04-2016 13:15:00 6.9 C 80 % 3.7 C
Sensor: Nr:Datum:Temp:Feuchte:Taupunkt:
Aussen-T/F 1601 27-04-2016 13:20:00 6.9 C 79 % 3.52 C
1602 27-04-2016 13:25:00 6.9 C 79 % 3.52 C
1603 27-04-2016 13:30:00 7 C 80 % 3.79 C
1604 27-04-2016 13:35:00 7.1 C 78 % 3.53 C
1605 27-04-2016 13:40:00 7.1 C 78 % 3.53 C
1606 27-04-2016 13:45:00 7.1 C 78 % 3.53 C
1607 27-04-2016 13:50:00 7.1 C 78 % 3.53 C
1608 27-04-2016 13:55:00 7.2 C 79 % 3.81 C
1609 27-04-2016 14:00:00 7.2 C 78 % 3.63 C
1610 27-04-2016 14:05:00 7.3 C 78 % 3.73 C
1611 27-04-2016 14:10:00 7.5 C 77 % 3.74 C
1612 27-04-2016 14:15:00 7.5 C 77 % 3.74 C
1613 27-04-2016 14:20:00 7.4 C 76 % 3.45 C
1614 27-04-2016 14:25:00 7.3 C 78 % 3.73 C
1615 27-04-2016 14:30:00 7.3 C 78 % 3.73 C
1616 27-04-2016 14:35:00 7.3 C 78 % 3.73 C
1617 27-04-2016 14:40:00 7.2 C 78 % 3.63 C
1618 27-04-2016 14:45:00 7.2 C 80 % 3.99 C
1619 27-04-2016 14:50:00 7.4 C 80 % 4.18 C
1620 27-04-2016 14:55:00 7.7 C 79 % 4.3 C
1621 27-04-2016 15:00:00 7.8 C 76 % 3.84 C
1622 27-04-2016 15:05:00 7.9 C 76 % 3.94 C
1623 27-04-2016 15:10:00 8.1 C 73 % 3.56 C
1624 27-04-2016 15:15:00 8.1 C 74 % 3.75 C
1625 27-04-2016 15:20:00 8.2 C 73 % 3.66 C
Sensor: Nr:Datum:Temp:Feuchte:Taupunkt:
Aussen-T/F 1626 27-04-2016 15:25:00 8.4 C 72 % 3.65 C
1627 27-04-2016 15:30:00 8.4 C 71 % 3.46 C
1628 27-04-2016 15:35:00 8.4 C 70 % 3.26 C
1629 27-04-2016 15:40:00 8.4 C 70 % 3.26 C
1630 27-04-2016 15:45:00 8.5 C 69 % 3.15 C
1631 27-04-2016 15:50:00 8.6 C 70 % 3.45 C
1632 27-04-2016 15:55:00 8.7 C 71 % 3.74 C
1633 27-04-2016 16:00:00 8.5 C 71 % 3.55 C
1634 27-04-2016 16:05:00 8.3 C 72 % 3.56 C
1635 27-04-2016 16:10:00 8.2 C 71 % 3.26 C
1636 27-04-2016 16:15:00 8.2 C 71 % 3.26 C
1637 27-04-2016 16:20:00 8.2 C 71 % 3.26 C
1638 27-04-2016 16:25:00 8.3 C 70 % 3.16 C
1639 27-04-2016 16:30:00 8.6 C 70 % 3.45 C
1640 27-04-2016 16:35:00 9 C 69 % 3.63 C
1641 27-04-2016 16:40:00 9.2 C 68 % 3.61 C
1642 27-04-2016 16:45:00 9.1 C 66 % 3.09 C
1643 27-04-2016 16:50:00 8.7 C 66 % 2.71 C
1644 27-04-2016 16:55:00 8.6 C 69 % 3.24 C
1645 27-04-2016 17:00:00 8.4 C 69 % 3.05 C
1646 27-04-2016 17:05:00 8.2 C 70 % 3.06 C
1647 27-04-2016 17:10:00 8.2 C 70 % 3.06 C
1648 27-04-2016 17:15:00 8.1 C 70 % 2.97 C
1649 27-04-2016 17:20:00 8.1 C 70 % 2.97 C
1650 27-04-2016 17:25:00 8.1 C 70 % 2.97 C
Sensor: Nr:Datum:Temp:Feuchte:Taupunkt:
Aussen-T/F 1651 27-04-2016 17:30:00 8.2 C 70 % 3.06 C
1652 27-04-2016 17:35:00 8.2 C 72 % 3.46 C
1653 27-04-2016 17:40:00 8.3 C 70 % 3.16 C
1654 27-04-2016 17:45:00 8.4 C 70 % 3.26 C
1655 27-04-2016 17:50:00 8.3 C 69 % 2.96 C
1656 27-04-2016 17:55:00 8.3 C 69 % 2.96 C
1657 27-04-2016 18:00:00 8.3 C 71 % 3.36 C
1658 27-04-2016 18:05:00 8.7 C 70 % 3.54 C
1659 27-04-2016 18:10:00 8.9 C 68 % 3.32 C
1660 27-04-2016 18:15:00 9.1 C 67 % 3.31 C
1661 27-04-2016 18:20:00 9.3 C 68 % 3.71 C
1662 27-04-2016 18:25:00 9.4 C 67 % 3.59 C
1663 27-04-2016 18:30:00 9.5 C 68 % 3.9 C
1664 27-04-2016 18:35:00 9.7 C 65 % 3.45 C
1665 27-04-2016 18:40:00 9.4 C 63 % 2.72 C
1666 27-04-2016 18:45:00 9.2 C 64 % 2.76 C
1667 27-04-2016 18:50:00 8.8 C 64 % 2.38 C
1668 27-04-2016 18:55:00 8.8 C 66 % 2.81 C
1669 27-04-2016 19:00:00 8.9 C 65 % 2.69 C
1670 27-04-2016 19:05:00 8.7 C 65 % 2.5 C
1671 27-04-2016 19:10:00 8.4 C 67 % 2.64 C
1672 27-04-2016 19:15:00 8.2 C 68 % 2.66 C
1673 27-04-2016 19:20:00 8 C 69 % 2.67 C
1674 27-04-2016 19:25:00 7.9 C 69 % 2.57 C
1675 27-04-2016 19:30:00 7.8 C 70 % 2.68 C
Sensor: Nr:Datum:Temp:Feuchte:Taupunkt:
Aussen-T/F 1676 27-04-2016 19:35:00 7.8 C 70 % 2.68 C
1677 27-04-2016 19:40:00 7.8 C 71 % 2.88 C
1678 27-04-2016 19:45:00 7.9 C 71 % 2.98 C
1679 27-04-2016 19:50:00 8.1 C 70 % 2.97 C
1680 27-04-2016 19:55:00 8.1 C 68 % 2.56 C
1681 27-04-2016 20:00:00 7.8 C 68 % 2.27 C
1682 27-04-2016 20:05:00 7.6 C 69 % 2.29 C
1683 27-04-2016 20:10:00 7.3 C 69 % 2 C
1684 27-04-2016 20:15:00 7.1 C 70 % 2.01 C
1685 27-04-2016 20:20:00 6.9 C 70 % 1.82 C
1686 27-04-2016 20:25:00 6.8 C 71 % 1.92 C
1687 27-04-2016 20:30:00 6.7 C 70 % 1.63 C
1688 27-04-2016 20:35:00 6.6 C 71 % 1.73 C
1689 27-04-2016 20:40:00 6.6 C 73 % 2.12 C
1690 27-04-2016 20:45:00 6.4 C 73 % 1.92 C
1691 27-04-2016 20:50:00 6.3 C 74 % 2.02 C
1692 27-04-2016 20:55:00 6.1 C 74 % 1.82 C
1693 27-04-2016 21:00:00 5.9 C 75 % 1.82 C
1694 27-04-2016 21:05:00 5.8 C 76 % 1.91 C
1695 27-04-2016 21:10:00 5.7 C 77 % 1.99 C
1696 27-04-2016 21:15:00 5.6 C 78 % 2.07 C
1697 27-04-2016 21:20:00 5.4 C 79 % 2.06 C
1698 27-04-2016 21:25:00 5.3 C 79 % 1.96 C
1699 27-04-2016 21:30:00 5.2 C 80 % 2.04 C
1700 27-04-2016 21:35:00 5.2 C 80 % 2.04 C
Sensor: Nr:Datum:Temp:Feuchte:Taupunkt:
Aussen-T/F 1701 27-04-2016 21:40:00 5.1 C 81 % 2.12 C
1702 27-04-2016 21:45:00 5.1 C 81 % 2.12 C
1703 27-04-2016 21:50:00 5.1 C 81 % 2.12 C
1704 27-04-2016 21:55:00 5.1 C 82 % 2.29 C
1705 27-04-2016 22:00:00 5.1 C 82 % 2.29 C
1706 27-04-2016 22:05:00 5.1 C 82 % 2.29 C
1707 27-04-2016 22:10:00 5.2 C 83 % 2.56 C
1708 27-04-2016 22:15:00 5.2 C 83 % 2.56 C
1709 27-04-2016 22:20:00 5.3 C 83 % 2.65 C
1710 27-04-2016 22:25:00 5.3 C 83 % 2.65 C
1711 27-04-2016 22:30:00 5.3 C 83 % 2.65 C
1712 27-04-2016 22:35:00 5.3 C 83 % 2.65 C
1713 27-04-2016 22:40:00 5.3 C 82 % 2.48 C
1714 27-04-2016 22:45:00 5.3 C 82 % 2.48 C
1715 27-04-2016 22:50:00 5.2 C 82 % 2.39 C
1716 27-04-2016 22:55:00 5.2 C 82 % 2.39 C
1717 27-04-2016 23:00:00 5.1 C 83 % 2.46 C
1718 27-04-2016 23:05:00 5 C 83 % 2.36 C
1719 27-04-2016 23:10:00 4.9 C 84 % 2.43 C
1720 27-04-2016 23:15:00 4.8 C 84 % 2.33 C
1721 27-04-2016 23:20:00 4.8 C 84 % 2.33 C
1722 27-04-2016 23:25:00 4.8 C 84 % 2.33 C
1723 27-04-2016 23:30:00 4.8 C 84 % 2.33 C
1724 27-04-2016 23:35:00 4.8 C 83 % 2.16 C
1725 27-04-2016 23:40:00 4.8 C 83 % 2.16 C
Sensor: Nr:Datum:Temp:Feuchte:Taupunkt:
Aussen-T/F 1726 27-04-2016 23:45:00 4.7 C 83 % 2.07 C
1727 27-04-2016 23:50:00 4.6 C 83 % 1.97 C
1728 27-04-2016 23:55:00 4.5 C 84 % 2.04 C
1729 28-04-2016 00:00:00 4.4 C 85 % 2.11 C
1730 28-04-2016 00:05:00 4.3 C 86 % 2.17 C
1731 28-04-2016 00:10:00 4.2 C 86 % 2.07 C
1732 28-04-2016 00:15:00 4.1 C 87 % 2.14 C
1733 28-04-2016 00:20:00 4 C 87 % 2.04 C
1734 28-04-2016 00:25:00 3.9 C 87 % 1.94 C
1735 28-04-2016 00:30:00 3.9 C 88 % 2.1 C
1736 28-04-2016 00:35:00 3.8 C 88 % 2 C
1737 28-04-2016 00:40:00 3.8 C 88 % 2 C
1738 28-04-2016 00:45:00 3.8 C 88 % 2 C
1739 28-04-2016 00:50:00 3.7 C 88 % 1.9 C
1740 28-04-2016 00:55:00 3.7 C 88 % 1.9 C
1741 28-04-2016 01:00:00 3.6 C 88 % 1.8 C
1742 28-04-2016 01:05:00 3.5 C 88 % 1.7 C
1743 28-04-2016 01:10:00 3.4 C 88 % 1.61 C
1744 28-04-2016 01:15:00 3.3 C 88 % 1.51 C
1745 28-04-2016 01:20:00 3.3 C 88 % 1.51 C
1746 28-04-2016 01:25:00 3.2 C 88 % 1.41 C
1747 28-04-2016 01:30:00 3.2 C 88 % 1.41 C
1748 28-04-2016 01:35:00 3.2 C 88 % 1.41 C
1749 28-04-2016 01:40:00 3.2 C 88 % 1.41 C
1750 28-04-2016 01:45:00 3.1 C 88 % 1.31 C
Sensor: Nr:Datum:Temp:Feuchte:Taupunkt:
Aussen-T/F 1751 28-04-2016 01:50:00 3.1 C 88 % 1.31 C
1752 28-04-2016 01:55:00 3.1 C 89 % 1.47 C
1753 28-04-2016 02:00:00 3 C 89 % 1.37 C
1754 28-04-2016 02:05:00 2.9 C 89 % 1.27 C
1755 28-04-2016 02:10:00 2.9 C 89 % 1.27 C
1756 28-04-2016 02:15:00 2.9 C 89 % 1.27 C
1757 28-04-2016 02:20:00 2.9 C 89 % 1.27 C
1758 28-04-2016 02:25:00 2.8 C 89 % 1.17 C
1759 28-04-2016 02:30:00 2.8 C 89 % 1.17 C
1760 28-04-2016 02:35:00 2.7 C 89 % 1.07 C
1761 28-04-2016 02:40:00 2.6 C 89 % 0.97 C
1762 28-04-2016 02:45:00 2.5 C 90 % 1.03 C
1763 28-04-2016 02:50:00 2.4 C 90 % 0.93 C
1764 28-04-2016 02:55:00 2.4 C 90 % 0.93 C
1765 28-04-2016 03:00:00 2.3 C 90 % 0.83 C
1766 28-04-2016 03:05:00 2.3 C 91 % 0.99 C
1767 28-04-2016 03:10:00 2.2 C 91 % 0.89 C
1768 28-04-2016 03:15:00 2.1 C 91 % 0.79 C
1769 28-04-2016 03:20:00 2.1 C 91 % 0.79 C
1770 28-04-2016 03:25:00 2.1 C 91 % 0.79 C
1771 28-04-2016 03:30:00 2 C 91 % 0.69 C
1772 28-04-2016 03:35:00 2 C 91 % 0.69 C
1773 28-04-2016 03:40:00 1.9 C 92 % 0.74 C
1774 28-04-2016 03:45:00 1.9 C 91 % 0.59 C
1775 28-04-2016 03:50:00 1.9 C 91 % 0.59 C
Sensor: Nr:Datum:Temp:Feuchte:Taupunkt:
Aussen-T/F 1776 28-04-2016 03:55:00 1.9 C 91 % 0.59 C
1777 28-04-2016 04:00:00 1.8 C 91 % 0.49 C
1778 28-04-2016 04:05:00 1.8 C 91 % 0.49 C
1779 28-04-2016 04:10:00 1.7 C 91 % 0.39 C
1780 28-04-2016 04:15:00 1.6 C 91 % 0.29 C
1781 28-04-2016 04:20:00 1.6 C 91 % 0.29 C
1782 28-04-2016 04:25:00 1.5 C 92 % 0.35 C
1783 28-04-2016 04:30:00 1.4 C 92 % 0.25 C
1784 28-04-2016 04:35:00 1.5 C 92 % 0.35 C
1785 28-04-2016 04:40:00 1.6 C 92 % 0.44 C
1786 28-04-2016 04:45:00 1.6 C 92 % 0.44 C
1787 28-04-2016 04:50:00 1.6 C 92 % 0.44 C
1788 28-04-2016 04:55:00 1.6 C 93 % 0.59 C
1789 28-04-2016 05:00:00 1.7 C 92 % 0.54 C
1790 28-04-2016 05:05:00 1.6 C 92 % 0.44 C
1791 28-04-2016 05:10:00 1.6 C 92 % 0.44 C
1792 28-04-2016 05:15:00 1.7 C 92 % 0.54 C
1793 28-04-2016 05:20:00 1.7 C 92 % 0.54 C
1794 28-04-2016 05:25:00 1.7 C 92 % 0.54 C
1795 28-04-2016 05:30:00 1.8 C 92 % 0.64 C
1796 28-04-2016 05:35:00 1.8 C 92 % 0.64 C
1797 28-04-2016 05:40:00 1.8 C 92 % 0.64 C
1798 28-04-2016 05:45:00 1.9 C 92 % 0.74 C
1799 28-04-2016 05:50:00 1.9 C 92 % 0.74 C
1800 28-04-2016 05:55:00 1.9 C 92 % 0.74 C
Sensor: Nr:Datum:Temp:Feuchte:Taupunkt:
Aussen-T/F 1801 28-04-2016 06:00:00 1.8 C 92 % 0.64 C
1802 28-04-2016 06:05:00 1.8 C 92 % 0.64 C
1803 28-04-2016 06:10:00 1.7 C 92 % 0.54 C
1804 28-04-2016 06:15:00 1.7 C 92 % 0.54 C
1805 28-04-2016 06:20:00 1.6 C 92 % 0.44 C
1806 28-04-2016 06:25:00 1.7 C 92 % 0.54 C
1807 28-04-2016 06:30:00 1.7 C 92 % 0.54 C
1808 28-04-2016 06:35:00 1.7 C 92 % 0.54 C
1809 28-04-2016 06:40:00 1.8 C 92 % 0.64 C
1810 28-04-2016 06:45:00 1.9 C 92 % 0.74 C
1811 28-04-2016 06:50:00 2 C 92 % 0.84 C
1812 28-04-2016 06:55:00 2.1 C 92 % 0.94 C
1813 28-04-2016 07:00:00 2.2 C 91 % 0.89 C
1814 28-04-2016 07:05:00 2.2 C 91 % 0.89 C
1815 28-04-2016 07:10:00 2.3 C 91 % 0.99 C
1816 28-04-2016 07:15:00 2.3 C 90 % 0.83 C
1817 28-04-2016 07:20:00 2.3 C 90 % 0.83 C
1818 28-04-2016 07:25:00 2.3 C 90 % 0.83 C
1819 28-04-2016 07:30:00 2.3 C 90 % 0.83 C
1820 28-04-2016 07:35:00 2.4 C 90 % 0.93 C
1821 28-04-2016 07:40:00 2.6 C 90 % 1.13 C
1822 28-04-2016 07:45:00 2.7 C 90 % 1.23 C
1823 28-04-2016 07:50:00 2.8 C 90 % 1.33 C
1824 28-04-2016 07:55:00 2.8 C 90 % 1.33 C
1825 28-04-2016 08:00:00 2.8 C 89 % 1.17 C
Sensor: Nr:Datum:Temp:Feuchte:Taupunkt:
Aussen-T/F 1826 28-04-2016 08:05:00 2.8 C 89 % 1.17 C
1827 28-04-2016 08:10:00 2.8 C 89 % 1.17 C
1828 28-04-2016 08:15:00 2.8 C 89 % 1.17 C
1829 28-04-2016 08:20:00 2.9 C 89 % 1.27 C
1830 28-04-2016 08:25:00 3.1 C 89 % 1.47 C
1831 28-04-2016 08:30:00 3.1 C 88 % 1.31 C
1832 28-04-2016 08:35:00 3.1 C 88 % 1.31 C
1833 28-04-2016 08:40:00 3.1 C 88 % 1.31 C
1834 28-04-2016 08:45:00 3.1 C 88 % 1.31 C
1835 28-04-2016 08:50:00 3.1 C 88 % 1.31 C
1836 28-04-2016 08:55:00 3.2 C 88 % 1.41 C
1837 28-04-2016 09:00:00 3.3 C 88 % 1.51 C
1838 28-04-2016 09:05:00 3.4 C 87 % 1.45 C
1839 28-04-2016 09:10:00 3.5 C 87 % 1.55 C
1840 28-04-2016 09:15:00 3.6 C 87 % 1.64 C
1841 28-04-2016 09:20:00 3.7 C 87 % 1.74 C
1842 28-04-2016 09:25:00 3.8 C 87 % 1.84 C
1843 28-04-2016 09:30:00 3.9 C 86 % 1.78 C
1844 28-04-2016 09:35:00 4 C 86 % 1.88 C
1845 28-04-2016 09:40:00 4.2 C 86 % 2.07 C
1846 28-04-2016 09:45:00 4.3 C 85 % 2.01 C
1847 28-04-2016 09:50:00 4.6 C 85 % 2.3 C
1848 28-04-2016 09:55:00 4.7 C 84 % 2.23 C
1849 28-04-2016 10:00:00 4.9 C 84 % 2.43 C
1850 28-04-2016 10:05:00 5.1 C 84 % 2.63 C
Sensor: Nr:Datum:Temp:Feuchte:Taupunkt:
Aussen-T/F 1851 28-04-2016 10:10:00 5.2 C 83 % 2.56 C
1852 28-04-2016 10:15:00 5.4 C 81 % 2.41 C
1853 28-04-2016 10:20:00 5.7 C 81 % 2.7 C
1854 28-04-2016 10:25:00 6.1 C 80 % 2.92 C
1855 28-04-2016 10:30:00 6.3 C 79 % 2.93 C
1856 28-04-2016 10:35:00 6.6 C 79 % 3.23 C
1857 28-04-2016 10:40:00 6.9 C 77 % 3.16 C
1858 28-04-2016 10:45:00 7.3 C 75 % 3.17 C
1859 28-04-2016 10:50:00 7.5 C 71 % 2.59 C
1860 28-04-2016 10:55:00 7.8 C 74 % 3.46 C
1861 28-04-2016 11:00:00 8 C 72 % 3.27 C
1862 28-04-2016 11:05:00 8.2 C 70 % 3.06 C
1863 28-04-2016 11:10:00 8.2 C 67 % 2.45 C
1864 28-04-2016 11:15:00 8.3 C 69 % 2.96 C
1865 28-04-2016 11:20:00 8.3 C 68 % 2.75 C
1866 28-04-2016 11:25:00 8.3 C 65 % 2.12 C
1867 28-04-2016 11:30:00 8.2 C 64 % 1.81 C
1868 28-04-2016 11:35:00 8.3 C 66 % 2.33 C
1869 28-04-2016 11:40:00 8.4 C 62 % 1.55 C
1870 28-04-2016 11:45:00 8.6 C 60 % 1.29 C
1871 28-04-2016 11:50:00 8.8 C 60 % 1.48 C
1872 28-04-2016 11:55:00 8.9 C 58 % 1.1 C
1873 28-04-2016 12:00:00 9.1 C 59 % 1.52 C
1874 28-04-2016 12:05:00 9.3 C 56 % 0.99 C
1875 28-04-2016 12:10:00 9.3 C 57 % 1.23 C
Sensor: Nr:Datum:Temp:Feuchte:Taupunkt:
Aussen-T/F 1876 28-04-2016 12:15:00 9.3 C 56 % 0.99 C
1877 28-04-2016 12:20:00 9.4 C 52 % 0.06 C
1878 28-04-2016 12:25:00 9.4 C 49 % -0.76 C
1879 28-04-2016 12:30:00 9.3 C 49 % -0.85 C
1880 28-04-2016 12:35:00 9.2 C 53 % 0.13 C
1881 28-04-2016 12:40:00 9.2 C 49 % -0.94 C
1882 28-04-2016 12:45:00 9.3 C 51 % -0.3 C
1883 28-04-2016 12:50:00 9.4 C 48 % -1.04 C
1884 28-04-2016 12:55:00 9.5 C 51 % -0.12 C
1885 28-04-2016 13:00:00 9.6 C 50 % -0.3 C
1886 28-04-2016 13:05:00 9.7 C 51 % 0.07 C
1887 28-04-2016 13:10:00 9.8 C 52 % 0.43 C
1888 28-04-2016 13:15:00 9.9 C 54 % 1.04 C
1889 28-04-2016 13:20:00 9.8 C 53 % 0.69 C
1890 28-04-2016 13:25:00 9.8 C 53 % 0.69 C
1891 28-04-2016 13:30:00 9.8 C 53 % 0.69 C
1892 28-04-2016 13:35:00 9.6 C 53 % 0.5 C
1893 28-04-2016 13:40:00 9.3 C 55 % 0.74 C
1894 28-04-2016 13:45:00 9.1 C 54 % 0.3 C
1895 28-04-2016 13:50:00 8.9 C 54 % 0.11 C
1896 28-04-2016 13:55:00 8.8 C 54 % 0.02 C
1897 28-04-2016 14:00:00 8.7 C 53 % -0.33 C
1898 28-04-2016 14:05:00 8.8 C 56 % 0.52 C
1899 28-04-2016 14:10:00 9.1 C 56 % 0.8 C
1900 28-04-2016 14:15:00 9.3 C 55 % 0.74 C
Sensor: Nr:Datum:Temp:Feuchte:Taupunkt:
Aussen-T/F 1901 28-04-2016 14:20:00 9.2 C 55 % 0.64 C
1902 28-04-2016 14:25:00 9.3 C 55 % 0.74 C
1903 28-04-2016 14:30:00 9.4 C 54 % 0.58 C
1904 28-04-2016 14:35:00 9.7 C 52 % 0.33 C
1905 28-04-2016 14:40:00 9.9 C 51 % 0.25 C
1906 28-04-2016 14:45:00 9.8 C 51 % 0.16 C
1907 28-04-2016 14:50:00 10 C 49 % -0.21 C
1908 28-04-2016 14:55:00 10.2 C 49 % -0.02 C
1909 28-04-2016 15:00:00 10.6 C 48 % 0.06 C
1910 28-04-2016 15:05:00 10.8 C 45 % -0.64 C
1911 28-04-2016 15:10:00 10.9 C 44 % -0.86 C
1912 28-04-2016 15:15:00 11.2 C 45 % -0.28 C
1913 28-04-2016 15:20:00 11.6 C 43 % -0.54 C
1914 28-04-2016 15:25:00 11.8 C 42 % -0.68 C
1915 28-04-2016 15:30:00 12.1 C 40 % -1.07 C
1916 28-04-2016 15:35:00 12.2 C 43 % 0.01 C
1917 28-04-2016 15:40:00 12.4 C 42 % -0.14 C
1918 28-04-2016 15:45:00 12.6 C 42 % 0.04 C
1919 28-04-2016 15:50:00 12.9 C 41 % -0.02 C
1920 28-04-2016 15:55:00 13.1 C 43 % 0.82 C
1921 28-04-2016 16:00:00 13.4 C 40 % 0.09 C
1922 28-04-2016 16:05:00 13.6 C 38 % -0.43 C
1923 28-04-2016 16:10:00 13.6 C 39 % -0.08 C
1924 28-04-2016 16:15:00 13.6 C 40 % 0.27 C
1925 28-04-2016 16:20:00 13.7 C 40 % 0.36 C
Sensor: Nr:Datum:Temp:Feuchte:Taupunkt:
Aussen-T/F 1926 28-04-2016 16:25:00 13.9 C 35 % -1.29 C
1927 28-04-2016 16:30:00 13.3 C 36 % -1.44 C
1928 28-04-2016 16:35:00 13.1 C 38 % -0.88 C
1929 28-04-2016 16:40:00 13.2 C 39 % -0.43 C
1930 28-04-2016 16:45:00 13.4 C 37 % -0.97 C
1931 28-04-2016 16:50:00 13.5 C 39 % -0.17 C
1932 28-04-2016 16:55:00 13.8 C 37 % -0.62 C
1933 28-04-2016 17:00:00 13.8 C 36 % -0.99 C
1934 28-04-2016 17:05:00 13.2 C 38 % -0.79 C
1935 28-04-2016 17:10:00 12.7 C 41 % -0.2 C
1936 28-04-2016 17:15:00 12.4 C 44 % 0.5 C
1937 28-04-2016 17:20:00 12.2 C 44 % 0.32 C
1938 28-04-2016 17:25:00 12 C 44 % 0.14 C
1939 28-04-2016 17:30:00 11.8 C 47 % 0.87 C
1940 28-04-2016 17:35:00 11.7 C 50 % 1.64 C
1941 28-04-2016 17:40:00 11.7 C 48 % 1.07 C
1942 28-04-2016 17:45:00 12.1 C 46 % 0.85 C
1943 28-04-2016 17:50:00 12.9 C 44 % 0.96 C
1944 28-04-2016 17:55:00 13.3 C 40 % 0 C
1945 28-04-2016 18:00:00 13.4 C 40 % 0.09 C
1946 28-04-2016 18:05:00 13.7 C 39 % 0.01 C
1947 28-04-2016 18:10:00 13.8 C 37 % -0.62 C
1948 28-04-2016 18:15:00 13.8 C 39 % 0.1 C
1949 28-04-2016 18:20:00 13.8 C 37 % -0.62 C
1950 28-04-2016 18:25:00 13.6 C 37 % -0.8 C
Sensor: Nr:Datum:Temp:Feuchte:Taupunkt:
Aussen-T/F 1951 28-04-2016 18:30:00 13.5 C 38 % -0.52 C
1952 28-04-2016 18:35:00 13.4 C 39 % -0.25 C
1953 28-04-2016 18:40:00 13.2 C 39 % -0.43 C
1954 28-04-2016 18:45:00 12.6 C 41 % -0.29 C
1955 28-04-2016 18:50:00 12.3 C 41 % -0.56 C
1956 28-04-2016 18:55:00 12.4 C 43 % 0.19 C
1957 28-04-2016 19:00:00 12.7 C 41 % -0.2 C
1958 28-04-2016 19:05:00 12.7 C 41 % -0.2 C
1959 28-04-2016 19:10:00 12.6 C 41 % -0.29 C
1960 28-04-2016 19:15:00 12.5 C 41 % -0.38 C
1961 28-04-2016 19:20:00 12.3 C 42 % -0.23 C
1962 28-04-2016 19:25:00 12.2 C 42 % -0.32 C
1963 28-04-2016 19:30:00 12 C 43 % -0.17 C
1964 28-04-2016 19:35:00 11.7 C 48 % 1.07 C
1965 28-04-2016 19:40:00 11.3 C 50 % 1.27 C
1966 28-04-2016 19:45:00 10.9 C 53 % 1.71 C
1967 28-04-2016 19:50:00 10.6 C 54 % 1.69 C
1968 28-04-2016 19:55:00 10.3 C 54 % 1.41 C
1969 28-04-2016 20:00:00 9.9 C 55 % 1.3 C
1970 28-04-2016 20:05:00 9.7 C 57 % 1.61 C
1971 28-04-2016 20:10:00 9.4 C 60 % 2.04 C
1972 28-04-2016 20:15:00 9.2 C 61 % 2.08 C
1973 28-04-2016 20:20:00 8.9 C 62 % 2.03 C
1974 28-04-2016 20:25:00 8.7 C 63 % 2.06 C
1975 28-04-2016 20:30:00 8.5 C 66 % 2.52 C
Sensor: Nr:Datum:Temp:Feuchte:Taupunkt:
Aussen-T/F 1976 28-04-2016 20:35:00 8.2 C 67 % 2.45 C
1977 28-04-2016 20:40:00 7.9 C 69 % 2.57 C
1978 28-04-2016 20:45:00 7.7 C 70 % 2.58 C
1979 28-04-2016 20:50:00 7.5 C 70 % 2.39 C
1980 28-04-2016 20:55:00 7.3 C 72 % 2.6 C
1981 28-04-2016 21:00:00 7.2 C 71 % 2.3 C
1982 28-04-2016 21:05:00 7.2 C 70 % 2.11 C
1983 28-04-2016 21:10:00 7.4 C 71 % 2.5 C
1984 28-04-2016 21:15:00 7.4 C 71 % 2.5 C
1985 28-04-2016 21:20:00 7.4 C 72 % 2.69 C
1986 28-04-2016 21:25:00 7.4 C 73 % 2.89 C
1987 28-04-2016 21:30:00 7.3 C 72 % 2.6 C
1988 28-04-2016 21:35:00 7.2 C 73 % 2.69 C
1989 28-04-2016 21:40:00 7.1 C 73 % 2.6 C
1990 28-04-2016 21:45:00 6.9 C 74 % 2.6 C
1991 28-04-2016 21:50:00 6.8 C 75 % 2.69 C
1992 28-04-2016 21:55:00 6.7 C 76 % 2.78 C
1993 28-04-2016 22:00:00 6.7 C 77 % 2.96 C
1994 28-04-2016 22:05:00 6.7 C 78 % 3.14 C
1995 28-04-2016 22:10:00 6.6 C 78 % 3.05 C
1996 28-04-2016 22:15:00 6.6 C 78 % 3.05 C
1997 28-04-2016 22:20:00 6.6 C 78 % 3.05 C
1998 28-04-2016 22:25:00 6.5 C 78 % 2.95 C
1999 28-04-2016 22:30:00 6.4 C 78 % 2.85 C
2000 28-04-2016 22:35:00 6.4 C 78 % 2.85 C
Sensor: Nr:Datum:Temp:Feuchte:Taupunkt:
Aussen-T/F 2001 28-04-2016 22:40:00 6.3 C 79 % 2.93 C
2002 28-04-2016 22:45:00 6.1 C 79 % 2.74 C
2003 28-04-2016 22:50:00 5.9 C 79 % 2.54 C
2004 28-04-2016 22:55:00 5.7 C 80 % 2.53 C
2005 28-04-2016 23:00:00 5.5 C 80 % 2.33 C
2006 28-04-2016 23:05:00 5.3 C 80 % 2.14 C
2007 28-04-2016 23:10:00 5.2 C 81 % 2.21 C
2008 28-04-2016 23:15:00 5 C 82 % 2.19 C
2009 28-04-2016 23:20:00 4.9 C 82 % 2.09 C
2010 28-04-2016 23:25:00 5 C 83 % 2.36 C
2011 28-04-2016 23:30:00 5 C 84 % 2.53 C
2012 28-04-2016 23:35:00 5.1 C 83 % 2.46 C
2013 28-04-2016 23:40:00 5.1 C 84 % 2.63 C
2014 28-04-2016 23:45:00 5.2 C 84 % 2.72 C
2015 28-04-2016 23:50:00 5.2 C 84 % 2.72 C
2016 28-04-2016 23:55:00 5.1 C 84 % 2.63 C
2017 29-04-2016 00:00:00 5.2 C 84 % 2.72 C
2018 29-04-2016 00:05:00 5.1 C 83 % 2.46 C
2019 29-04-2016 00:10:00 4.9 C 83 % 2.26 C
2020 29-04-2016 00:15:00 4.7 C 83 % 2.07 C
2021 29-04-2016 00:20:00 4.4 C 83 % 1.77 C
2022 29-04-2016 00:25:00 4.2 C 83 % 1.58 C
2023 29-04-2016 00:30:00 4.1 C 84 % 1.65 C
2024 29-04-2016 00:35:00 3.9 C 84 % 1.45 C
2025 29-04-2016 00:40:00 3.9 C 84 % 1.45 C
Sensor: Nr:Datum:Temp:Feuchte:Taupunkt:
Aussen-T/F 2026 29-04-2016 00:45:00 3.8 C 84 % 1.35 C
2027 29-04-2016 00:50:00 3.7 C 84 % 1.25 C
2028 29-04-2016 00:55:00 3.6 C 85 % 1.32 C
2029 29-04-2016 01:00:00 3.5 C 85 % 1.22 C
2030 29-04-2016 01:05:00 3.4 C 86 % 1.29 C
2031 29-04-2016 01:10:00 3.3 C 86 % 1.19 C
2032 29-04-2016 01:15:00 3.3 C 87 % 1.35 C
2033 29-04-2016 01:20:00 3.3 C 86 % 1.19 C
2034 29-04-2016 01:25:00 3.2 C 87 % 1.25 C
2035 29-04-2016 01:30:00 3.2 C 87 % 1.25 C
2036 29-04-2016 01:35:00 3.1 C 87 % 1.15 C
2037 29-04-2016 01:40:00 3 C 87 % 1.05 C
2038 29-04-2016 01:45:00 2.9 C 87 % 0.96 C
2039 29-04-2016 01:50:00 2.8 C 87 % 0.86 C
2040 29-04-2016 01:55:00 2.7 C 87 % 0.76 C
2041 29-04-2016 02:00:00 2.6 C 88 % 0.82 C
2042 29-04-2016 02:05:00 2.5 C 88 % 0.72 C
2043 29-04-2016 02:10:00 2.4 C 88 % 0.62 C
2044 29-04-2016 02:15:00 2.3 C 88 % 0.52 C
2045 29-04-2016 02:20:00 2.2 C 89 % 0.58 C
2046 29-04-2016 02:25:00 2.1 C 89 % 0.48 C
2047 29-04-2016 02:30:00 2.1 C 89 % 0.48 C
2048 29-04-2016 02:35:00 1.9 C 89 % 0.28 C
2049 29-04-2016 02:40:00 1.8 C 89 % 0.19 C
2050 29-04-2016 02:45:00 1.8 C 90 % 0.34 C
Sensor: Nr:Datum:Temp:Feuchte:Taupunkt:
Aussen-T/F 2051 29-04-2016 02:50:00 1.8 C 90 % 0.34 C
2052 29-04-2016 02:55:00 1.8 C 90 % 0.34 C
2053 29-04-2016 03:00:00 1.8 C 90 % 0.34 C
2054 29-04-2016 03:05:00 1.8 C 90 % 0.34 C
2055 29-04-2016 03:10:00 1.7 C 90 % 0.24 C
2056 29-04-2016 03:15:00 1.7 C 90 % 0.24 C
2057 29-04-2016 03:20:00 1.6 C 90 % 0.14 C
2058 29-04-2016 03:25:00 1.6 C 90 % 0.14 C
2059 29-04-2016 03:30:00 1.6 C 91 % 0.29 C
2060 29-04-2016 03:35:00 1.6 C 91 % 0.29 C
2061 29-04-2016 03:40:00 1.6 C 91 % 0.29 C
2062 29-04-2016 03:45:00 1.6 C 91 % 0.29 C
2063 29-04-2016 03:50:00 1.6 C 91 % 0.29 C
2064 29-04-2016 03:55:00 1.6 C 92 % 0.44 C
2065 29-04-2016 04:00:00 1.6 C 92 % 0.44 C
2066 29-04-2016 04:05:00 1.6 C 91 % 0.29 C
2067 29-04-2016 04:10:00 1.6 C 92 % 0.44 C
2068 29-04-2016 04:15:00 1.6 C 92 % 0.44 C
2069 29-04-2016 04:20:00 1.6 C 92 % 0.44 C
2070 29-04-2016 04:25:00 1.6 C 92 % 0.44 C
2071 29-04-2016 04:30:00 1.6 C 92 % 0.44 C
2072 29-04-2016 04:35:00 1.5 C 92 % 0.35 C
2073 29-04-2016 04:40:00 1.5 C 92 % 0.35 C
2074 29-04-2016 04:45:00 1.4 C 92 % 0.25 C
2075 29-04-2016 04:50:00 1.5 C 92 % 0.35 C
Sensor: Nr:Datum:Temp:Feuchte:Taupunkt:
Aussen-T/F 2076 29-04-2016 04:55:00 1.6 C 92 % 0.44 C
2077 29-04-2016 05:00:00 1.6 C 92 % 0.44 C
2078 29-04-2016 05:05:00 1.6 C 92 % 0.44 C
2079 29-04-2016 05:10:00 1.6 C 92 % 0.44 C
2080 29-04-2016 05:15:00 1.5 C 92 % 0.35 C
2081 29-04-2016 05:20:00 1.5 C 92 % 0.35 C
2082 29-04-2016 05:25:00 1.6 C 92 % 0.44 C
2083 29-04-2016 05:30:00 1.6 C 92 % 0.44 C
2084 29-04-2016 05:35:00 1.7 C 93 % 0.69 C
2085 29-04-2016 05:40:00 1.7 C 93 % 0.69 C
2086 29-04-2016 05:45:00 1.7 C 93 % 0.69 C
2087 29-04-2016 05:50:00 1.7 C 93 % 0.69 C
2088 29-04-2016 05:55:00 1.8 C 93 % 0.79 C
2089 29-04-2016 06:00:00 1.8 C 93 % 0.79 C
2090 29-04-2016 06:05:00 1.8 C 93 % 0.79 C
2091 29-04-2016 06:10:00 1.8 C 93 % 0.79 C
2092 29-04-2016 06:15:00 1.8 C 93 % 0.79 C
2093 29-04-2016 06:20:00 1.8 C 93 % 0.79 C
2094 29-04-2016 06:25:00 1.9 C 93 % 0.89 C
2095 29-04-2016 06:30:00 1.9 C 93 % 0.89 C
2096 29-04-2016 06:35:00 1.9 C 93 % 0.89 C
2097 29-04-2016 06:40:00 2 C 93 % 0.99 C
2098 29-04-2016 06:45:00 2.1 C 93 % 1.09 C
2099 29-04-2016 06:50:00 2.2 C 93 % 1.19 C
2100 29-04-2016 06:55:00 2.2 C 93 % 1.19 C
Sensor: Nr:Datum:Temp:Feuchte:Taupunkt:
Aussen-T/F 2101 29-04-2016 07:00:00 2.3 C 93 % 1.29 C
2102 29-04-2016 07:05:00 2.4 C 93 % 1.39 C
2103 29-04-2016 07:10:00 2.5 C 93 % 1.49 C
2104 29-04-2016 07:15:00 2.6 C 93 % 1.59 C
2105 29-04-2016 07:20:00 2.7 C 93 % 1.68 C
2106 29-04-2016 07:25:00 2.8 C 92 % 1.63 C
2107 29-04-2016 07:30:00 2.9 C 92 % 1.73 C
2108 29-04-2016 07:35:00 2.9 C 92 % 1.73 C
2109 29-04-2016 07:40:00 3.1 C 92 % 1.93 C
2110 29-04-2016 07:45:00 3.2 C 92 % 2.03 C
2111 29-04-2016 07:50:00 3.3 C 92 % 2.13 C
2112 29-04-2016 07:55:00 3.4 C 92 % 2.23 C
2113 29-04-2016 08:00:00 3.6 C 92 % 2.42 C
2114 29-04-2016 08:05:00 3.7 C 91 % 2.37 C
2115 29-04-2016 08:10:00 3.8 C 91 % 2.47 C
2116 29-04-2016 08:15:00 3.9 C 90 % 2.41 C
2117 29-04-2016 08:20:00 4.1 C 89 % 2.45 C
2118 29-04-2016 08:25:00 4.2 C 88 % 2.39 C
2119 29-04-2016 08:30:00 4.3 C 88 % 2.49 C
2120 29-04-2016 08:35:00 4.4 C 87 % 2.43 C
2121 29-04-2016 08:40:00 4.6 C 87 % 2.63 C
2122 29-04-2016 08:45:00 4.7 C 86 % 2.56 C
2123 29-04-2016 08:50:00 4.8 C 86 % 2.66 C
2124 29-04-2016 08:55:00 4.9 C 85 % 2.6 C
2125 29-04-2016 09:00:00 5 C 85 % 2.69 C
Sensor: Nr:Datum:Temp:Feuchte:Taupunkt:
Aussen-T/F 2126 29-04-2016 09:05:00 5.1 C 84 % 2.63 C
2127 29-04-2016 09:10:00 5.3 C 84 % 2.82 C
2128 29-04-2016 09:15:00 5.4 C 83 % 2.75 C
2129 29-04-2016 09:20:00 5.6 C 83 % 2.95 C
2130 29-04-2016 09:25:00 5.8 C 82 % 2.97 C
2131 29-04-2016 09:30:00 5.9 C 81 % 2.9 C
2132 29-04-2016 09:35:00 6.2 C 81 % 3.19 C
2133 29-04-2016 09:40:00 6.4 C 80 % 3.21 C
2134 29-04-2016 09:45:00 6.7 C 81 % 3.68 C
2135 29-04-2016 09:50:00 6.9 C 79 % 3.52 C
2136 29-04-2016 09:55:00 7.1 C 79 % 3.71 C
2137 29-04-2016 10:00:00 7.3 C 79 % 3.91 C
2138 29-04-2016 10:05:00 7.4 C 77 % 3.64 C
2139 29-04-2016 10:10:00 7.6 C 78 % 4.02 C
2140 29-04-2016 10:15:00 7.7 C 79 % 4.3 C
2141 29-04-2016 10:20:00 7.7 C 78 % 4.11 C
2142 29-04-2016 10:25:00 7.9 C 77 % 4.12 C
2143 29-04-2016 10:30:00 8.2 C 79 % 4.78 C
2144 29-04-2016 10:35:00 8.5 C 71 % 3.55 C
2145 29-04-2016 10:40:00 9.2 C 67 % 3.4 C
2146 29-04-2016 10:45:00 9.9 C 61 % 2.74 C
2147 29-04-2016 10:50:00 10.3 C 59 % 2.65 C
2148 29-04-2016 10:55:00 10.6 C 60 % 3.17 C
2149 29-04-2016 11:00:00 10.9 C 56 % 2.48 C
2150 29-04-2016 11:05:00 11.1 C 55 % 2.41 C
Sensor: Nr:Datum:Temp:Feuchte:Taupunkt:
Aussen-T/F 2151 29-04-2016 11:10:00 11.2 C 54 % 2.25 C
2152 29-04-2016 11:15:00 11.3 C 55 % 2.6 C
2153 29-04-2016 11:20:00 11.3 C 51 % 1.54 C
2154 29-04-2016 11:25:00 11.3 C 53 % 2.08 C
2155 29-04-2016 11:30:00 11.3 C 51 % 1.54 C
2156 29-04-2016 11:35:00 11.3 C 52 % 1.81 C
2157 29-04-2016 11:40:00 11.3 C 50 % 1.27 C
2158 29-04-2016 11:45:00 11.3 C 49 % 0.99 C
2159 29-04-2016 11:50:00 11.3 C 49 % 0.99 C
2160 29-04-2016 11:55:00 11.4 C 49 % 1.08 C
2161 29-04-2016 12:00:00 11.4 C 48 % 0.79 C
2162 29-04-2016 12:05:00 11.4 C 47 % 0.5 C
2163 29-04-2016 12:10:00 11.7 C 49 % 1.36 C
2164 29-04-2016 12:15:00 11.9 C 46 % 0.66 C
2165 29-04-2016 12:20:00 12 C 47 % 1.05 C
2166 29-04-2016 12:25:00 11.8 C 46 % 0.57 C
2167 29-04-2016 12:30:00 11.8 C 47 % 0.87 C
2168 29-04-2016 12:35:00 11.8 C 48 % 1.16 C
2169 29-04-2016 12:40:00 11.9 C 46 % 0.66 C
2170 29-04-2016 12:45:00 12 C 46 % 0.75 C
2171 29-04-2016 12:50:00 12.2 C 46 % 0.94 C
2172 29-04-2016 12:55:00 12.4 C 45 % 0.81 C
2173 29-04-2016 13:00:00 12.7 C 45 % 1.09 C
2174 29-04-2016 13:05:00 12.8 C 44 % 0.87 C
2175 29-04-2016 13:10:00 12.9 C 44 % 0.96 C
Sensor: Nr:Datum:Temp:Feuchte:Taupunkt:
Aussen-T/F 2176 29-04-2016 13:15:00 12.9 C 42 % 0.31 C
2177 29-04-2016 13:20:00 12.9 C 43 % 0.64 C
2178 29-04-2016 13:25:00 13.2 C 44 % 1.23 C
2179 29-04-2016 13:30:00 13.2 C 43 % 0.91 C
2180 29-04-2016 13:35:00 13.1 C 43 % 0.82 C
2181 29-04-2016 13:40:00 13.1 C 44 % 1.14 C
2182 29-04-2016 13:45:00 13.1 C 43 % 0.82 C
2183 29-04-2016 13:50:00 12.9 C 44 % 0.96 C
2184 29-04-2016 13:55:00 13 C 43 % 0.73 C
2185 29-04-2016 14:00:00 13 C 43 % 0.73 C
2186 29-04-2016 14:05:00 13 C 45 % 1.36 C
2187 29-04-2016 14:10:00 13.1 C 44 % 1.14 C
2188 29-04-2016 14:15:00 13.1 C 43 % 0.82 C
2189 29-04-2016 14:20:00 13.2 C 45 % 1.54 C
2190 29-04-2016 14:25:00 13.2 C 42 % 0.59 C
2191 29-04-2016 14:30:00 13.1 C 43 % 0.82 C
2192 29-04-2016 14:35:00 13 C 44 % 1.05 C
2193 29-04-2016 14:40:00 13 C 44 % 1.05 C
2194 29-04-2016 14:45:00 13.1 C 44 % 1.14 C
2195 29-04-2016 14:50:00 13.1 C 46 % 1.76 C
2196 29-04-2016 14:55:00 13.2 C 43 % 0.91 C
2197 29-04-2016 15:00:00 13.3 C 44 % 1.32 C
2198 29-04-2016 15:05:00 13.4 C 45 % 1.72 C
2199 29-04-2016 15:10:00 13.4 C 44 % 1.41 C
2200 29-04-2016 15:15:00 13.5 C 44 % 1.5 C
Sensor: Nr:Datum:Temp:Feuchte:Taupunkt:
Aussen-T/F 2201 29-04-2016 15:20:00 13.5 C 43 % 1.18 C
2202 29-04-2016 15:25:00 13.3 C 43 % 1 C
2203 29-04-2016 15:30:00 13.2 C 46 % 1.85 C
2204 29-04-2016 15:35:00 13.2 C 45 % 1.54 C
2205 29-04-2016 15:40:00 13.1 C 45 % 1.45 C
2206 29-04-2016 15:45:00 13.1 C 47 % 2.06 C
2207 29-04-2016 15:50:00 13 C 46 % 1.67 C
2208 29-04-2016 15:55:00 13 C 46 % 1.67 C
2209 29-04-2016 16:00:00 13.1 C 46 % 1.76 C
2210 29-04-2016 16:05:00 13.2 C 45 % 1.54 C
2211 29-04-2016 16:10:00 13.3 C 44 % 1.32 C
2212 29-04-2016 16:15:00 13.3 C 45 % 1.63 C
2213 29-04-2016 16:20:00 13.3 C 45 % 1.63 C
2214 29-04-2016 16:25:00 13.4 C 45 % 1.72 C
2215 29-04-2016 16:30:00 13.5 C 44 % 1.5 C
2216 29-04-2016 16:35:00 13.5 C 45 % 1.81 C
2217 29-04-2016 16:40:00 13.4 C 44 % 1.41 C
2218 29-04-2016 16:45:00 13.4 C 43 % 1.09 C
2219 29-04-2016 16:50:00 13.3 C 44 % 1.32 C
2220 29-04-2016 16:55:00 13.3 C 45 % 1.63 C
2221 29-04-2016 17:00:00 13.4 C 45 % 1.72 C
2222 29-04-2016 17:05:00 13.6 C 46 % 2.21 C
2223 29-04-2016 17:10:00 13.7 C 45 % 2 C
2224 29-04-2016 17:15:00 13.7 C 44 % 1.68 C
2225 29-04-2016 17:20:00 13.7 C 44 % 1.68 C
Sensor: Nr:Datum:Temp:Feuchte:Taupunkt:
Aussen-T/F 2226 29-04-2016 17:25:00 13.6 C 44 % 1.59 C
2227 29-04-2016 17:30:00 13.6 C 44 % 1.59 C
2228 29-04-2016 17:35:00 13.6 C 44 % 1.59 C
2229 29-04-2016 17:40:00 13.6 C 44 % 1.59 C
2230 29-04-2016 17:45:00 13.6 C 45 % 1.91 C
2231 29-04-2016 17:50:00 13.6 C 45 % 1.91 C
2232 29-04-2016 17:55:00 13.9 C 47 % 2.79 C
2233 29-04-2016 18:00:00 14.3 C 44 % 2.23 C
2234 29-04-2016 18:05:00 14.7 C 43 % 2.27 C
2235 29-04-2016 18:10:00 15 C 43 % 2.54 C
2236 29-04-2016 18:15:00 15 C 43 % 2.54 C
2237 29-04-2016 18:20:00 15.2 C 42 % 2.39 C
2238 29-04-2016 18:25:00 15.3 C 41 % 2.14 C
2239 29-04-2016 18:30:00 15.1 C 42 % 2.3 C
2240 29-04-2016 18:35:00 15 C 41 % 1.87 C
2241 29-04-2016 18:40:00 15.1 C 41 % 1.96 C
2242 29-04-2016 18:45:00 15.2 C 42 % 2.39 C
2243 29-04-2016 18:50:00 15.1 C 42 % 2.3 C
2244 29-04-2016 18:55:00 14.8 C 42 % 2.03 C
2245 29-04-2016 19:00:00 14.6 C 43 % 2.18 C
2246 29-04-2016 19:05:00 14.4 C 43 % 2 C
2247 29-04-2016 19:10:00 14.2 C 44 % 2.14 C
2248 29-04-2016 19:15:00 14.1 C 45 % 2.36 C
2249 29-04-2016 19:20:00 13.9 C 46 % 2.49 C
2250 29-04-2016 19:25:00 13.7 C 45 % 2 C
Sensor: Nr:Datum:Temp:Feuchte:Taupunkt:
Aussen-T/F 2251 29-04-2016 19:30:00 13.5 C 46 % 2.12 C
2252 29-04-2016 19:35:00 13.3 C 48 % 2.54 C
2253 29-04-2016 19:40:00 13.1 C 48 % 2.35 C
2254 29-04-2016 19:45:00 12.8 C 49 % 2.37 C
2255 29-04-2016 19:50:00 12.7 C 52 % 3.11 C
2256 29-04-2016 19:55:00 12.5 C 53 % 3.19 C
2257 29-04-2016 20:00:00 12.3 C 56 % 3.79 C
2258 29-04-2016 20:05:00 12.1 C 57 % 3.85 C
2259 29-04-2016 20:10:00 11.8 C 58 % 3.82 C
2260 29-04-2016 20:15:00 11.5 C 60 % 4.02 C
2261 29-04-2016 20:20:00 11.3 C 61 % 4.06 C
2262 29-04-2016 20:25:00 11 C 62 % 4.01 C
2263 29-04-2016 20:30:00 10.7 C 62 % 3.73 C
2264 29-04-2016 20:35:00 10.4 C 64 % 3.89 C
2265 29-04-2016 20:40:00 10.2 C 65 % 3.92 C
2266 29-04-2016 20:45:00 9.9 C 64 % 3.42 C
2267 29-04-2016 20:50:00 9.7 C 66 % 3.67 C
2268 29-04-2016 20:55:00 9.5 C 67 % 3.69 C
2269 29-04-2016 21:00:00 9.3 C 67 % 3.5 C
2270 29-04-2016 21:05:00 9.2 C 69 % 3.82 C
2271 29-04-2016 21:10:00 8.9 C 70 % 3.74 C
2272 29-04-2016 21:15:00 8.8 C 70 % 3.64 C
2273 29-04-2016 21:20:00 8.6 C 71 % 3.65 C
2274 29-04-2016 21:25:00 8.4 C 72 % 3.65 C
2275 29-04-2016 21:30:00 8.3 C 72 % 3.56 C
Sensor: Nr:Datum:Temp:Feuchte:Taupunkt:
Aussen-T/F 2276 29-04-2016 21:35:00 8.2 C 72 % 3.46 C
2277 29-04-2016 21:40:00 8.1 C 73 % 3.56 C
2278 29-04-2016 21:45:00 7.9 C 74 % 3.56 C
2279 29-04-2016 21:50:00 7.8 C 74 % 3.46 C
2280 29-04-2016 21:55:00 7.7 C 74 % 3.37 C
2281 29-04-2016 22:00:00 7.7 C 74 % 3.37 C
2282 29-04-2016 22:05:00 7.7 C 75 % 3.56 C
2283 29-04-2016 22:10:00 7.6 C 75 % 3.46 C
2284 29-04-2016 22:15:00 7.6 C 75 % 3.46 C
2285 29-04-2016 22:20:00 7.5 C 76 % 3.55 C
2286 29-04-2016 22:25:00 7.4 C 76 % 3.45 C
2287 29-04-2016 22:30:00 7.4 C 76 % 3.45 C
2288 29-04-2016 22:35:00 7.3 C 76 % 3.36 C
2289 29-04-2016 22:40:00 7.2 C 76 % 3.26 C
2290 29-04-2016 22:45:00 7.2 C 76 % 3.26 C
2291 29-04-2016 22:50:00 7.1 C 76 % 3.16 C
2292 29-04-2016 22:55:00 7.1 C 77 % 3.35 C
2293 29-04-2016 23:00:00 7 C 76 % 3.07 C
2294 29-04-2016 23:05:00 6.9 C 77 % 3.16 C
2295 29-04-2016 23:10:00 6.9 C 77 % 3.16 C
2296 29-04-2016 23:15:00 6.8 C 77 % 3.06 C
2297 29-04-2016 23:20:00 6.7 C 78 % 3.14 C
2298 29-04-2016 23:25:00 6.7 C 78 % 3.14 C
2299 29-04-2016 23:30:00 6.6 C 78 % 3.05 C
2300 29-04-2016 23:35:00 6.5 C 79 % 3.13 C
Sensor: Nr:Datum:Temp:Feuchte:Taupunkt:
Aussen-T/F 2301 29-04-2016 23:40:00 6.4 C 79 % 3.03 C
2302 29-04-2016 23:45:00 6.3 C 80 % 3.11 C
2303 29-04-2016 23:50:00 6.2 C 80 % 3.01 C
2304 29-04-2016 23:55:00 6.2 C 81 % 3.19 C
2305 30-04-2016 00:00:00 6.1 C 82 % 3.26 C
2306 30-04-2016 00:05:00 6.1 C 82 % 3.26 C
2307 30-04-2016 00:10:00 6.1 C 82 % 3.26 C
2308 30-04-2016 00:15:00 6.1 C 82 % 3.26 C
2309 30-04-2016 00:20:00 6.2 C 81 % 3.19 C
2310 30-04-2016 00:25:00 6.3 C 81 % 3.29 C
2311 30-04-2016 00:30:00 6.3 C 81 % 3.29 C
2312 30-04-2016 00:35:00 6.4 C 81 % 3.38 C
2313 30-04-2016 00:40:00 6.5 C 79 % 3.13 C
2314 30-04-2016 00:45:00 6.6 C 79 % 3.23 C
2315 30-04-2016 00:50:00 6.6 C 78 % 3.05 C
2316 30-04-2016 00:55:00 6.6 C 79 % 3.23 C
2317 30-04-2016 01:00:00 6.6 C 79 % 3.23 C
2318 30-04-2016 01:05:00 6.4 C 79 % 3.03 C
2319 30-04-2016 01:10:00 6.2 C 80 % 3.01 C
2320 30-04-2016 01:15:00 6 C 81 % 2.99 C
2321 30-04-2016 01:20:00 5.9 C 81 % 2.9 C
2322 30-04-2016 01:25:00 5.8 C 82 % 2.97 C
2323 30-04-2016 01:30:00 5.7 C 82 % 2.87 C
2324 30-04-2016 01:35:00 5.7 C 82 % 2.87 C
2325 30-04-2016 01:40:00 5.6 C 82 % 2.78 C
Sensor: Nr:Datum:Temp:Feuchte:Taupunkt:
Aussen-T/F 2326 30-04-2016 01:45:00 5.6 C 82 % 2.78 C
2327 30-04-2016 01:50:00 5.6 C 82 % 2.78 C
2328 30-04-2016 01:55:00 5.5 C 82 % 2.68 C
2329 30-04-2016 02:00:00 5.4 C 82 % 2.58 C
2330 30-04-2016 02:05:00 5.4 C 82 % 2.58 C
2331 30-04-2016 02:10:00 5.3 C 82 % 2.48 C
2332 30-04-2016 02:15:00 5.3 C 83 % 2.65 C
2333 30-04-2016 02:20:00 5.3 C 83 % 2.65 C
2334 30-04-2016 02:25:00 5.2 C 83 % 2.56 C
2335 30-04-2016 02:30:00 5.2 C 83 % 2.56 C
2336 30-04-2016 02:35:00 5.1 C 84 % 2.63 C
2337 30-04-2016 02:40:00 5.1 C 85 % 2.79 C
2338 30-04-2016 02:45:00 4.9 C 85 % 2.6 C
2339 30-04-2016 02:50:00 4.9 C 85 % 2.6 C
2340 30-04-2016 02:55:00 4.8 C 85 % 2.5 C
2341 30-04-2016 03:00:00 4.8 C 85 % 2.5 C
2342 30-04-2016 03:05:00 4.7 C 85 % 2.4 C
2343 30-04-2016 03:10:00 4.7 C 86 % 2.56 C
2344 30-04-2016 03:15:00 4.7 C 86 % 2.56 C
2345 30-04-2016 03:20:00 4.6 C 86 % 2.47 C
2346 30-04-2016 03:25:00 4.6 C 86 % 2.47 C
2347 30-04-2016 03:30:00 4.5 C 86 % 2.37 C
2348 30-04-2016 03:35:00 4.5 C 86 % 2.37 C
2349 30-04-2016 03:40:00 4.5 C 86 % 2.37 C
2350 30-04-2016 03:45:00 4.4 C 86 % 2.27 C
Sensor: Nr:Datum:Temp:Feuchte:Taupunkt:
Aussen-T/F 2351 30-04-2016 03:50:00 4.3 C 86 % 2.17 C
2352 30-04-2016 03:55:00 4.3 C 86 % 2.17 C
2353 30-04-2016 04:00:00 4.3 C 86 % 2.17 C
2354 30-04-2016 04:05:00 4.2 C 86 % 2.07 C
2355 30-04-2016 04:10:00 4.1 C 87 % 2.14 C
2356 30-04-2016 04:15:00 4.1 C 87 % 2.14 C
2357 30-04-2016 04:20:00 4 C 88 % 2.2 C
2358 30-04-2016 04:25:00 4 C 88 % 2.2 C
2359 30-04-2016 04:30:00 3.9 C 88 % 2.1 C
2360 30-04-2016 04:35:00 3.9 C 88 % 2.1 C
2361 30-04-2016 04:40:00 3.9 C 88 % 2.1 C
2362 30-04-2016 04:45:00 3.8 C 89 % 2.16 C
2363 30-04-2016 04:50:00 3.8 C 89 % 2.16 C
2364 30-04-2016 04:55:00 3.8 C 89 % 2.16 C
2365 30-04-2016 05:00:00 3.8 C 90 % 2.31 C
2366 30-04-2016 05:05:00 3.7 C 89 % 2.06 C
2367 30-04-2016 05:10:00 3.7 C 89 % 2.06 C
2368 30-04-2016 05:15:00 3.6 C 89 % 1.96 C
2369 30-04-2016 05:20:00 3.6 C 90 % 2.12 C
2370 30-04-2016 05:25:00 3.5 C 90 % 2.02 C
2371 30-04-2016 05:30:00 3.4 C 90 % 1.92 C
2372 30-04-2016 05:35:00 3.3 C 90 % 1.82 C
2373 30-04-2016 05:40:00 3.3 C 90 % 1.82 C
2374 30-04-2016 05:45:00 3.3 C 91 % 1.98 C
2375 30-04-2016 05:50:00 3.3 C 91 % 1.98 C
Sensor: Nr:Datum:Temp:Feuchte:Taupunkt:
Aussen-T/F 2376 30-04-2016 05:55:00 3.3 C 91 % 1.98 C
2377 30-04-2016 06:00:00 3.3 C 91 % 1.98 C
2378 30-04-2016 06:05:00 3.3 C 91 % 1.98 C
2379 30-04-2016 06:10:00 3.2 C 91 % 1.88 C
2380 30-04-2016 06:15:00 3.2 C 91 % 1.88 C
2381 30-04-2016 06:20:00 3.2 C 91 % 1.88 C
2382 30-04-2016 06:25:00 3.2 C 92 % 2.03 C
2383 30-04-2016 06:30:00 3.3 C 92 % 2.13 C
2384 30-04-2016 06:35:00 3.3 C 92 % 2.13 C
2385 30-04-2016 06:40:00 3.4 C 92 % 2.23 C
2386 30-04-2016 06:45:00 3.4 C 92 % 2.23 C
2387 30-04-2016 06:50:00 3.4 C 92 % 2.23 C
2388 30-04-2016 06:55:00 3.6 C 92 % 2.42 C
2389 30-04-2016 07:00:00 3.6 C 92 % 2.42 C
2390 30-04-2016 07:05:00 3.7 C 92 % 2.52 C
2391 30-04-2016 07:10:00 3.9 C 92 % 2.72 C
2392 30-04-2016 07:15:00 4.1 C 92 % 2.92 C
2393 30-04-2016 07:20:00 4.2 C 92 % 3.02 C
2394 30-04-2016 07:25:00 4.3 C 92 % 3.12 C
2395 30-04-2016 07:30:00 4.4 C 91 % 3.06 C
2396 30-04-2016 07:35:00 4.6 C 91 % 3.26 C
2397 30-04-2016 07:40:00 4.7 C 90 % 3.2 C
2398 30-04-2016 07:45:00 4.8 C 90 % 3.3 C
2399 30-04-2016 07:50:00 4.9 C 90 % 3.4 C
2400 30-04-2016 07:55:00 5.1 C 89 % 3.44 C
Sensor: Nr:Datum:Temp:Feuchte:Taupunkt:
Aussen-T/F 2401 30-04-2016 08:00:00 5.2 C 90 % 3.7 C
2402 30-04-2016 08:05:00 5.3 C 89 % 3.64 C
2403 30-04-2016 08:10:00 5.4 C 88 % 3.58 C
2404 30-04-2016 08:15:00 5.6 C 87 % 3.61 C
2405 30-04-2016 08:20:00 5.7 C 87 % 3.71 C
2406 30-04-2016 08:25:00 5.7 C 87 % 3.71 C
2407 30-04-2016 08:30:00 5.8 C 87 % 3.81 C
2408 30-04-2016 08:35:00 5.9 C 86 % 3.74 C
2409 30-04-2016 08:40:00 5.9 C 86 % 3.74 C
2410 30-04-2016 08:45:00 6 C 86 % 3.84 C
2411 30-04-2016 08:50:00 6.1 C 86 % 3.94 C
2412 30-04-2016 08:55:00 6.2 C 86 % 4.04 C
2413 30-04-2016 09:00:00 6.3 C 85 % 3.97 C
2414 30-04-2016 09:05:00 6.4 C 85 % 4.07 C
2415 30-04-2016 09:10:00 6.7 C 84 % 4.19 C
2416 30-04-2016 09:15:00 6.9 C 83 % 4.22 C
2417 30-04-2016 09:20:00 7.1 C 83 % 4.41 C
2418 30-04-2016 09:25:00 7.4 C 82 % 4.53 C
2419 30-04-2016 09:30:00 7.8 C 81 % 4.75 C
2420 30-04-2016 09:35:00 8.2 C 79 % 4.78 C
2421 30-04-2016 09:40:00 8.5 C 77 % 4.71 C
2422 30-04-2016 09:45:00 8.7 C 76 % 4.71 C
2423 30-04-2016 09:50:00 8.8 C 76 % 4.81 C
2424 30-04-2016 09:55:00 8.9 C 76 % 4.91 C
2425 30-04-2016 10:00:00 9.1 C 76 % 5.1 C
Sensor: Nr:Datum:Temp:Feuchte:Taupunkt:
Aussen-T/F 2426 30-04-2016 10:05:00 9.2 C 77 % 5.38 C
2427 30-04-2016 10:10:00 9.3 C 76 % 5.29 C
2428 30-04-2016 10:15:00 9.4 C 76 % 5.39 C
2429 30-04-2016 10:20:00 9.6 C 75 % 5.39 C
2430 30-04-2016 10:25:00 9.8 C 73 % 5.2 C
2431 30-04-2016 10:30:00 9.7 C 73 % 5.1 C
2432 30-04-2016 10:35:00 9.7 C 74 % 5.3 C
2433 30-04-2016 10:40:00 9.7 C 74 % 5.3 C
2434 30-04-2016 10:45:00 9.6 C 73 % 5.01 C
2435 30-04-2016 10:50:00 9.5 C 74 % 5.1 C
2436 30-04-2016 10:55:00 9.6 C 73 % 5.01 C
2437 30-04-2016 11:00:00 9.6 C 74 % 5.2 C
2438 30-04-2016 11:05:00 9.6 C 74 % 5.2 C
2439 30-04-2016 11:10:00 9.6 C 75 % 5.39 C
2440 30-04-2016 11:15:00 9.7 C 76 % 5.68 C
2441 30-04-2016 11:20:00 9.8 C 77 % 5.97 C
2442 30-04-2016 11:25:00 9.8 C 77 % 5.97 C
2443 30-04-2016 11:30:00 9.9 C 77 % 6.06 C
2444 30-04-2016 11:35:00 10.1 C 77 % 6.26 C
2445 30-04-2016 11:40:00 10.3 C 76 % 6.26 C
2446 30-04-2016 11:45:00 10.6 C 74 % 6.17 C
2447 30-04-2016 11:50:00 10.8 C 75 % 6.55 C
2448 30-04-2016 11:55:00 10.9 C 74 % 6.45 C
2449 30-04-2016 12:00:00 10.9 C 74 % 6.45 C
2450 30-04-2016 12:05:00 11 C 73 % 6.35 C
Sensor: Nr:Datum:Temp:Feuchte:Taupunkt:
Aussen-T/F 2451 30-04-2016 12:10:00 10.9 C 73 % 6.26 C
2452 30-04-2016 12:15:00 10.9 C 74 % 6.45 C
2453 30-04-2016 12:20:00 10.9 C 74 % 6.45 C
2454 30-04-2016 12:25:00 10.9 C 75 % 6.65 C
2455 30-04-2016 12:30:00 11.1 C 74 % 6.65 C
2456 30-04-2016 12:35:00 11.1 C 75 % 6.84 C
2457 30-04-2016 12:40:00 11.2 C 75 % 6.94 C
2458 30-04-2016 12:45:00 11.3 C 75 % 7.04 C
2459 30-04-2016 12:50:00 11.3 C 75 % 7.04 C
2460 30-04-2016 12:55:00 11.4 C 75 % 7.13 C
2461 30-04-2016 13:00:00 11.6 C 74 % 7.13 C
2462 30-04-2016 13:05:00 11.6 C 74 % 7.13 C
2463 30-04-2016 13:10:00 11.5 C 74 % 7.03 C
2464 30-04-2016 13:15:00 11.4 C 74 % 6.94 C
2465 30-04-2016 13:20:00 11.3 C 74 % 6.84 C
2466 30-04-2016 13:25:00 11.3 C 75 % 7.04 C
2467 30-04-2016 13:30:00 11.3 C 75 % 7.04 C
2468 30-04-2016 13:35:00 11.2 C 75 % 6.94 C
2469 30-04-2016 13:40:00 11.1 C 76 % 7.04 C
2470 30-04-2016 13:45:00 11.2 C 77 % 7.32 C
2471 30-04-2016 13:50:00 11.1 C 77 % 7.23 C
2472 30-04-2016 13:55:00 10.9 C 78 % 7.22 C
2473 30-04-2016 14:00:00 10.8 C 80 % 7.49 C
2474 30-04-2016 14:05:00 10.7 C 81 % 7.58 C
2475 30-04-2016 14:10:00 10.7 C 81 % 7.58 C
Sensor: Nr:Datum:Temp:Feuchte:Taupunkt:
Aussen-T/F 2476 30-04-2016 14:15:00 10.5 C 79 % 7.02 C
2477 30-04-2016 14:20:00 10.3 C 79 % 6.82 C
2478 30-04-2016 14:25:00 10.3 C 80 % 7.01 C
2479 30-04-2016 14:30:00 10.3 C 80 % 7.01 C
2480 30-04-2016 14:35:00 10.2 C 81 % 7.09 C
2481 30-04-2016 14:40:00 10.2 C 81 % 7.09 C
2482 30-04-2016 14:45:00 10.1 C 82 % 7.17 C
2483 30-04-2016 14:50:00 9.9 C 83 % 7.15 C
2484 30-04-2016 14:55:00 9.8 C 83 % 7.05 C
2485 30-04-2016 15:00:00 9.8 C 85 % 7.4 C
2486 30-04-2016 15:05:00 9.8 C 86 % 7.57 C
2487 30-04-2016 15:10:00 9.8 C 87 % 7.74 C
2488 30-04-2016 15:15:00 9.8 C 88 % 7.91 C
2489 30-04-2016 15:20:00 9.7 C 88 % 7.81 C
2490 30-04-2016 15:25:00 9.6 C 89 % 7.88 C
2491 30-04-2016 15:30:00 9.5 C 89 % 7.78 C
2492 30-04-2016 15:35:00 9.4 C 88 % 7.52 C
2493 30-04-2016 15:40:00 9.4 C 88 % 7.52 C
2494 30-04-2016 15:45:00 9.4 C 88 % 7.52 C
2495 30-04-2016 15:50:00 9.7 C 89 % 7.98 C
2496 30-04-2016 15:55:00 9.8 C 89 % 8.08 C
2497 30-04-2016 16:00:00 9.9 C 87 % 7.84 C
2498 30-04-2016 16:05:00 10 C 88 % 8.11 C
2499 30-04-2016 16:10:00 10.1 C 88 % 8.21 C
2500 30-04-2016 16:15:00 10.3 C 89 % 8.57 C
Sensor: Nr:Datum:Temp:Feuchte:Taupunkt:
Aussen-T/F 2501 30-04-2016 16:20:00 10.4 C 86 % 8.16 C
2502 30-04-2016 16:25:00 10.6 C 86 % 8.36 C
2503 30-04-2016 16:30:00 10.7 C 85 % 8.28 C
2504 30-04-2016 16:35:00 10.6 C 84 % 8.01 C
2505 30-04-2016 16:40:00 10.6 C 83 % 7.84 C
2506 30-04-2016 16:45:00 10.7 C 84 % 8.11 C
2507 30-04-2016 16:50:00 10.6 C 83 % 7.84 C
2508 30-04-2016 16:55:00 10.5 C 84 % 7.91 C
2509 30-04-2016 17:00:00 10.4 C 82 % 7.46 C
2510 30-04-2016 17:05:00 10.4 C 84 % 7.82 C
2511 30-04-2016 17:10:00 10.4 C 84 % 7.82 C
2512 30-04-2016 17:15:00 10.3 C 82 % 7.37 C
2513 30-04-2016 17:20:00 10.2 C 82 % 7.27 C
2514 30-04-2016 17:25:00 10.2 C 81 % 7.09 C
2515 30-04-2016 17:30:00 10.2 C 83 % 7.45 C
2516 30-04-2016 17:35:00 10.1 C 82 % 7.17 C
2517 30-04-2016 17:40:00 10.2 C 82 % 7.27 C
2518 30-04-2016 17:45:00 10.2 C 81 % 7.09 C
2519 30-04-2016 17:50:00 10.2 C 81 % 7.09 C
2520 30-04-2016 17:55:00 10.2 C 80 % 6.91 C
2521 30-04-2016 18:00:00 10.2 C 80 % 6.91 C
2522 30-04-2016 18:05:00 10.1 C 80 % 6.81 C
2523 30-04-2016 18:10:00 10.2 C 80 % 6.91 C
2524 30-04-2016 18:15:00 10.2 C 80 % 6.91 C
2525 30-04-2016 18:20:00 10.1 C 79 % 6.63 C
Sensor: Nr:Datum:Temp:Feuchte:Taupunkt:
Aussen-T/F 2526 30-04-2016 18:25:00 10.1 C 78 % 6.44 C
2527 30-04-2016 18:30:00 10.1 C 77 % 6.26 C
2528 30-04-2016 18:35:00 10.1 C 76 % 6.07 C
2529 30-04-2016 18:40:00 10 C 76 % 5.97 C
2530 30-04-2016 18:45:00 9.9 C 76 % 5.87 C
2531 30-04-2016 18:50:00 9.9 C 76 % 5.87 C
2532 30-04-2016 18:55:00 9.8 C 76 % 5.78 C
2533 30-04-2016 19:00:00 9.8 C 77 % 5.97 C
2534 30-04-2016 19:05:00 9.7 C 77 % 5.87 C
2535 30-04-2016 19:10:00 9.7 C 78 % 6.06 C
2536 30-04-2016 19:15:00 9.6 C 78 % 5.96 C
2537 30-04-2016 19:20:00 9.4 C 79 % 5.95 C
2538 30-04-2016 19:25:00 9.4 C 79 % 5.95 C
2539 30-04-2016 19:30:00 9.3 C 79 % 5.85 C
2540 30-04-2016 19:35:00 9.2 C 80 % 5.94 C
2541 30-04-2016 19:40:00 9.2 C 79 % 5.75 C
2542 30-04-2016 19:45:00 9.2 C 80 % 5.94 C
2543 30-04-2016 19:50:00 9.2 C 79 % 5.75 C
2544 30-04-2016 19:55:00 9.2 C 80 % 5.94 C
2545 30-04-2016 20:00:00 9.1 C 80 % 5.84 C
2546 30-04-2016 20:05:00 9.1 C 80 % 5.84 C
2547 30-04-2016 20:10:00 9.1 C 80 % 5.84 C
2548 30-04-2016 20:15:00 9.1 C 80 % 5.84 C
2549 30-04-2016 20:20:00 9 C 81 % 5.92 C
2550 30-04-2016 20:25:00 9 C 81 % 5.92 C
Sensor: Nr:Datum:Temp:Feuchte:Taupunkt:
Aussen-T/F 2551 30-04-2016 20:30:00 8.9 C 81 % 5.82 C
2552 30-04-2016 20:35:00 8.9 C 81 % 5.82 C
2553 30-04-2016 20:40:00 8.8 C 82 % 5.9 C
2554 30-04-2016 20:45:00 8.8 C 82 % 5.9 C
2555 30-04-2016 20:50:00 8.8 C 83 % 6.08 C
2556 30-04-2016 20:55:00 8.7 C 83 % 5.98 C
2557 30-04-2016 21:00:00 8.6 C 83 % 5.88 C
2558 30-04-2016 21:05:00 8.6 C 84 % 6.05 C
2559 30-04-2016 21:10:00 8.5 C 84 % 5.96 C
2560 30-04-2016 21:15:00 8.4 C 84 % 5.86 C
2561 30-04-2016 21:20:00 8.4 C 85 % 6.03 C
2562 30-04-2016 21:25:00 8.4 C 85 % 6.03 C
2563 30-04-2016 21:30:00 8.4 C 85 % 6.03 C
2564 30-04-2016 21:35:00 8.3 C 85 % 5.93 C
2565 30-04-2016 21:40:00 8.3 C 86 % 6.1 C
2566 30-04-2016 21:45:00 8.3 C 86 % 6.1 C
2567 30-04-2016 21:50:00 8.2 C 87 % 6.17 C
2568 30-04-2016 21:55:00 8.2 C 88 % 6.33 C
2569 30-04-2016 22:00:00 8.1 C 88 % 6.24 C
2570 30-04-2016 22:05:00 8 C 89 % 6.3 C
2571 30-04-2016 22:10:00 7.9 C 89 % 6.2 C
2572 30-04-2016 22:15:00 7.8 C 90 % 6.27 C
2573 30-04-2016 22:20:00 7.8 C 90 % 6.27 C
2574 30-04-2016 22:25:00 7.7 C 90 % 6.17 C
2575 30-04-2016 22:30:00 7.7 C 90 % 6.17 C
Sensor: Nr:Datum:Temp:Feuchte:Taupunkt:
Aussen-T/F 2576 30-04-2016 22:35:00 7.6 C 91 % 6.23 C
2577 30-04-2016 22:40:00 7.6 C 91 % 6.23 C
2578 30-04-2016 22:45:00 7.6 C 91 % 6.23 C
2579 30-04-2016 22:50:00 7.6 C 91 % 6.23 C
2580 30-04-2016 22:55:00 7.4 C 91 % 6.03 C
2581 30-04-2016 23:00:00 7.4 C 92 % 6.19 C
2582 30-04-2016 23:05:00 7.4 C 92 % 6.19 C
2583 30-04-2016 23:10:00 7.4 C 92 % 6.19 C
2584 30-04-2016 23:15:00 7.4 C 92 % 6.19 C
2585 30-04-2016 23:20:00 7.3 C 93 % 6.25 C
2586 30-04-2016 23:25:00 7.3 C 93 % 6.25 C
2587 30-04-2016 23:30:00 7.3 C 93 % 6.25 C
2588 30-04-2016 23:35:00 7.3 C 93 % 6.25 C
2589 30-04-2016 23:40:00 7.3 C 93 % 6.25 C
2590 30-04-2016 23:45:00 7.3 C 93 % 6.25 C
2591 30-04-2016 23:50:00 7.2 C 93 % 6.15 C
2592 30-04-2016 23:55:00 7.2 C 93 % 6.15 C
2593 01-05-2016 00:00:00 7.2 C 93 % 6.15 C
2594 01-05-2016 00:05:00 7.2 C 92 % 5.99 C
2595 01-05-2016 00:10:00 7.2 C 92 % 5.99 C
2596 01-05-2016 00:15:00 7.2 C 92 % 5.99 C
2597 01-05-2016 00:20:00 7.1 C 91 % 5.73 C
2598 01-05-2016 00:25:00 7.2 C 91 % 5.83 C
2599 01-05-2016 00:30:00 7.2 C 91 % 5.83 C
2600 01-05-2016 00:35:00 7.1 C 91 % 5.73 C
Sensor: Nr:Datum:Temp:Feuchte:Taupunkt:
Aussen-T/F 2601 01-05-2016 00:40:00 7.1 C 91 % 5.73 C
2602 01-05-2016 00:45:00 7.1 C 91 % 5.73 C
2603 01-05-2016 00:50:00 7.1 C 91 % 5.73 C
2604 01-05-2016 00:55:00 7.1 C 91 % 5.73 C
2605 01-05-2016 01:00:00 7.1 C 91 % 5.73 C
2606 01-05-2016 01:05:00 7.1 C 91 % 5.73 C
2607 01-05-2016 01:10:00 7.1 C 91 % 5.73 C
2608 01-05-2016 01:15:00 7.1 C 91 % 5.73 C
2609 01-05-2016 01:20:00 7.1 C 91 % 5.73 C
2610 01-05-2016 01:25:00 7 C 91 % 5.63 C
2611 01-05-2016 01:30:00 7 C 91 % 5.63 C
2612 01-05-2016 01:35:00 7.1 C 91 % 5.73 C
2613 01-05-2016 01:40:00 7.1 C 91 % 5.73 C
2614 01-05-2016 01:45:00 7 C 91 % 5.63 C
2615 01-05-2016 01:50:00 7 C 91 % 5.63 C
2616 01-05-2016 01:55:00 7 C 92 % 5.79 C
2617 01-05-2016 02:00:00 6.9 C 92 % 5.69 C
2618 01-05-2016 02:05:00 6.9 C 92 % 5.69 C
2619 01-05-2016 02:10:00 6.9 C 92 % 5.69 C
2620 01-05-2016 02:15:00 6.8 C 93 % 5.75 C
2621 01-05-2016 02:20:00 6.8 C 93 % 5.75 C
2622 01-05-2016 02:25:00 6.8 C 93 % 5.75 C
2623 01-05-2016 02:30:00 6.7 C 93 % 5.65 C
2624 01-05-2016 02:35:00 6.7 C 93 % 5.65 C
2625 01-05-2016 02:40:00 6.7 C 93 % 5.65 C
Sensor: Nr:Datum:Temp:Feuchte:Taupunkt:
Aussen-T/F 2626 01-05-2016 02:45:00 6.7 C 93 % 5.65 C
2627 01-05-2016 02:50:00 6.7 C 94 % 5.8 C
2628 01-05-2016 02:55:00 6.7 C 94 % 5.8 C
2629 01-05-2016 03:00:00 6.6 C 94 % 5.71 C
2630 01-05-2016 03:05:00 6.6 C 94 % 5.71 C
2631 01-05-2016 03:10:00 6.6 C 94 % 5.71 C
2632 01-05-2016 03:15:00 6.6 C 94 % 5.71 C
2633 01-05-2016 03:20:00 6.6 C 94 % 5.71 C
2634 01-05-2016 03:25:00 6.6 C 94 % 5.71 C
2635 01-05-2016 03:30:00 6.6 C 94 % 5.71 C
2636 01-05-2016 03:35:00 6.6 C 94 % 5.71 C
2637 01-05-2016 03:40:00 6.6 C 94 % 5.71 C
2638 01-05-2016 03:45:00 6.6 C 94 % 5.71 C
2639 01-05-2016 03:50:00 6.6 C 94 % 5.71 C
2640 01-05-2016 03:55:00 6.6 C 95 % 5.86 C
2641 01-05-2016 04:00:00 6.6 C 95 % 5.86 C
2642 01-05-2016 04:05:00 6.6 C 95 % 5.86 C
2643 01-05-2016 04:10:00 6.6 C 95 % 5.86 C
2644 01-05-2016 04:15:00 6.5 C 95 % 5.76 C
2645 01-05-2016 04:20:00 6.5 C 95 % 5.76 C
2646 01-05-2016 04:25:00 6.5 C 95 % 5.76 C
2647 01-05-2016 04:30:00 6.5 C 95 % 5.76 C
2648 01-05-2016 04:35:00 6.5 C 95 % 5.76 C
2649 01-05-2016 04:40:00 6.5 C 95 % 5.76 C
2650 01-05-2016 04:45:00 6.5 C 95 % 5.76 C
Sensor: Nr:Datum:Temp:Feuchte:Taupunkt:
Aussen-T/F 2651 01-05-2016 04:50:00 6.5 C 95 % 5.76 C
2652 01-05-2016 04:55:00 6.5 C 95 % 5.76 C
2653 01-05-2016 05:00:00 6.5 C 95 % 5.76 C
2654 01-05-2016 05:05:00 6.5 C 94 % 5.61 C
2655 01-05-2016 05:10:00 6.5 C 95 % 5.76 C
2656 01-05-2016 05:15:00 6.5 C 94 % 5.61 C
2657 01-05-2016 05:20:00 6.5 C 95 % 5.76 C
2658 01-05-2016 05:25:00 6.5 C 94 % 5.61 C
2659 01-05-2016 05:30:00 6.5 C 94 % 5.61 C
2660 01-05-2016 05:35:00 6.5 C 94 % 5.61 C
2661 01-05-2016 05:40:00 6.5 C 94 % 5.61 C
2662 01-05-2016 05:45:00 6.5 C 94 % 5.61 C
2663 01-05-2016 05:50:00 6.5 C 94 % 5.61 C
2664 01-05-2016 05:55:00 6.5 C 94 % 5.61 C
2665 01-05-2016 06:00:00 6.4 C 93 % 5.35 C
2666 01-05-2016 06:05:00 6.4 C 93 % 5.35 C
2667 01-05-2016 06:10:00 6.4 C 93 % 5.35 C
2668 01-05-2016 06:15:00 6.4 C 93 % 5.35 C
2669 01-05-2016 06:20:00 6.4 C 93 % 5.35 C
2670 01-05-2016 06:25:00 6.4 C 93 % 5.35 C
2671 01-05-2016 06:30:00 6.3 C 93 % 5.25 C
2672 01-05-2016 06:35:00 6.3 C 93 % 5.25 C
2673 01-05-2016 06:40:00 6.3 C 93 % 5.25 C
2674 01-05-2016 06:45:00 6.3 C 92 % 5.1 C
2675 01-05-2016 06:50:00 6.3 C 92 % 5.1 C
Sensor: Nr:Datum:Temp:Feuchte:Taupunkt:
Aussen-T/F 2676 01-05-2016 06:55:00 6.3 C 92 % 5.1 C
2677 01-05-2016 07:00:00 6.3 C 92 % 5.1 C
2678 01-05-2016 07:05:00 6.3 C 92 % 5.1 C
2679 01-05-2016 07:10:00 6.3 C 92 % 5.1 C
2680 01-05-2016 07:15:00 6.3 C 92 % 5.1 C
2681 01-05-2016 07:20:00 6.3 C 92 % 5.1 C
2682 01-05-2016 07:25:00 6.2 C 91 % 4.84 C
2683 01-05-2016 07:30:00 6.3 C 91 % 4.94 C
2684 01-05-2016 07:35:00 6.3 C 91 % 4.94 C
2685 01-05-2016 07:40:00 6.3 C 92 % 5.1 C
2686 01-05-2016 07:45:00 6.3 C 92 % 5.1 C
2687 01-05-2016 07:50:00 6.3 C 92 % 5.1 C
2688 01-05-2016 07:55:00 6.3 C 92 % 5.1 C
2689 01-05-2016 08:00:00 6.3 C 92 % 5.1 C
2690 01-05-2016 08:05:00 6.3 C 92 % 5.1 C
2691 01-05-2016 08:10:00 6.3 C 92 % 5.1 C
2692 01-05-2016 08:15:00 6.3 C 91 % 4.94 C
2693 01-05-2016 08:20:00 6.3 C 91 % 4.94 C
2694 01-05-2016 08:25:00 6.3 C 91 % 4.94 C
2695 01-05-2016 08:30:00 6.3 C 91 % 4.94 C
2696 01-05-2016 08:35:00 6.4 C 91 % 5.04 C
2697 01-05-2016 08:40:00 6.4 C 91 % 5.04 C
2698 01-05-2016 08:45:00 6.5 C 91 % 5.14 C
2699 01-05-2016 08:50:00 6.6 C 91 % 5.24 C
2700 01-05-2016 08:55:00 6.6 C 91 % 5.24 C
Sensor: Nr:Datum:Temp:Feuchte:Taupunkt:
Aussen-T/F 2701 01-05-2016 09:00:00 6.6 C 91 % 5.24 C
2702 01-05-2016 09:05:00 6.6 C 91 % 5.24 C
2703 01-05-2016 09:10:00 6.7 C 91 % 5.34 C
2704 01-05-2016 09:15:00 6.7 C 91 % 5.34 C
2705 01-05-2016 09:20:00 6.7 C 90 % 5.18 C
2706 01-05-2016 09:25:00 6.8 C 90 % 5.28 C
2707 01-05-2016 09:30:00 6.8 C 90 % 5.28 C
2708 01-05-2016 09:35:00 6.9 C 90 % 5.38 C
2709 01-05-2016 09:40:00 6.9 C 89 % 5.22 C
2710 01-05-2016 09:45:00 7 C 90 % 5.48 C
2711 01-05-2016 09:50:00 7.1 C 89 % 5.41 C
2712 01-05-2016 09:55:00 7.1 C 89 % 5.41 C
2713 01-05-2016 10:00:00 7.2 C 90 % 5.67 C
2714 01-05-2016 10:05:00 7.2 C 89 % 5.51 C
2715 01-05-2016 10:10:00 7.3 C 89 % 5.61 C
2716 01-05-2016 10:15:00 7.3 C 89 % 5.61 C
2717 01-05-2016 10:20:00 7.4 C 89 % 5.71 C
2718 01-05-2016 10:25:00 7.4 C 88 % 5.55 C
2719 01-05-2016 10:30:00 7.5 C 88 % 5.64 C
2720 01-05-2016 10:35:00 7.6 C 88 % 5.74 C
2721 01-05-2016 10:40:00 7.6 C 88 % 5.74 C
2722 01-05-2016 10:45:00 7.7 C 88 % 5.84 C
2723 01-05-2016 10:50:00 7.7 C 88 % 5.84 C
2724 01-05-2016 10:55:00 7.8 C 88 % 5.94 C
2725 01-05-2016 11:00:00 7.9 C 88 % 6.04 C
Sensor: Nr:Datum:Temp:Feuchte:Taupunkt:
Aussen-T/F 2726 01-05-2016 11:05:00 8 C 88 % 6.14 C
2727 01-05-2016 11:10:00 8.1 C 88 % 6.24 C
2728 01-05-2016 11:15:00 8.2 C 88 % 6.33 C
2729 01-05-2016 11:20:00 8.3 C 88 % 6.43 C
2730 01-05-2016 11:25:00 8.4 C 88 % 6.53 C
2731 01-05-2016 11:30:00 8.6 C 88 % 6.73 C
2732 01-05-2016 11:35:00 8.8 C 87 % 6.76 C
2733 01-05-2016 11:40:00 8.9 C 87 % 6.86 C
2734 01-05-2016 11:45:00 9.1 C 86 % 6.89 C
2735 01-05-2016 11:50:00 9.2 C 86 % 6.98 C
2736 01-05-2016 11:55:00 9.3 C 86 % 7.08 C
2737 01-05-2016 12:00:00 9.3 C 86 % 7.08 C
2738 01-05-2016 12:05:00 9.4 C 86 % 7.18 C
2739 01-05-2016 12:10:00 9.4 C 86 % 7.18 C
2740 01-05-2016 12:15:00 9.4 C 86 % 7.18 C
2741 01-05-2016 12:20:00 9.5 C 86 % 7.28 C
2742 01-05-2016 12:25:00 9.6 C 86 % 7.38 C
2743 01-05-2016 12:30:00 9.8 C 87 % 7.74 C
2744 01-05-2016 12:35:00 9.9 C 86 % 7.67 C
2745 01-05-2016 12:40:00 10.1 C 86 % 7.87 C
2746 01-05-2016 12:45:00 10.3 C 86 % 8.06 C
2747 01-05-2016 12:50:00 10.4 C 84 % 7.82 C
2748 01-05-2016 12:55:00 10.6 C 84 % 8.01 C
2749 01-05-2016 13:00:00 10.7 C 83 % 7.93 C
2750 01-05-2016 13:05:00 10.9 C 83 % 8.13 C
Sensor: Nr:Datum:Temp:Feuchte:Taupunkt:
Aussen-T/F 2751 01-05-2016 13:10:00 11 C 82 % 8.05 C
2752 01-05-2016 13:15:00 11.1 C 82 % 8.15 C
2753 01-05-2016 13:20:00 11.1 C 82 % 8.15 C
2754 01-05-2016 13:25:00 11.2 C 82 % 8.25 C
2755 01-05-2016 13:30:00 11.3 C 81 % 8.16 C
2756 01-05-2016 13:35:00 11.4 C 80 % 8.08 C
2757 01-05-2016 13:40:00 11.6 C 81 % 8.45 C
2758 01-05-2016 13:45:00 11.7 C 81 % 8.55 C
2759 01-05-2016 13:50:00 11.9 C 81 % 8.75 C
2760 01-05-2016 13:55:00 12.2 C 79 % 8.67 C
2761 01-05-2016 14:00:00 12.4 C 79 % 8.86 C
2762 01-05-2016 14:05:00 12.8 C 76 % 8.68 C
2763 01-05-2016 14:10:00 13 C 77 % 9.07 C
2764 01-05-2016 14:15:00 13.2 C 74 % 8.67 C
2765 01-05-2016 14:20:00 13.2 C 74 % 8.67 C
2766 01-05-2016 14:25:00 13.2 C 74 % 8.67 C
2767 01-05-2016 14:30:00 13.2 C 73 % 8.47 C
2768 01-05-2016 14:35:00 13.2 C 73 % 8.47 C
2769 01-05-2016 14:40:00 13.5 C 72 % 8.56 C
2770 01-05-2016 14:45:00 13.8 C 70 % 8.43 C
2771 01-05-2016 14:50:00 13.9 C 68 % 8.1 C
2772 01-05-2016 14:55:00 14 C 68 % 8.19 C
2773 01-05-2016 15:00:00 14.1 C 68 % 8.29 C
2774 01-05-2016 15:05:00 14.2 C 69 % 8.6 C
2775 01-05-2016 15:10:00 14.3 C 69 % 8.7 C
Sensor: Nr:Datum:Temp:Feuchte:Taupunkt:
Aussen-T/F 2776 01-05-2016 15:15:00 14.3 C 68 % 8.48 C
2777 01-05-2016 15:20:00 14.3 C 69 % 8.7 C
2778 01-05-2016 15:25:00 14.5 C 66 % 8.23 C
2779 01-05-2016 15:30:00 14.4 C 67 % 8.36 C
2780 01-05-2016 15:35:00 14.5 C 66 % 8.23 C
2781 01-05-2016 15:40:00 14.6 C 67 % 8.55 C
2782 01-05-2016 15:45:00 14.9 C 66 % 8.61 C
2783 01-05-2016 15:50:00 15.1 C 66 % 8.8 C
2784 01-05-2016 15:55:00 15.3 C 66 % 8.99 C
2785 01-05-2016 16:00:00 15.3 C 66 % 8.99 C
2786 01-05-2016 16:05:00 15.2 C 63 % 8.21 C
2787 01-05-2016 16:10:00 15.1 C 64 % 8.35 C
2788 01-05-2016 16:15:00 15.1 C 65 % 8.58 C
2789 01-05-2016 16:20:00 15.1 C 64 % 8.35 C
2790 01-05-2016 16:25:00 15.3 C 64 % 8.54 C
2791 01-05-2016 16:30:00 15.3 C 64 % 8.54 C
2792 01-05-2016 16:35:00 15.4 C 63 % 8.4 C
2793 01-05-2016 16:40:00 15.5 C 63 % 8.49 C
2794 01-05-2016 16:45:00 15.7 C 64 % 8.92 C
2795 01-05-2016 16:50:00 15.6 C 62 % 8.35 C
2796 01-05-2016 16:55:00 15.6 C 62 % 8.35 C
2797 01-05-2016 17:00:00 15.6 C 63 % 8.59 C
2798 01-05-2016 17:05:00 15.6 C 62 % 8.35 C
2799 01-05-2016 17:10:00 15.7 C 62 % 8.45 C
2800 01-05-2016 17:15:00 16 C 62 % 8.73 C
Sensor: Nr:Datum:Temp:Feuchte:Taupunkt:
Aussen-T/F 2801 01-05-2016 17:20:00 16.1 C 60 % 8.34 C
2802 01-05-2016 17:25:00 15.9 C 59 % 7.91 C
2803 01-05-2016 17:30:00 15.8 C 60 % 8.06 C
2804 01-05-2016 17:35:00 15.7 C 61 % 8.21 C
2805 01-05-2016 17:40:00 15.8 C 62 % 8.54 C
2806 01-05-2016 17:45:00 15.8 C 61 % 8.3 C
2807 01-05-2016 17:50:00 15.8 C 61 % 8.3 C
2808 01-05-2016 17:55:00 15.8 C 61 % 8.3 C
2809 01-05-2016 18:00:00 15.8 C 60 % 8.06 C
2810 01-05-2016 18:05:00 15.7 C 61 % 8.21 C
2811 01-05-2016 18:10:00 15.7 C 60 % 7.97 C
2812 01-05-2016 18:15:00 15.7 C 60 % 7.97 C
2813 01-05-2016 18:20:00 15.6 C 61 % 8.11 C
2814 01-05-2016 18:25:00 15.7 C 61 % 8.21 C
2815 01-05-2016 18:30:00 15.8 C 61 % 8.3 C
2816 01-05-2016 18:35:00 15.9 C 60 % 8.15 C
2817 01-05-2016 18:40:00 16 C 60 % 8.25 C
2818 01-05-2016 18:45:00 16.3 C 60 % 8.53 C
2819 01-05-2016 18:50:00 16.6 C 59 % 8.56 C
2820 01-05-2016 18:55:00 16.8 C 60 % 9 C
2821 01-05-2016 19:00:00 17.1 C 59 % 9.03 C
2822 01-05-2016 19:05:00 17.2 C 58 % 8.87 C
2823 01-05-2016 19:10:00 16.8 C 57 % 8.24 C
2824 01-05-2016 19:15:00 16.5 C 58 % 8.22 C
2825 01-05-2016 19:20:00 16.3 C 57 % 7.77 C
Sensor: Nr:Datum:Temp:Feuchte:Taupunkt:
Aussen-T/F 2826 01-05-2016 19:25:00 16.3 C 58 % 8.03 C
2827 01-05-2016 19:30:00 16.3 C 57 % 7.77 C
2828 01-05-2016 19:35:00 16.2 C 58 % 7.94 C
2829 01-05-2016 19:40:00 16.1 C 59 % 8.09 C
2830 01-05-2016 19:45:00 16 C 59 % 8 C
2831 01-05-2016 19:50:00 15.9 C 60 % 8.15 C
2832 01-05-2016 19:55:00 15.8 C 59 % 7.81 C
2833 01-05-2016 20:00:00 15.7 C 59 % 7.72 C
2834 01-05-2016 20:05:00 15.6 C 61 % 8.11 C
2835 01-05-2016 20:10:00 15.4 C 61 % 7.93 C
2836 01-05-2016 20:15:00 15.3 C 62 % 8.07 C
2837 01-05-2016 20:20:00 15.2 C 62 % 7.98 C
2838 01-05-2016 20:25:00 15.1 C 62 % 7.88 C
2839 01-05-2016 20:30:00 14.8 C 63 % 7.83 C
2840 01-05-2016 20:35:00 14.6 C 65 % 8.1 C
2841 01-05-2016 20:40:00 14.3 C 66 % 8.04 C
2842 01-05-2016 20:45:00 13.9 C 69 % 8.31 C
2843 01-05-2016 20:50:00 13.6 C 70 % 8.24 C
2844 01-05-2016 20:55:00 13.2 C 72 % 8.27 C
2845 01-05-2016 21:00:00 12.8 C 75 % 8.48 C
2846 01-05-2016 21:05:00 12.3 C 76 % 8.2 C
2847 01-05-2016 21:10:00 12 C 77 % 8.1 C
2848 01-05-2016 21:15:00 11.7 C 79 % 8.18 C
2849 01-05-2016 21:20:00 11.5 C 79 % 7.99 C
2850 01-05-2016 21:25:00 11.4 C 78 % 7.71 C
Sensor: Nr:Datum:Temp:Feuchte:Taupunkt:
Aussen-T/F 2851 01-05-2016 21:30:00 11.4 C 79 % 7.89 C
2852 01-05-2016 21:35:00 11.6 C 78 % 7.9 C
2853 01-05-2016 21:40:00 11.6 C 79 % 8.09 C
2854 01-05-2016 21:45:00 11.5 C 78 % 7.8 C
2855 01-05-2016 21:50:00 11.5 C 78 % 7.8 C
2856 01-05-2016 21:55:00 11.5 C 79 % 7.99 C
2857 01-05-2016 22:00:00 11.4 C 79 % 7.89 C
2858 01-05-2016 22:05:00 11.4 C 78 % 7.71 C
2859 01-05-2016 22:10:00 11.4 C 79 % 7.89 C
2860 01-05-2016 22:15:00 11.3 C 79 % 7.8 C
2861 01-05-2016 22:20:00 11.4 C 78 % 7.71 C
2862 01-05-2016 22:25:00 11.6 C 77 % 7.71 C
2863 01-05-2016 22:30:00 11.6 C 77 % 7.71 C
2864 01-05-2016 22:35:00 11.4 C 78 % 7.71 C
2865 01-05-2016 22:40:00 11.3 C 79 % 7.8 C
2866 01-05-2016 22:45:00 11 C 80 % 7.69 C
2867 01-05-2016 22:50:00 10.8 C 81 % 7.67 C
2868 01-05-2016 22:55:00 10.8 C 81 % 7.67 C
2869 01-05-2016 23:00:00 10.7 C 82 % 7.76 C
2870 01-05-2016 23:05:00 10.4 C 82 % 7.46 C
2871 01-05-2016 23:10:00 10.2 C 83 % 7.45 C
2872 01-05-2016 23:15:00 10 C 84 % 7.43 C
2873 01-05-2016 23:20:00 9.8 C 85 % 7.4 C
2874 01-05-2016 23:25:00 9.8 C 85 % 7.4 C
2875 01-05-2016 23:30:00 9.7 C 85 % 7.3 C
Sensor: Nr:Datum:Temp:Feuchte:Taupunkt:
Aussen-T/F 2876 01-05-2016 23:35:00 9.7 C 85 % 7.3 C
2877 01-05-2016 23:40:00 9.5 C 86 % 7.28 C
2878 01-05-2016 23:45:00 9.4 C 86 % 7.18 C
2879 01-05-2016 23:50:00 9.3 C 86 % 7.08 C
2880 01-05-2016 23:55:00 9.2 C 87 % 7.15 C
2881 02-05-2016 00:00:00 9.1 C 87 % 7.05 C
2882 02-05-2016 00:05:00 9.1 C 87 % 7.05 C
2883 02-05-2016 00:10:00 8.9 C 88 % 7.02 C
2884 02-05-2016 00:15:00 8.9 C 88 % 7.02 C
2885 02-05-2016 00:20:00 8.9 C 88 % 7.02 C
2886 02-05-2016 00:25:00 9 C 87 % 6.96 C
2887 02-05-2016 00:30:00 8.9 C 87 % 6.86 C
2888 02-05-2016 00:35:00 8.8 C 88 % 6.93 C
2889 02-05-2016 00:40:00 8.7 C 88 % 6.83 C
2890 02-05-2016 00:45:00 8.6 C 88 % 6.73 C
2891 02-05-2016 00:50:00 8.6 C 89 % 6.89 C
2892 02-05-2016 00:55:00 8.6 C 88 % 6.73 C
2893 02-05-2016 01:00:00 8.6 C 88 % 6.73 C
2894 02-05-2016 01:05:00 8.6 C 88 % 6.73 C
2895 02-05-2016 01:10:00 8.6 C 88 % 6.73 C
2896 02-05-2016 01:15:00 8.5 C 88 % 6.63 C
2897 02-05-2016 01:20:00 8.4 C 88 % 6.53 C
2898 02-05-2016 01:25:00 8.3 C 88 % 6.43 C
2899 02-05-2016 01:30:00 8.3 C 89 % 6.6 C
2900 02-05-2016 01:35:00 8.2 C 89 % 6.5 C
Sensor: Nr:Datum:Temp:Feuchte:Taupunkt:
Aussen-T/F 2901 02-05-2016 01:40:00 8.2 C 90 % 6.66 C
2902 02-05-2016 01:45:00 8.1 C 89 % 6.4 C
2903 02-05-2016 01:50:00 8 C 89 % 6.3 C
2904 02-05-2016 01:55:00 8 C 90 % 6.46 C
2905 02-05-2016 02:00:00 7.9 C 90 % 6.36 C
2906 02-05-2016 02:05:00 7.9 C 90 % 6.36 C
2907 02-05-2016 02:10:00 7.8 C 90 % 6.27 C
2908 02-05-2016 02:15:00 7.8 C 90 % 6.27 C
2909 02-05-2016 02:20:00 7.7 C 90 % 6.17 C
2910 02-05-2016 02:25:00 7.7 C 90 % 6.17 C
2911 02-05-2016 02:30:00 7.6 C 91 % 6.23 C
2912 02-05-2016 02:35:00 7.6 C 91 % 6.23 C
2913 02-05-2016 02:40:00 7.4 C 90 % 5.87 C
2914 02-05-2016 02:45:00 7.3 C 91 % 5.93 C
2915 02-05-2016 02:50:00 7.3 C 91 % 5.93 C
2916 02-05-2016 02:55:00 7.2 C 91 % 5.83 C
2917 02-05-2016 03:00:00 7.2 C 91 % 5.83 C
2918 02-05-2016 03:05:00 7.1 C 91 % 5.73 C
2919 02-05-2016 03:10:00 7 C 91 % 5.63 C
2920 02-05-2016 03:15:00 6.8 C 90 % 5.28 C
2921 02-05-2016 03:20:00 6.6 C 91 % 5.24 C
2922 02-05-2016 03:25:00 6.5 C 91 % 5.14 C
2923 02-05-2016 03:30:00 6.4 C 91 % 5.04 C
2924 02-05-2016 03:35:00 6.2 C 91 % 4.84 C
2925 02-05-2016 03:40:00 6.1 C 92 % 4.9 C
Sensor: Nr:Datum:Temp:Feuchte:Taupunkt:
Aussen-T/F 2926 02-05-2016 03:45:00 5.9 C 92 % 4.7 C
2927 02-05-2016 03:50:00 5.9 C 92 % 4.7 C
2928 02-05-2016 03:55:00 5.8 C 92 % 4.6 C
2929 02-05-2016 04:00:00 5.7 C 93 % 4.66 C
2930 02-05-2016 04:05:00 5.7 C 93 % 4.66 C
2931 02-05-2016 04:10:00 5.6 C 93 % 4.56 C
2932 02-05-2016 04:15:00 5.5 C 93 % 4.46 C
2933 02-05-2016 04:20:00 5.4 C 93 % 4.36 C
2934 02-05-2016 04:25:00 5.3 C 93 % 4.26 C
2935 02-05-2016 04:30:00 5.2 C 93 % 4.16 C
2936 02-05-2016 04:35:00 5.1 C 93 % 4.06 C
2937 02-05-2016 04:40:00 5.1 C 93 % 4.06 C
2938 02-05-2016 04:45:00 4.9 C 93 % 3.87 C
2939 02-05-2016 04:50:00 4.9 C 94 % 4.02 C
2940 02-05-2016 04:55:00 4.8 C 93 % 3.77 C
2941 02-05-2016 05:00:00 4.7 C 94 % 3.82 C
2942 02-05-2016 05:05:00 4.7 C 94 % 3.82 C
2943 02-05-2016 05:10:00 4.6 C 94 % 3.72 C
2944 02-05-2016 05:15:00 4.6 C 94 % 3.72 C
2945 02-05-2016 05:20:00 4.6 C 94 % 3.72 C
2946 02-05-2016 05:25:00 4.6 C 94 % 3.72 C
2947 02-05-2016 05:30:00 4.5 C 94 % 3.62 C
2948 02-05-2016 05:35:00 4.4 C 94 % 3.52 C
2949 02-05-2016 05:40:00 4.3 C 94 % 3.42 C
2950 02-05-2016 05:45:00 4.3 C 94 % 3.42 C
Sensor: Nr:Datum:Temp:Feuchte:Taupunkt:
Aussen-T/F 2951 02-05-2016 05:50:00 4.2 C 94 % 3.32 C
2952 02-05-2016 05:55:00 4.2 C 94 % 3.32 C
2953 02-05-2016 06:00:00 4.2 C 95 % 3.47 C
2954 02-05-2016 06:05:00 4.2 C 94 % 3.32 C
2955 02-05-2016 06:10:00 4.1 C 95 % 3.37 C
2956 02-05-2016 06:15:00 4.1 C 95 % 3.37 C
2957 02-05-2016 06:20:00 4 C 95 % 3.27 C
2958 02-05-2016 06:25:00 4 C 95 % 3.27 C
2959 02-05-2016 06:30:00 4 C 95 % 3.27 C
2960 02-05-2016 06:35:00 3.9 C 95 % 3.17 C
2961 02-05-2016 06:40:00 3.9 C 95 % 3.17 C
2962 02-05-2016 06:45:00 3.9 C 95 % 3.17 C
2963 02-05-2016 06:50:00 3.9 C 95 % 3.17 C
2964 02-05-2016 06:55:00 3.9 C 95 % 3.17 C
2965 02-05-2016 07:00:00 4 C 95 % 3.27 C
2966 02-05-2016 07:05:00 4.1 C 95 % 3.37 C
2967 02-05-2016 07:10:00 4.2 C 95 % 3.47 C
2968 02-05-2016 07:15:00 4.2 C 95 % 3.47 C
2969 02-05-2016 07:20:00 4.3 C 95 % 3.57 C
2970 02-05-2016 07:25:00 4.4 C 95 % 3.67 C
2971 02-05-2016 07:30:00 4.5 C 96 % 3.92 C
2972 02-05-2016 07:35:00 4.6 C 96 % 4.02 C
2973 02-05-2016 07:40:00 4.7 C 96 % 4.12 C
2974 02-05-2016 07:45:00 4.7 C 96 % 4.12 C
2975 02-05-2016 07:50:00 4.8 C 96 % 4.22 C
Sensor: Nr:Datum:Temp:Feuchte:Taupunkt:
Aussen-T/F 2976 02-05-2016 07:55:00 4.8 C 96 % 4.22 C
2977 02-05-2016 08:00:00 4.9 C 96 % 4.32 C
2978 02-05-2016 08:05:00 5 C 96 % 4.42 C
2979 02-05-2016 08:10:00 5.1 C 96 % 4.52 C
2980 02-05-2016 08:15:00 5.1 C 96 % 4.52 C
2981 02-05-2016 08:20:00 5.2 C 96 % 4.62 C
2982 02-05-2016 08:25:00 5.2 C 96 % 4.62 C
2983 02-05-2016 08:30:00 5.3 C 96 % 4.72 C
2984 02-05-2016 08:35:00 5.4 C 96 % 4.81 C
2985 02-05-2016 08:40:00 5.5 C 96 % 4.91 C
2986 02-05-2016 08:45:00 5.6 C 96 % 5.01 C
2987 02-05-2016 08:50:00 5.7 C 96 % 5.11 C
2988 02-05-2016 08:55:00 5.8 C 96 % 5.21 C
2989 02-05-2016 09:00:00 5.8 C 96 % 5.21 C
2990 02-05-2016 09:05:00 5.9 C 96 % 5.31 C
2991 02-05-2016 09:10:00 5.9 C 96 % 5.31 C
2992 02-05-2016 09:15:00 6.1 C 96 % 5.51 C
2993 02-05-2016 09:20:00 6.2 C 96 % 5.61 C
2994 02-05-2016 09:25:00 6.3 C 96 % 5.71 C
2995 02-05-2016 09:30:00 6.3 C 96 % 5.71 C
2996 02-05-2016 09:35:00 6.5 C 96 % 5.91 C
2997 02-05-2016 09:40:00 6.7 C 97 % 6.26 C
2998 02-05-2016 09:45:00 6.8 C 96 % 6.21 C
2999 02-05-2016 09:50:00 7 C 97 % 6.56 C
3000 02-05-2016 09:55:00 7.2 C 97 % 6.76 C
Sensor: Nr:Datum:Temp:Feuchte:Taupunkt:
Aussen-T/F 3001 02-05-2016 10:00:00 7.4 C 97 % 6.96 C
3002 02-05-2016 10:05:00 7.6 C 97 % 7.16 C
3003 02-05-2016 10:10:00 7.8 C 97 % 7.35 C
3004 02-05-2016 10:15:00 8.1 C 97 % 7.65 C
3005 02-05-2016 10:20:00 8.3 C 97 % 7.85 C
3006 02-05-2016 10:25:00 8.6 C 97 % 8.15 C
3007 02-05-2016 10:30:00 8.8 C 97 % 8.35 C
3008 02-05-2016 10:35:00 9 C 96 % 8.4 C
3009 02-05-2016 10:40:00 9.2 C 96 % 8.6 C
3010 02-05-2016 10:45:00 9.4 C 95 % 8.64 C
3011 02-05-2016 10:50:00 9.7 C 93 % 8.62 C
3012 02-05-2016 10:55:00 10.2 C 91 % 8.8 C
3013 02-05-2016 11:00:00 10.6 C 88 % 8.7 C
3014 02-05-2016 11:05:00 11 C 87 % 8.92 C
3015 02-05-2016 11:10:00 11.3 C 85 % 8.87 C
3016 02-05-2016 11:15:00 11.6 C 83 % 8.81 C
3017 02-05-2016 11:20:00 11.9 C 81 % 8.75 C
3018 02-05-2016 11:25:00 12.2 C 82 % 9.22 C
3019 02-05-2016 11:30:00 12.5 C 80 % 9.15 C
3020 02-05-2016 11:35:00 12.8 C 80 % 9.44 C
3021 02-05-2016 11:40:00 13.1 C 80 % 9.73 C
3022 02-05-2016 11:45:00 13.3 C 78 % 9.55 C
3023 02-05-2016 11:50:00 13.6 C 77 % 9.65 C
3024 02-05-2016 11:55:00 13.8 C 75 % 9.45 C
3025 02-05-2016 12:00:00 14.2 C 71 % 9.02 C
Sensor: Nr:Datum:Temp:Feuchte:Taupunkt:
Aussen-T/F 3026 02-05-2016 12:05:00 14.6 C 72 % 9.61 C
3027 02-05-2016 12:10:00 14.8 C 67 % 8.74 C
3028 02-05-2016 12:15:00 15.2 C 65 % 8.67 C
3029 02-05-2016 12:20:00 15.5 C 61 % 8.02 C
3030 02-05-2016 12:25:00 15.7 C 59 % 7.72 C
3031 02-05-2016 12:30:00 15.8 C 57 % 7.31 C
3032 02-05-2016 12:35:00 15.9 C 57 % 7.4 C
3033 02-05-2016 12:40:00 15.9 C 54 % 6.61 C
3034 02-05-2016 12:45:00 16 C 53 % 6.44 C
3035 02-05-2016 12:50:00 16.1 C 55 % 7.07 C
3036 02-05-2016 12:55:00 16.2 C 53 % 6.62 C
3037 02-05-2016 13:00:00 16.5 C 53 % 6.9 C
3038 02-05-2016 13:05:00 16.7 C 53 % 7.08 C
3039 02-05-2016 13:10:00 16.7 C 54 % 7.36 C
3040 02-05-2016 13:15:00 16.7 C 53 % 7.08 C
3041 02-05-2016 13:20:00 16.9 C 49 % 6.13 C
3042 02-05-2016 13:25:00 17.1 C 49 % 6.31 C
3043 02-05-2016 13:30:00 17.3 C 48 % 6.2 C
3044 02-05-2016 13:35:00 17.3 C 48 % 6.2 C
3045 02-05-2016 13:40:00 17.3 C 47 % 5.89 C
3046 02-05-2016 13:45:00 17.4 C 47 % 5.98 C
3047 02-05-2016 13:50:00 17.5 C 46 % 5.76 C
3048 02-05-2016 13:55:00 17.6 C 46 % 5.86 C
3049 02-05-2016 14:00:00 17.6 C 46 % 5.86 C
3050 02-05-2016 14:05:00 17.6 C 48 % 6.47 C
Sensor: Nr:Datum:Temp:Feuchte:Taupunkt:
Aussen-T/F 3051 02-05-2016 14:10:00 17.5 C 47 % 6.07 C
3052 02-05-2016 14:15:00 17.4 C 47 % 5.98 C
3053 02-05-2016 14:20:00 17.6 C 48 % 6.47 C
3054 02-05-2016 14:25:00 17.6 C 46 % 5.86 C
3055 02-05-2016 14:30:00 17.8 C 48 % 6.65 C
3056 02-05-2016 14:35:00 18.1 C 46 % 6.31 C
3057 02-05-2016 14:40:00 18.2 C 45 % 6.08 C
3058 02-05-2016 14:45:00 18.3 C 44 % 5.85 C
3059 02-05-2016 14:50:00 18.3 C 44 % 5.85 C
3060 02-05-2016 14:55:00 18.6 C 46 % 6.77 C
3061 02-05-2016 15:00:00 18.7 C 42 % 5.54 C
3062 02-05-2016 15:05:00 18.7 C 45 % 6.54 C
3063 02-05-2016 15:10:00 18.9 C 43 % 6.06 C
3064 02-05-2016 15:15:00 19 C 43 % 6.15 C
3065 02-05-2016 15:20:00 19.2 C 44 % 6.66 C
3066 02-05-2016 15:25:00 19.4 C 42 % 6.17 C
3067 02-05-2016 15:30:00 19.7 C 43 % 6.78 C
3068 02-05-2016 15:35:00 20.1 C 41 % 6.45 C
3069 02-05-2016 15:40:00 20.4 C 41 % 6.72 C
3070 02-05-2016 15:45:00 20.8 C 44 % 8.11 C
3071 02-05-2016 15:50:00 20.8 C 39 % 6.35 C
3072 02-05-2016 15:55:00 20.6 C 38 % 5.8 C
3073 02-05-2016 16:00:00 20.6 C 38 % 5.8 C
3074 02-05-2016 16:05:00 20.5 C 42 % 7.16 C
3075 02-05-2016 16:10:00 20.6 C 39 % 6.17 C
Sensor: Nr:Datum:Temp:Feuchte:Taupunkt:
Aussen-T/F 3076 02-05-2016 16:15:00 20.8 C 39 % 6.35 C
3077 02-05-2016 16:20:00 21.2 C 40 % 7.08 C
3078 02-05-2016 16:25:00 21.6 C 43 % 8.49 C
3079 02-05-2016 16:30:00 21.9 C 40 % 7.7 C
3080 02-05-2016 16:35:00 22.2 C 36 % 6.43 C
3081 02-05-2016 16:40:00 22.3 C 38 % 7.31 C
3082 02-05-2016 16:45:00 22.3 C 39 % 7.69 C
3083 02-05-2016 16:50:00 22.3 C 39 % 7.69 C
3084 02-05-2016 16:55:00 22.4 C 42 % 8.87 C
3085 02-05-2016 17:00:00 22.7 C 38 % 7.66 C
3086 02-05-2016 17:05:00 22.7 C 35 % 6.46 C
3087 02-05-2016 17:10:00 22.6 C 37 % 7.18 C
3088 02-05-2016 17:15:00 22.4 C 39 % 7.78 C
3089 02-05-2016 17:20:00 22.4 C 37 % 7.01 C
3090 02-05-2016 17:25:00 22.4 C 39 % 7.78 C
3091 02-05-2016 17:30:00 22.4 C 38 % 7.4 C
3092 02-05-2016 17:35:00 22.5 C 40 % 8.24 C
3093 02-05-2016 17:40:00 22.6 C 38 % 7.57 C
3094 02-05-2016 17:45:00 22.7 C 41 % 8.78 C
3095 02-05-2016 17:50:00 22.7 C 37 % 7.27 C
3096 02-05-2016 17:55:00 22.6 C 36 % 6.78 C
3097 02-05-2016 18:00:00 22.3 C 36 % 6.52 C
3098 02-05-2016 18:05:00 22.3 C 36 % 6.52 C
3099 02-05-2016 18:10:00 22.2 C 36 % 6.43 C
3100 02-05-2016 18:15:00 22.3 C 37 % 6.92 C
Sensor: Nr:Datum:Temp:Feuchte:Taupunkt:
Aussen-T/F 3101 02-05-2016 18:20:00 22.3 C 38 % 7.31 C
3102 02-05-2016 18:25:00 22.4 C 36 % 6.61 C
3103 02-05-2016 18:30:00 22.5 C 38 % 7.48 C
3104 02-05-2016 18:35:00 22.8 C 36 % 6.96 C
3105 02-05-2016 18:40:00 22.8 C 35 % 6.55 C
3106 02-05-2016 18:45:00 22.8 C 36 % 6.96 C
3107 02-05-2016 18:50:00 22.6 C 35 % 6.38 C
3108 02-05-2016 18:55:00 22.2 C 36 % 6.43 C
3109 02-05-2016 19:00:00 22 C 36 % 6.26 C
3110 02-05-2016 19:05:00 21.9 C 35 % 5.76 C
3111 02-05-2016 19:10:00 21.9 C 37 % 6.56 C
3112 02-05-2016 19:15:00 21.8 C 37 % 6.48 C
3113 02-05-2016 19:20:00 21.6 C 40 % 7.43 C
3114 02-05-2016 19:25:00 21.3 C 45 % 8.89 C
3115 02-05-2016 19:30:00 20.9 C 48 % 9.49 C
3116 02-05-2016 19:35:00 20.4 C 51 % 9.93 C
3117 02-05-2016 19:40:00 19.8 C 53 % 9.95 C
3118 02-05-2016 19:45:00 19.1 C 55 % 9.86 C
3119 02-05-2016 19:50:00 18.3 C 58 % 9.9 C
3120 02-05-2016 19:55:00 17.5 C 60 % 9.66 C
3121 02-05-2016 20:00:00 16.8 C 61 % 9.24 C
3122 02-05-2016 20:05:00 16.3 C 61 % 8.77 C
3123 02-05-2016 20:10:00 15.9 C 63 % 8.87 C
3124 02-05-2016 20:15:00 15.7 C 64 % 8.92 C
3125 02-05-2016 20:20:00 15.3 C 64 % 8.54 C
Sensor: Nr:Datum:Temp:Feuchte:Taupunkt:
Aussen-T/F 3126 02-05-2016 20:25:00 15.1 C 65 % 8.58 C
3127 02-05-2016 20:30:00 14.9 C 67 % 8.83 C
3128 02-05-2016 20:35:00 14.7 C 67 % 8.64 C
3129 02-05-2016 20:40:00 14.4 C 69 % 8.79 C
3130 02-05-2016 20:45:00 14.2 C 68 % 8.39 C
3131 02-05-2016 20:50:00 13.9 C 69 % 8.31 C
3132 02-05-2016 20:55:00 13.8 C 69 % 8.22 C
3133 02-05-2016 21:00:00 13.6 C 70 % 8.24 C
3134 02-05-2016 21:05:00 13.3 C 70 % 7.95 C
3135 02-05-2016 21:10:00 13.2 C 72 % 8.27 C
3136 02-05-2016 21:15:00 12.9 C 73 % 8.18 C
3137 02-05-2016 21:20:00 12.8 C 73 % 8.09 C
3138 02-05-2016 21:25:00 12.7 C 73 % 7.99 C
3139 02-05-2016 21:30:00 12.5 C 74 % 8 C
3140 02-05-2016 21:35:00 12.3 C 75 % 8 C
3141 02-05-2016 21:40:00 12.2 C 75 % 7.91 C
3142 02-05-2016 21:45:00 12 C 75 % 7.71 C
3143 02-05-2016 21:50:00 11.9 C 75 % 7.62 C
3144 02-05-2016 21:55:00 11.9 C 75 % 7.62 C
3145 02-05-2016 22:00:00 11.8 C 75 % 7.52 C
3146 02-05-2016 22:05:00 11.7 C 75 % 7.42 C
3147 02-05-2016 22:10:00 11.6 C 76 % 7.52 C
3148 02-05-2016 22:15:00 11.4 C 76 % 7.33 C
3149 02-05-2016 22:20:00 11.4 C 74 % 6.94 C
3150 02-05-2016 22:25:00 11.3 C 75 % 7.04 C
Sensor: Nr:Datum:Temp:Feuchte:Taupunkt:
Aussen-T/F 3151 02-05-2016 22:30:00 11.3 C 76 % 7.23 C
3152 02-05-2016 22:35:00 11.3 C 76 % 7.23 C
3153 02-05-2016 22:40:00 11.4 C 76 % 7.33 C
3154 02-05-2016 22:45:00 11.4 C 76 % 7.33 C
3155 02-05-2016 22:50:00 11.4 C 78 % 7.71 C
3156 02-05-2016 22:55:00 11.4 C 78 % 7.71 C
3157 02-05-2016 23:00:00 11.4 C 78 % 7.71 C
3158 02-05-2016 23:05:00 11.4 C 79 % 7.89 C
3159 02-05-2016 23:10:00 11.3 C 80 % 7.98 C
3160 02-05-2016 23:15:00 11.3 C 79 % 7.8 C
3161 02-05-2016 23:20:00 11.2 C 79 % 7.7 C
3162 02-05-2016 23:25:00 11.2 C 80 % 7.88 C
3163 02-05-2016 23:30:00 11.1 C 81 % 7.97 C
3164 02-05-2016 23:35:00 10.9 C 81 % 7.77 C
3165 02-05-2016 23:40:00 10.8 C 82 % 7.85 C
3166 02-05-2016 23:45:00 10.7 C 82 % 7.76 C
3167 02-05-2016 23:50:00 10.6 C 82 % 7.66 C
3168 02-05-2016 23:55:00 10.4 C 83 % 7.64 C
3169 03-05-2016 00:00:00 10.3 C 83 % 7.54 C
3170 03-05-2016 00:05:00 10.2 C 83 % 7.45 C
3171 03-05-2016 00:10:00 10.1 C 84 % 7.52 C
3172 03-05-2016 00:15:00 9.9 C 85 % 7.5 C
3173 03-05-2016 00:20:00 9.8 C 85 % 7.4 C
3174 03-05-2016 00:25:00 9.8 C 86 % 7.57 C
3175 03-05-2016 00:30:00 9.7 C 86 % 7.47 C
Sensor: Nr:Datum:Temp:Feuchte:Taupunkt:
Aussen-T/F 3176 03-05-2016 00:35:00 9.7 C 86 % 7.47 C
3177 03-05-2016 00:40:00 9.7 C 86 % 7.47 C
3178 03-05-2016 00:45:00 9.6 C 87 % 7.55 C
3179 03-05-2016 00:50:00 9.5 C 87 % 7.45 C
3180 03-05-2016 00:55:00 9.5 C 87 % 7.45 C
3181 03-05-2016 01:00:00 9.4 C 87 % 7.35 C
3182 03-05-2016 01:05:00 9.4 C 87 % 7.35 C
3183 03-05-2016 01:10:00 9.3 C 87 % 7.25 C
3184 03-05-2016 01:15:00 9.3 C 88 % 7.42 C
3185 03-05-2016 01:20:00 9.2 C 88 % 7.32 C
3186 03-05-2016 01:25:00 9.2 C 88 % 7.32 C
3187 03-05-2016 01:30:00 9.2 C 88 % 7.32 C
3188 03-05-2016 01:35:00 9.1 C 88 % 7.22 C
3189 03-05-2016 01:40:00 9.1 C 89 % 7.39 C
3190 03-05-2016 01:45:00 9.1 C 89 % 7.39 C
3191 03-05-2016 01:50:00 9.1 C 89 % 7.39 C
3192 03-05-2016 01:55:00 9 C 89 % 7.29 C
3193 03-05-2016 02:00:00 8.9 C 88 % 7.02 C
3194 03-05-2016 02:05:00 8.9 C 89 % 7.19 C
3195 03-05-2016 02:10:00 8.8 C 89 % 7.09 C
3196 03-05-2016 02:15:00 8.8 C 89 % 7.09 C
3197 03-05-2016 02:20:00 8.7 C 89 % 6.99 C
3198 03-05-2016 02:25:00 8.7 C 89 % 6.99 C
3199 03-05-2016 02:30:00 8.7 C 90 % 7.15 C
3200 03-05-2016 02:35:00 8.7 C 90 % 7.15 C
Sensor: Nr:Datum:Temp:Feuchte:Taupunkt:
Aussen-T/F 3201 03-05-2016 02:40:00 8.7 C 90 % 7.15 C
3202 03-05-2016 02:45:00 8.6 C 90 % 7.06 C
3203 03-05-2016 02:50:00 8.6 C 90 % 7.06 C
3204 03-05-2016 02:55:00 8.6 C 90 % 7.06 C
3205 03-05-2016 03:00:00 8.6 C 90 % 7.06 C
3206 03-05-2016 03:05:00 8.5 C 90 % 6.96 C
3207 03-05-2016 03:10:00 8.4 C 90 % 6.86 C
3208 03-05-2016 03:15:00 8.4 C 91 % 7.02 C
3209 03-05-2016 03:20:00 8.4 C 91 % 7.02 C
3210 03-05-2016 03:25:00 8.4 C 91 % 7.02 C
3211 03-05-2016 03:30:00 8.4 C 91 % 7.02 C
3212 03-05-2016 03:35:00 8.4 C 91 % 7.02 C
3213 03-05-2016 03:40:00 8.4 C 91 % 7.02 C
3214 03-05-2016 03:45:00 8.4 C 91 % 7.02 C
3215 03-05-2016 03:50:00 8.4 C 91 % 7.02 C
3216 03-05-2016 03:55:00 8.4 C 91 % 7.02 C
3217 03-05-2016 04:00:00 8.4 C 91 % 7.02 C
3218 03-05-2016 04:05:00 8.4 C 91 % 7.02 C
3219 03-05-2016 04:10:00 8.4 C 91 % 7.02 C
3220 03-05-2016 04:15:00 8.4 C 91 % 7.02 C
3221 03-05-2016 04:20:00 8.3 C 91 % 6.92 C
3222 03-05-2016 04:25:00 8.3 C 91 % 6.92 C
3223 03-05-2016 04:30:00 8.3 C 91 % 6.92 C
3224 03-05-2016 04:35:00 8.3 C 91 % 6.92 C
3225 03-05-2016 04:40:00 8.3 C 91 % 6.92 C
Sensor: Nr:Datum:Temp:Feuchte:Taupunkt:
Aussen-T/F 3226 03-05-2016 04:45:00 8.3 C 91 % 6.92 C
3227 03-05-2016 04:50:00 8.3 C 91 % 6.92 C
3228 03-05-2016 04:55:00 8.3 C 91 % 6.92 C
3229 03-05-2016 05:00:00 8.3 C 91 % 6.92 C
3230 03-05-2016 05:05:00 8.2 C 91 % 6.82 C
3231 03-05-2016 05:10:00 8.2 C 91 % 6.82 C
3232 03-05-2016 05:15:00 8.2 C 91 % 6.82 C
3233 03-05-2016 05:20:00 8.2 C 91 % 6.82 C
3234 03-05-2016 05:25:00 8.1 C 91 % 6.72 C
3235 03-05-2016 05:30:00 8.1 C 91 % 6.72 C
3236 03-05-2016 05:35:00 8.1 C 91 % 6.72 C
3237 03-05-2016 05:40:00 8.2 C 91 % 6.82 C
3238 03-05-2016 05:45:00 8.2 C 91 % 6.82 C
3239 03-05-2016 05:50:00 8.2 C 91 % 6.82 C
3240 03-05-2016 05:55:00 8.3 C 91 % 6.92 C
3241 03-05-2016 06:00:00 8.3 C 91 % 6.92 C
3242 03-05-2016 06:05:00 8.4 C 91 % 7.02 C
3243 03-05-2016 06:10:00 8.4 C 91 % 7.02 C
3244 03-05-2016 06:15:00 8.4 C 91 % 7.02 C
3245 03-05-2016 06:20:00 8.4 C 91 % 7.02 C
3246 03-05-2016 06:25:00 8.5 C 91 % 7.12 C
3247 03-05-2016 06:30:00 8.6 C 91 % 7.22 C
3248 03-05-2016 06:35:00 8.6 C 90 % 7.06 C
3249 03-05-2016 06:40:00 8.6 C 90 % 7.06 C
3250 03-05-2016 06:45:00 8.6 C 90 % 7.06 C
Sensor: Nr:Datum:Temp:Feuchte:Taupunkt:
Aussen-T/F 3251 03-05-2016 06:50:00 8.7 C 90 % 7.15 C
3252 03-05-2016 06:55:00 8.7 C 90 % 7.15 C
3253 03-05-2016 07:00:00 8.7 C 90 % 7.15 C
3254 03-05-2016 07:05:00 8.8 C 90 % 7.25 C
3255 03-05-2016 07:10:00 8.8 C 90 % 7.25 C
3256 03-05-2016 07:15:00 8.9 C 90 % 7.35 C
3257 03-05-2016 07:20:00 8.9 C 90 % 7.35 C
3258 03-05-2016 07:25:00 9.1 C 90 % 7.55 C
3259 03-05-2016 07:30:00 9.2 C 90 % 7.65 C
3260 03-05-2016 07:35:00 9.3 C 90 % 7.75 C
3261 03-05-2016 07:40:00 9.4 C 90 % 7.85 C
3262 03-05-2016 07:45:00 9.6 C 90 % 8.04 C
3263 03-05-2016 07:50:00 9.6 C 90 % 8.04 C
3264 03-05-2016 07:55:00 9.6 C 90 % 8.04 C
3265 03-05-2016 08:00:00 9.6 C 91 % 8.21 C
3266 03-05-2016 08:05:00 9.6 C 91 % 8.21 C
3267 03-05-2016 08:10:00 9.6 C 91 % 8.21 C
3268 03-05-2016 08:15:00 9.6 C 92 % 8.37 C
3269 03-05-2016 08:20:00 9.6 C 92 % 8.37 C
3270 03-05-2016 08:25:00 9.6 C 92 % 8.37 C
3271 03-05-2016 08:30:00 9.6 C 92 % 8.37 C
3272 03-05-2016 08:35:00 9.6 C 92 % 8.37 C
3273 03-05-2016 08:40:00 9.4 C 92 % 8.17 C
3274 03-05-2016 08:45:00 9.4 C 92 % 8.17 C
3275 03-05-2016 08:50:00 9.4 C 92 % 8.17 C
Sensor: Nr:Datum:Temp:Feuchte:Taupunkt:
Aussen-T/F 3276 03-05-2016 08:55:00 9.4 C 92 % 8.17 C
3277 03-05-2016 09:00:00 9.4 C 93 % 8.33 C
3278 03-05-2016 09:05:00 9.4 C 93 % 8.33 C
3279 03-05-2016 09:10:00 9.4 C 93 % 8.33 C
3280 03-05-2016 09:15:00 9.4 C 93 % 8.33 C
3281 03-05-2016 09:20:00 9.4 C 93 % 8.33 C
3282 03-05-2016 09:25:00 9.5 C 93 % 8.43 C
3283 03-05-2016 09:30:00 9.6 C 93 % 8.53 C
3284 03-05-2016 09:35:00 9.6 C 93 % 8.53 C
3285 03-05-2016 09:40:00 9.6 C 93 % 8.53 C
3286 03-05-2016 09:45:00 9.6 C 93 % 8.53 C
3287 03-05-2016 09:50:00 9.6 C 92 % 8.37 C
3288 03-05-2016 09:55:00 9.7 C 92 % 8.46 C
3289 03-05-2016 10:00:00 9.8 C 92 % 8.56 C
3290 03-05-2016 10:05:00 9.8 C 92 % 8.56 C
3291 03-05-2016 10:10:00 9.9 C 92 % 8.66 C
3292 03-05-2016 10:15:00 9.9 C 91 % 8.5 C
3293 03-05-2016 10:20:00 9.9 C 91 % 8.5 C
3294 03-05-2016 10:25:00 9.9 C 91 % 8.5 C
3295 03-05-2016 10:30:00 10 C 91 % 8.6 C
3296 03-05-2016 10:35:00 10.1 C 91 % 8.7 C
3297 03-05-2016 10:40:00 10.3 C 89 % 8.57 C
3298 03-05-2016 10:45:00 10.4 C 89 % 8.67 C
3299 03-05-2016 10:50:00 10.6 C 88 % 8.7 C
3300 03-05-2016 10:55:00 10.7 C 86 % 8.46 C
Sensor: Nr:Datum:Temp:Feuchte:Taupunkt:
Aussen-T/F 3301 03-05-2016 11:00:00 10.8 C 86 % 8.56 C
3302 03-05-2016 11:05:00 10.9 C 84 % 8.31 C
3303 03-05-2016 11:10:00 10.9 C 84 % 8.31 C
3304 03-05-2016 11:15:00 11.1 C 83 % 8.33 C
3305 03-05-2016 11:20:00 11.3 C 85 % 8.87 C
3306 03-05-2016 11:25:00 11.7 C 81 % 8.55 C
3307 03-05-2016 11:30:00 11.8 C 80 % 8.47 C
3308 03-05-2016 11:35:00 11.8 C 79 % 8.28 C
3309 03-05-2016 11:40:00 11.8 C 80 % 8.47 C
3310 03-05-2016 11:45:00 11.8 C 80 % 8.47 C
3311 03-05-2016 11:50:00 11.7 C 79 % 8.18 C
3312 03-05-2016 11:55:00 11.7 C 78 % 8 C
3313 03-05-2016 12:00:00 11.8 C 77 % 7.9 C
3314 03-05-2016 12:05:00 11.9 C 76 % 7.81 C
3315 03-05-2016 12:10:00 12.1 C 76 % 8 C
3316 03-05-2016 12:15:00 12.1 C 77 % 8.2 C
3317 03-05-2016 12:20:00 12.2 C 76 % 8.1 C
3318 03-05-2016 12:25:00 12.2 C 75 % 7.91 C
3319 03-05-2016 12:30:00 12.3 C 75 % 8 C
3320 03-05-2016 12:35:00 12.4 C 73 % 7.7 C
3321 03-05-2016 12:40:00 12.6 C 70 % 7.28 C
3322 03-05-2016 12:45:00 12.7 C 70 % 7.38 C
3323 03-05-2016 12:50:00 12.6 C 69 % 7.07 C
3324 03-05-2016 12:55:00 12.6 C 67 % 6.64 C
3325 03-05-2016 13:00:00 12.6 C 68 % 6.86 C
Sensor: Nr:Datum:Temp:Feuchte:Taupunkt:
Aussen-T/F 3326 03-05-2016 13:05:00 12.7 C 71 % 7.58 C
3327 03-05-2016 13:10:00 12.8 C 68 % 7.05 C
3328 03-05-2016 13:15:00 12.8 C 68 % 7.05 C
3329 03-05-2016 13:20:00 12.9 C 69 % 7.36 C
3330 03-05-2016 13:25:00 13 C 69 % 7.45 C
3331 03-05-2016 13:30:00 13.2 C 67 % 7.21 C
3332 03-05-2016 13:35:00 13.2 C 64 % 6.55 C
3333 03-05-2016 13:40:00 13.2 C 67 % 7.21 C
3334 03-05-2016 13:45:00 13.2 C 64 % 6.55 C
3335 03-05-2016 13:50:00 12.9 C 65 % 6.49 C
3336 03-05-2016 13:55:00 12.8 C 68 % 7.05 C
3337 03-05-2016 14:00:00 12.7 C 67 % 6.74 C
3338 03-05-2016 14:05:00 12.6 C 69 % 7.07 C
3339 03-05-2016 14:10:00 12.6 C 71 % 7.49 C
3340 03-05-2016 14:15:00 12.4 C 70 % 7.09 C
3341 03-05-2016 14:20:00 12.2 C 66 % 6.04 C
3342 03-05-2016 14:25:00 12.1 C 64 % 5.51 C
3343 03-05-2016 14:30:00 12.1 C 66 % 5.95 C
3344 03-05-2016 14:35:00 12.2 C 66 % 6.04 C
3345 03-05-2016 14:40:00 12.3 C 64 % 5.69 C
3346 03-05-2016 14:45:00 12.4 C 66 % 6.23 C
3347 03-05-2016 14:50:00 12.5 C 65 % 6.11 C
3348 03-05-2016 14:55:00 12.6 C 65 % 6.2 C
3349 03-05-2016 15:00:00 12.7 C 67 % 6.74 C
3350 03-05-2016 15:05:00 12.9 C 67 % 6.93 C
Sensor: Nr:Datum:Temp:Feuchte:Taupunkt:
Aussen-T/F 3351 03-05-2016 15:10:00 13.2 C 67 % 7.21 C
3352 03-05-2016 15:15:00 13.7 C 67 % 7.69 C
3353 03-05-2016 15:20:00 13.7 C 63 % 6.79 C
3354 03-05-2016 15:25:00 13.5 C 61 % 6.14 C
3355 03-05-2016 15:30:00 13.1 C 64 % 6.45 C
3356 03-05-2016 15:35:00 12.8 C 69 % 7.26 C
3357 03-05-2016 15:40:00 12.3 C 69 % 6.78 C
3358 03-05-2016 15:45:00 12.1 C 68 % 6.38 C
3359 03-05-2016 15:50:00 12.1 C 70 % 6.8 C
3360 03-05-2016 15:55:00 12.1 C 73 % 7.41 C
3361 03-05-2016 16:00:00 12.3 C 73 % 7.61 C
3362 03-05-2016 16:05:00 12.4 C 71 % 7.3 C
3363 03-05-2016 16:10:00 12.6 C 69 % 7.07 C
3364 03-05-2016 16:15:00 12.9 C 71 % 7.78 C
3365 03-05-2016 16:20:00 13.3 C 67 % 7.31 C
3366 03-05-2016 16:25:00 13.7 C 64 % 7.02 C
3367 03-05-2016 16:30:00 14.1 C 63 % 7.17 C
3368 03-05-2016 16:35:00 14.4 C 63 % 7.45 C
3369 03-05-2016 16:40:00 14.8 C 62 % 7.6 C
3370 03-05-2016 16:45:00 15 C 60 % 7.31 C
3371 03-05-2016 16:50:00 14.9 C 66 % 8.61 C
3372 03-05-2016 16:55:00 15.4 C 55 % 6.42 C
3373 03-05-2016 17:00:00 16.2 C 49 % 5.49 C
3374 03-05-2016 17:05:00 16.6 C 45 % 4.63 C
3375 03-05-2016 17:10:00 16.7 C 48 % 5.65 C
Sensor: Nr:Datum:Temp:Feuchte:Taupunkt:
Aussen-T/F 3376 03-05-2016 17:15:00 16.9 C 48 % 5.83 C
3377 03-05-2016 17:20:00 16.8 C 44 % 4.49 C
3378 03-05-2016 17:25:00 16.8 C 46 % 5.13 C
3379 03-05-2016 17:30:00 16.9 C 45 % 4.9 C
3380 03-05-2016 17:35:00 16.9 C 46 % 5.22 C
3381 03-05-2016 17:40:00 17 C 43 % 4.34 C
3382 03-05-2016 17:45:00 16.8 C 41 % 3.49 C
3383 03-05-2016 17:50:00 16.6 C 44 % 4.31 C
3384 03-05-2016 17:55:00 16.4 C 45 % 4.45 C
3385 03-05-2016 18:00:00 16.4 C 45 % 4.45 C
3386 03-05-2016 18:05:00 16.1 C 46 % 4.49 C
3387 03-05-2016 18:10:00 15.4 C 47 % 4.16 C
3388 03-05-2016 18:15:00 15.2 C 46 % 3.67 C
3389 03-05-2016 18:20:00 15 C 45 % 3.18 C
3390 03-05-2016 18:25:00 14.9 C 46 % 3.4 C
3391 03-05-2016 18:30:00 15.3 C 45 % 3.45 C
3392 03-05-2016 18:35:00 15.7 C 45 % 3.81 C
3393 03-05-2016 18:40:00 15.9 C 45 % 4 C
3394 03-05-2016 18:45:00 15.9 C 44 % 3.68 C
3395 03-05-2016 18:50:00 15.8 C 44 % 3.59 C
3396 03-05-2016 18:55:00 15.6 C 43 % 3.08 C
3397 03-05-2016 19:00:00 15.5 C 43 % 2.99 C
3398 03-05-2016 19:05:00 15.3 C 44 % 3.13 C
3399 03-05-2016 19:10:00 15.2 C 45 % 3.36 C
3400 03-05-2016 19:15:00 15.3 C 45 % 3.45 C
Sensor: Nr:Datum:Temp:Feuchte:Taupunkt:
Aussen-T/F 3401 03-05-2016 19:20:00 15.2 C 44 % 3.04 C
3402 03-05-2016 19:25:00 15.1 C 43 % 2.63 C
3403 03-05-2016 19:30:00 14.9 C 43 % 2.45 C
3404 03-05-2016 19:35:00 14.8 C 44 % 2.68 C
3405 03-05-2016 19:40:00 14.6 C 43 % 2.18 C
3406 03-05-2016 19:45:00 14.3 C 45 % 2.54 C
3407 03-05-2016 19:50:00 14.2 C 45 % 2.45 C
3408 03-05-2016 19:55:00 14.1 C 47 % 2.97 C
3409 03-05-2016 20:00:00 14.1 C 48 % 3.27 C
3410 03-05-2016 20:05:00 14 C 48 % 3.18 C
3411 03-05-2016 20:10:00 13.9 C 48 % 3.08 C
3412 03-05-2016 20:15:00 13.8 C 48 % 2.99 C
3413 03-05-2016 20:20:00 13.7 C 49 % 3.19 C
3414 03-05-2016 20:25:00 13.6 C 54 % 4.48 C
3415 03-05-2016 20:30:00 13.3 C 55 % 4.46 C
3416 03-05-2016 20:35:00 13.1 C 55 % 4.28 C
3417 03-05-2016 20:40:00 12.8 C 58 % 4.75 C
3418 03-05-2016 20:45:00 12.5 C 60 % 4.96 C
3419 03-05-2016 20:50:00 12.2 C 57 % 3.94 C
3420 03-05-2016 20:55:00 11.8 C 55 % 3.07 C
3421 03-05-2016 21:00:00 11.7 C 60 % 4.2 C
3422 03-05-2016 21:05:00 11.4 C 59 % 3.68 C
3423 03-05-2016 21:10:00 11.3 C 62 % 4.29 C
3424 03-05-2016 21:15:00 11 C 64 % 4.46 C
3425 03-05-2016 21:20:00 10.6 C 64 % 4.08 C
Sensor: Nr:Datum:Temp:Feuchte:Taupunkt:
Aussen-T/F 3426 03-05-2016 21:25:00 10.3 C 65 % 4.02 C
3427 03-05-2016 21:30:00 10 C 68 % 4.38 C
3428 03-05-2016 21:35:00 9.8 C 69 % 4.39 C
3429 03-05-2016 21:40:00 9.6 C 72 % 4.81 C
3430 03-05-2016 21:45:00 9.4 C 72 % 4.62 C
3431 03-05-2016 21:50:00 9.2 C 72 % 4.42 C
3432 03-05-2016 21:55:00 9.1 C 71 % 4.13 C
3433 03-05-2016 22:00:00 9 C 72 % 4.23 C
3434 03-05-2016 22:05:00 8.9 C 73 % 4.33 C
3435 03-05-2016 22:10:00 8.8 C 73 % 4.24 C
3436 03-05-2016 22:15:00 8.8 C 75 % 4.62 C
3437 03-05-2016 22:20:00 8.7 C 74 % 4.33 C
3438 03-05-2016 22:25:00 8.6 C 74 % 4.24 C
3439 03-05-2016 22:30:00 8.6 C 73 % 4.04 C
3440 03-05-2016 22:35:00 8.5 C 74 % 4.14 C
3441 03-05-2016 22:40:00 8.5 C 73 % 3.95 C
3442 03-05-2016 22:45:00 8.5 C 75 % 4.33 C
3443 03-05-2016 22:50:00 8.4 C 75 % 4.23 C
3444 03-05-2016 22:55:00 8.4 C 75 % 4.23 C
3445 03-05-2016 23:00:00 8.3 C 75 % 4.14 C
3446 03-05-2016 23:05:00 8.3 C 74 % 3.95 C
3447 03-05-2016 23:10:00 8.2 C 75 % 4.04 C
3448 03-05-2016 23:15:00 8.2 C 76 % 4.23 C
3449 03-05-2016 23:20:00 8.1 C 76 % 4.13 C
3450 03-05-2016 23:25:00 8 C 77 % 4.22 C
Sensor: Nr:Datum:Temp:Feuchte:Taupunkt:
Aussen-T/F 3451 03-05-2016 23:30:00 7.9 C 77 % 4.12 C
3452 03-05-2016 23:35:00 7.8 C 79 % 4.39 C
3453 03-05-2016 23:40:00 7.7 C 78 % 4.11 C
3454 03-05-2016 23:45:00 7.6 C 79 % 4.2 C
3455 03-05-2016 23:50:00 7.4 C 79 % 4 C
3456 03-05-2016 23:55:00 7.3 C 79 % 3.91 C
3457 04-05-2016 00:00:00 7.2 C 80 % 3.99 C
3458 04-05-2016 00:05:00 7.1 C 81 % 4.07 C
3459 04-05-2016 00:10:00 6.9 C 81 % 3.87 C
3460 04-05-2016 00:15:00 6.8 C 82 % 3.95 C
3461 04-05-2016 00:20:00 6.7 C 82 % 3.85 C
3462 04-05-2016 00:25:00 6.4 C 82 % 3.56 C
3463 04-05-2016 00:30:00 6.3 C 82 % 3.46 C
3464 04-05-2016 00:35:00 6.1 C 83 % 3.44 C
3465 04-05-2016 00:40:00 5.9 C 84 % 3.41 C
3466 04-05-2016 00:45:00 5.8 C 84 % 3.31 C
3467 04-05-2016 00:50:00 5.7 C 85 % 3.38 C
3468 04-05-2016 00:55:00 5.6 C 85 % 3.28 C
3469 04-05-2016 01:00:00 5.4 C 86 % 3.25 C
3470 04-05-2016 01:05:00 5.3 C 86 % 3.15 C
3471 04-05-2016 01:10:00 5.3 C 87 % 3.32 C
3472 04-05-2016 01:15:00 5.2 C 87 % 3.22 C
3473 04-05-2016 01:20:00 5.2 C 88 % 3.38 C
3474 04-05-2016 01:25:00 5.2 C 88 % 3.38 C
3475 04-05-2016 01:30:00 5.1 C 88 % 3.28 C
Sensor: Nr:Datum:Temp:Feuchte:Taupunkt:
Aussen-T/F 3476 04-05-2016 01:35:00 5 C 88 % 3.18 C
3477 04-05-2016 01:40:00 4.9 C 88 % 3.08 C
3478 04-05-2016 01:45:00 4.9 C 88 % 3.08 C
3479 04-05-2016 01:50:00 4.8 C 88 % 2.99 C
3480 04-05-2016 01:55:00 4.7 C 88 % 2.89 C
3481 04-05-2016 02:00:00 4.7 C 88 % 2.89 C
3482 04-05-2016 02:05:00 4.6 C 89 % 2.95 C
3483 04-05-2016 02:10:00 4.6 C 89 % 2.95 C
3484 04-05-2016 02:15:00 4.6 C 90 % 3.1 C
3485 04-05-2016 02:20:00 4.6 C 89 % 2.95 C
3486 04-05-2016 02:25:00 4.6 C 90 % 3.1 C
3487 04-05-2016 02:30:00 4.5 C 89 % 2.85 C
3488 04-05-2016 02:35:00 4.4 C 89 % 2.75 C
3489 04-05-2016 02:40:00 4.3 C 89 % 2.65 C
3490 04-05-2016 02:45:00 4.3 C 90 % 2.81 C
3491 04-05-2016 02:50:00 4.2 C 90 % 2.71 C
3492 04-05-2016 02:55:00 4.2 C 90 % 2.71 C
3493 04-05-2016 03:00:00 4.1 C 90 % 2.61 C
3494 04-05-2016 03:05:00 4 C 90 % 2.51 C
3495 04-05-2016 03:10:00 3.9 C 90 % 2.41 C
3496 04-05-2016 03:15:00 3.8 C 90 % 2.31 C
3497 04-05-2016 03:20:00 3.7 C 90 % 2.22 C
3498 04-05-2016 03:25:00 3.7 C 91 % 2.37 C
3499 04-05-2016 03:30:00 3.7 C 91 % 2.37 C
3500 04-05-2016 03:35:00 3.6 C 91 % 2.27 C
Sensor: Nr:Datum:Temp:Feuchte:Taupunkt:
Aussen-T/F 3501 04-05-2016 03:40:00 3.6 C 91 % 2.27 C
3502 04-05-2016 03:45:00 3.5 C 91 % 2.17 C
3503 04-05-2016 03:50:00 3.4 C 91 % 2.07 C
3504 04-05-2016 03:55:00 3.4 C 92 % 2.23 C
3505 04-05-2016 04:00:00 3.4 C 92 % 2.23 C
3506 04-05-2016 04:05:00 3.4 C 92 % 2.23 C
3507 04-05-2016 04:10:00 3.3 C 92 % 2.13 C
3508 04-05-2016 04:15:00 3.3 C 92 % 2.13 C
3509 04-05-2016 04:20:00 3.3 C 92 % 2.13 C
3510 04-05-2016 04:25:00 3.2 C 92 % 2.03 C
3511 04-05-2016 04:30:00 3.1 C 92 % 1.93 C
3512 04-05-2016 04:35:00 3 C 92 % 1.83 C
3513 04-05-2016 04:40:00 3 C 92 % 1.83 C
3514 04-05-2016 04:45:00 2.9 C 92 % 1.73 C
3515 04-05-2016 04:50:00 2.8 C 92 % 1.63 C
3516 04-05-2016 04:55:00 2.9 C 93 % 1.88 C
3517 04-05-2016 05:00:00 2.9 C 93 % 1.88 C
3518 04-05-2016 05:05:00 3 C 93 % 1.98 C
3519 04-05-2016 05:10:00 2.9 C 93 % 1.88 C
3520 04-05-2016 05:15:00 2.9 C 93 % 1.88 C
3521 04-05-2016 05:20:00 2.8 C 93 % 1.78 C
3522 04-05-2016 05:25:00 2.8 C 93 % 1.78 C
3523 04-05-2016 05:30:00 2.7 C 93 % 1.68 C
3524 04-05-2016 05:35:00 2.7 C 93 % 1.68 C
3525 04-05-2016 05:40:00 2.6 C 93 % 1.59 C
Sensor: Nr:Datum:Temp:Feuchte:Taupunkt:
Aussen-T/F 3526 04-05-2016 05:45:00 2.5 C 93 % 1.49 C
3527 04-05-2016 05:50:00 2.6 C 94 % 1.73 C
3528 04-05-2016 05:55:00 2.6 C 94 % 1.73 C
3529 04-05-2016 06:00:00 2.5 C 93 % 1.49 C
3530 04-05-2016 06:05:00 2.4 C 93 % 1.39 C
3531 04-05-2016 06:10:00 2.4 C 93 % 1.39 C
3532 04-05-2016 06:15:00 2.4 C 93 % 1.39 C
3533 04-05-2016 06:20:00 2.3 C 94 % 1.44 C
3534 04-05-2016 06:25:00 2.3 C 94 % 1.44 C
3535 04-05-2016 06:30:00 2.3 C 94 % 1.44 C
3536 04-05-2016 06:35:00 2.3 C 94 % 1.44 C
3537 04-05-2016 06:40:00 2.3 C 94 % 1.44 C
3538 04-05-2016 06:45:00 2.4 C 94 % 1.54 C
3539 04-05-2016 06:50:00 2.4 C 94 % 1.54 C
3540 04-05-2016 06:55:00 2.5 C 94 % 1.63 C
3541 04-05-2016 07:00:00 2.6 C 95 % 1.88 C
3542 04-05-2016 07:05:00 2.7 C 94 % 1.83 C
3543 04-05-2016 07:10:00 2.7 C 94 % 1.83 C
3544 04-05-2016 07:15:00 2.7 C 94 % 1.83 C
3545 04-05-2016 07:20:00 2.7 C 94 % 1.83 C
3546 04-05-2016 07:25:00 2.7 C 94 % 1.83 C
3547 04-05-2016 07:30:00 2.7 C 94 % 1.83 C
3548 04-05-2016 07:35:00 2.7 C 94 % 1.83 C
3549 04-05-2016 07:40:00 2.8 C 94 % 1.93 C
3550 04-05-2016 07:45:00 2.9 C 95 % 2.18 C
Sensor: Nr:Datum:Temp:Feuchte:Taupunkt:
Aussen-T/F 3551 04-05-2016 07:50:00 2.9 C 95 % 2.18 C
3552 04-05-2016 07:55:00 3 C 95 % 2.28 C
3553 04-05-2016 08:00:00 3.1 C 95 % 2.38 C
3554 04-05-2016 08:05:00 3.2 C 95 % 2.48 C
3555 04-05-2016 08:10:00 3.3 C 95 % 2.58 C
3556 04-05-2016 08:15:00 3.4 C 95 % 2.68 C
3557 04-05-2016 08:20:00 3.6 C 95 % 2.88 C
3558 04-05-2016 08:25:00 3.7 C 95 % 2.98 C
3559 04-05-2016 08:30:00 3.8 C 95 % 3.07 C
3560 04-05-2016 08:35:00 3.9 C 95 % 3.17 C
3561 04-05-2016 08:40:00 4 C 95 % 3.27 C
3562 04-05-2016 08:45:00 4.1 C 95 % 3.37 C
3563 04-05-2016 08:50:00 4.2 C 95 % 3.47 C
3564 04-05-2016 08:55:00 4.3 C 95 % 3.57 C
3565 04-05-2016 09:00:00 4.5 C 95 % 3.77 C
3566 04-05-2016 09:05:00 4.6 C 95 % 3.87 C
3567 04-05-2016 09:10:00 4.8 C 94 % 3.92 C
3568 04-05-2016 09:15:00 4.9 C 94 % 4.02 C
3569 04-05-2016 09:20:00 5.1 C 94 % 4.22 C
3570 04-05-2016 09:25:00 5.2 C 94 % 4.32 C
3571 04-05-2016 09:30:00 5.4 C 94 % 4.51 C
3572 04-05-2016 09:35:00 5.6 C 94 % 4.71 C
3573 04-05-2016 09:40:00 5.8 C 93 % 4.76 C
3574 04-05-2016 09:45:00 5.9 C 93 % 4.86 C
3575 04-05-2016 09:50:00 6.2 C 93 % 5.15 C
Sensor: Nr:Datum:Temp:Feuchte:Taupunkt:
Aussen-T/F 3576 04-05-2016 09:55:00 6.4 C 91 % 5.04 C
3577 04-05-2016 10:00:00 6.7 C 90 % 5.18 C
3578 04-05-2016 10:05:00 6.9 C 89 % 5.22 C
3579 04-05-2016 10:10:00 7.2 C 88 % 5.35 C
3580 04-05-2016 10:15:00 7.6 C 86 % 5.41 C
3581 04-05-2016 10:20:00 7.8 C 86 % 5.61 C
3582 04-05-2016 10:25:00 8.2 C 84 % 5.66 C
3583 04-05-2016 10:30:00 8.4 C 80 % 5.16 C
3584 04-05-2016 10:35:00 8.7 C 78 % 5.08 C
3585 04-05-2016 10:40:00 9 C 76 % 5 C
3586 04-05-2016 10:45:00 9.3 C 75 % 5.1 C
3587 04-05-2016 10:50:00 9.6 C 74 % 5.2 C
3588 04-05-2016 10:55:00 9.8 C 71 % 4.8 C
3589 04-05-2016 11:00:00 10.1 C 70 % 4.89 C
3590 04-05-2016 11:05:00 10.4 C 70 % 5.17 C
3591 04-05-2016 11:10:00 10.6 C 67 % 4.74 C
3592 04-05-2016 11:15:00 10.8 C 61 % 3.59 C
3593 04-05-2016 11:20:00 10.9 C 61 % 3.69 C
3594 04-05-2016 11:25:00 11.2 C 60 % 3.73 C
3595 04-05-2016 11:30:00 11.3 C 56 % 2.85 C
3596 04-05-2016 11:35:00 11.4 C 56 % 2.95 C
3597 04-05-2016 11:40:00 11.6 C 60 % 4.11 C
3598 04-05-2016 11:45:00 11.6 C 56 % 3.13 C
3599 04-05-2016 11:50:00 11.7 C 54 % 2.71 C
3600 04-05-2016 11:55:00 11.7 C 59 % 3.97 C
Sensor: Nr:Datum:Temp:Feuchte:Taupunkt:
Aussen-T/F 3601 04-05-2016 12:00:00 11.9 C 57 % 3.66 C
3602 04-05-2016 12:05:00 12 C 54 % 2.99 C
3603 04-05-2016 12:10:00 12.1 C 54 % 3.09 C
3604 04-05-2016 12:15:00 12.1 C 53 % 2.82 C
3605 04-05-2016 12:20:00 12.1 C 52 % 2.55 C
3606 04-05-2016 12:25:00 12.1 C 52 % 2.55 C
3607 04-05-2016 12:30:00 12.2 C 52 % 2.65 C
3608 04-05-2016 12:35:00 12.3 C 51 % 2.47 C
3609 04-05-2016 12:40:00 12.4 C 52 % 2.83 C
3610 04-05-2016 12:45:00 12.4 C 50 % 2.28 C
3611 04-05-2016 12:50:00 12.6 C 52 % 3.02 C
3612 04-05-2016 12:55:00 12.8 C 49 % 2.37 C
3613 04-05-2016 13:00:00 12.8 C 48 % 2.08 C
3614 04-05-2016 13:05:00 12.8 C 48 % 2.08 C
3615 04-05-2016 13:10:00 12.7 C 47 % 1.69 C
3616 04-05-2016 13:15:00 12.7 C 48 % 1.99 C
3617 04-05-2016 13:20:00 12.7 C 47 % 1.69 C
3618 04-05-2016 13:25:00 12.8 C 52 % 3.2 C
3619 04-05-2016 13:30:00 13.1 C 52 % 3.48 C
3620 04-05-2016 13:35:00 13.2 C 51 % 3.3 C
3621 04-05-2016 13:40:00 13.4 C 49 % 2.92 C
3622 04-05-2016 13:45:00 13.5 C 49 % 3.01 C
3623 04-05-2016 13:50:00 13.5 C 49 % 3.01 C
3624 04-05-2016 13:55:00 13.5 C 48 % 2.72 C
3625 04-05-2016 14:00:00 13.6 C 49 % 3.1 C
Sensor: Nr:Datum:Temp:Feuchte:Taupunkt:
Aussen-T/F 3626 04-05-2016 14:05:00 13.6 C 48 % 2.81 C
3627 04-05-2016 14:10:00 13.8 C 45 % 2.09 C
3628 04-05-2016 14:15:00 13.9 C 45 % 2.18 C
3629 04-05-2016 14:20:00 14.1 C 46 % 2.67 C
3630 04-05-2016 14:25:00 14.3 C 45 % 2.54 C
3631 04-05-2016 14:30:00 14.3 C 43 % 1.91 C
3632 04-05-2016 14:35:00 14.3 C 44 % 2.23 C
3633 04-05-2016 14:40:00 14.4 C 44 % 2.32 C
3634 04-05-2016 14:45:00 14.5 C 45 % 2.72 C
3635 04-05-2016 14:50:00 14.5 C 45 % 2.72 C
3636 04-05-2016 14:55:00 14.6 C 43 % 2.18 C
3637 04-05-2016 15:00:00 14.7 C 44 % 2.59 C
3638 04-05-2016 15:05:00 14.9 C 42 % 2.12 C
3639 04-05-2016 15:10:00 15.1 C 41 % 1.96 C
3640 04-05-2016 15:15:00 15.4 C 41 % 2.23 C
3641 04-05-2016 15:20:00 15.6 C 39 % 1.71 C
3642 04-05-2016 15:25:00 15.8 C 40 % 2.24 C
3643 04-05-2016 15:30:00 15.9 C 38 % 1.62 C
3644 04-05-2016 15:35:00 15.8 C 37 % 1.16 C
3645 04-05-2016 15:40:00 15.9 C 37 % 1.25 C
3646 04-05-2016 15:45:00 16.2 C 40 % 2.6 C
3647 04-05-2016 15:50:00 16.4 C 36 % 1.31 C
3648 04-05-2016 15:55:00 16.3 C 35 % 0.83 C
3649 04-05-2016 16:00:00 16.2 C 40 % 2.6 C
3650 04-05-2016 16:05:00 16.3 C 36 % 1.22 C
Sensor: Nr:Datum:Temp:Feuchte:Taupunkt:
Aussen-T/F 3651 04-05-2016 16:10:00 16.6 C 38 % 2.24 C
3652 04-05-2016 16:15:00 16.7 C 35 % 1.18 C
3653 04-05-2016 16:20:00 16.7 C 35 % 1.18 C
3654 04-05-2016 16:25:00 16.9 C 36 % 1.75 C
3655 04-05-2016 16:30:00 17.3 C 33 % 0.89 C
3656 04-05-2016 16:35:00 17.2 C 35 % 1.62 C
3657 04-05-2016 16:40:00 17.3 C 33 % 0.89 C
3658 04-05-2016 16:45:00 17.4 C 34 % 1.4 C
3659 04-05-2016 16:50:00 17.5 C 36 % 2.28 C
3660 04-05-2016 16:55:00 17.7 C 33 % 1.24 C
3661 04-05-2016 17:00:00 17.7 C 33 % 1.24 C
3662 04-05-2016 17:05:00 17.8 C 36 % 2.55 C
3663 04-05-2016 17:10:00 17.8 C 32 % 0.9 C
3664 04-05-2016 17:15:00 17.7 C 32 % 0.82 C
3665 04-05-2016 17:20:00 17.3 C 32 % 0.47 C
3666 04-05-2016 17:25:00 17.2 C 33 % 0.81 C
3667 04-05-2016 17:30:00 17.2 C 33 % 0.81 C
3668 04-05-2016 17:35:00 17.3 C 33 % 0.89 C
3669 04-05-2016 17:40:00 17.1 C 34 % 1.13 C
3670 04-05-2016 17:45:00 17.1 C 33 % 0.72 C
3671 04-05-2016 17:50:00 17.1 C 33 % 0.72 C
3672 04-05-2016 17:55:00 17.1 C 34 % 1.13 C
3673 04-05-2016 18:00:00 17.3 C 32 % 0.47 C
3674 04-05-2016 18:05:00 17.1 C 33 % 0.72 C
3675 04-05-2016 18:10:00 17.3 C 33 % 0.89 C
Sensor: Nr:Datum:Temp:Feuchte:Taupunkt:
Aussen-T/F 3676 04-05-2016 18:15:00 17.6 C 33 % 1.16 C
3677 04-05-2016 18:20:00 17.6 C 32 % 0.73 C
3678 04-05-2016 18:25:00 16.9 C 32 % 0.12 C
3679 04-05-2016 18:30:00 16.4 C 34 % 0.52 C
3680 04-05-2016 18:35:00 16.1 C 35 % 0.65 C
3681 04-05-2016 18:40:00 15.9 C 37 % 1.25 C
3682 04-05-2016 18:45:00 15.8 C 36 % 0.78 C
3683 04-05-2016 18:50:00 15.7 C 37 % 1.07 C
3684 04-05-2016 18:55:00 15.6 C 42 % 2.75 C
3685 04-05-2016 19:00:00 15.3 C 50 % 4.95 C
3686 04-05-2016 19:05:00 14.9 C 53 % 5.42 C
3687 04-05-2016 19:10:00 14.4 C 50 % 4.12 C
3688 04-05-2016 19:15:00 14.1 C 49 % 3.56 C
3689 04-05-2016 19:20:00 13.8 C 50 % 3.57 C
3690 04-05-2016 19:25:00 13.7 C 51 % 3.76 C
3691 04-05-2016 19:30:00 13.7 C 54 % 4.57 C
3692 04-05-2016 19:35:00 13.8 C 56 % 5.19 C
3693 04-05-2016 19:40:00 13.8 C 57 % 5.44 C
3694 04-05-2016 19:45:00 13.5 C 57 % 5.16 C
3695 04-05-2016 19:50:00 13.3 C 56 % 4.72 C
3696 04-05-2016 19:55:00 13.3 C 57 % 4.97 C
3697 04-05-2016 20:00:00 13.2 C 56 % 4.63 C
3698 04-05-2016 20:05:00 13.2 C 57 % 4.88 C
3699 04-05-2016 20:10:00 13.2 C 59 % 5.37 C
3700 04-05-2016 20:15:00 13.1 C 58 % 5.03 C
Sensor: Nr:Datum:Temp:Feuchte:Taupunkt:
Aussen-T/F 3701 04-05-2016 20:20:00 12.9 C 60 % 5.33 C
3702 04-05-2016 20:25:00 12.8 C 59 % 5 C
3703 04-05-2016 20:30:00 12.5 C 58 % 4.47 C
3704 04-05-2016 20:35:00 12.3 C 60 % 4.77 C
3705 04-05-2016 20:40:00 11.9 C 60 % 4.39 C
3706 04-05-2016 20:45:00 11.7 C 59 % 3.97 C
3707 04-05-2016 20:50:00 11.4 C 58 % 3.44 C
3708 04-05-2016 20:55:00 11.3 C 59 % 3.59 C
3709 04-05-2016 21:00:00 11.1 C 57 % 2.92 C
3710 04-05-2016 21:05:00 10.9 C 57 % 2.73 C
3711 04-05-2016 21:10:00 10.7 C 58 % 2.79 C
3712 04-05-2016 21:15:00 10.5 C 57 % 2.35 C
3713 04-05-2016 21:20:00 10.4 C 58 % 2.5 C
3714 04-05-2016 21:25:00 10.2 C 56 % 1.83 C
3715 04-05-2016 21:30:00 10.2 C 57 % 2.07 C
3716 04-05-2016 21:35:00 10.1 C 58 % 2.22 C
3717 04-05-2016 21:40:00 9.9 C 57 % 1.79 C
3718 04-05-2016 21:45:00 9.8 C 58 % 1.94 C
3719 04-05-2016 21:50:00 9.7 C 59 % 2.09 C
3720 04-05-2016 21:55:00 9.6 C 59 % 1.99 C
3721 04-05-2016 22:00:00 9.4 C 58 % 1.57 C
3722 04-05-2016 22:05:00 9.3 C 60 % 1.95 C
3723 04-05-2016 22:10:00 9.2 C 61 % 2.08 C
3724 04-05-2016 22:15:00 9.1 C 60 % 1.76 C
3725 04-05-2016 22:20:00 9 C 61 % 1.89 C
Sensor: Nr:Datum:Temp:Feuchte:Taupunkt:
Aussen-T/F 3726 04-05-2016 22:25:00 8.9 C 60 % 1.57 C
3727 04-05-2016 22:30:00 8.8 C 60 % 1.48 C
3728 04-05-2016 22:35:00 8.8 C 61 % 1.71 C
3729 04-05-2016 22:40:00 8.8 C 61 % 1.71 C
3730 04-05-2016 22:45:00 8.8 C 63 % 2.16 C
3731 04-05-2016 22:50:00 8.6 C 63 % 1.97 C
3732 04-05-2016 22:55:00 8.5 C 62 % 1.65 C
3733 04-05-2016 23:00:00 8.4 C 62 % 1.55 C
3734 04-05-2016 23:05:00 8.4 C 64 % 2 C
3735 04-05-2016 23:10:00 8.3 C 66 % 2.33 C
3736 04-05-2016 23:15:00 8.1 C 68 % 2.56 C
3737 04-05-2016 23:20:00 7.8 C 66 % 1.86 C
3738 04-05-2016 23:25:00 7.6 C 66 % 1.67 C
3739 04-05-2016 23:30:00 7.6 C 68 % 2.08 C
3740 04-05-2016 23:35:00 7.4 C 69 % 2.1 C
3741 04-05-2016 23:40:00 7.2 C 71 % 2.3 C
3742 04-05-2016 23:45:00 7 C 72 % 2.31 C
3743 04-05-2016 23:50:00 6.8 C 74 % 2.5 C
3744 04-05-2016 23:55:00 6.6 C 74 % 2.31 C
3745 05-05-2016 00:00:00 6.4 C 74 % 2.11 C
3746 05-05-2016 00:05:00 6.3 C 76 % 2.39 C
3747 05-05-2016 00:10:00 6.2 C 77 % 2.48 C
3748 05-05-2016 00:15:00 6 C 76 % 2.1 C
3749 05-05-2016 00:20:00 5.9 C 76 % 2 C
3750 05-05-2016 00:25:00 5.8 C 76 % 1.91 C
Sensor: Nr:Datum:Temp:Feuchte:Taupunkt:
Aussen-T/F 3751 05-05-2016 00:30:00 5.8 C 76 % 1.91 C
3752 05-05-2016 00:35:00 5.7 C 77 % 1.99 C
3753 05-05-2016 00:40:00 5.7 C 77 % 1.99 C
3754 05-05-2016 00:45:00 5.6 C 77 % 1.89 C
3755 05-05-2016 00:50:00 5.4 C 77 % 1.7 C
3756 05-05-2016 00:55:00 5.3 C 77 % 1.6 C
3757 05-05-2016 01:00:00 5.2 C 79 % 1.86 C
3758 05-05-2016 01:05:00 5.1 C 79 % 1.77 C
3759 05-05-2016 01:10:00 5 C 80 % 1.84 C
3760 05-05-2016 01:15:00 4.9 C 80 % 1.75 C
3761 05-05-2016 01:20:00 4.8 C 81 % 1.82 C
3762 05-05-2016 01:25:00 4.7 C 82 % 1.9 C
3763 05-05-2016 01:30:00 4.7 C 82 % 1.9 C
3764 05-05-2016 01:35:00 4.6 C 82 % 1.8 C
3765 05-05-2016 01:40:00 4.5 C 83 % 1.87 C
3766 05-05-2016 01:45:00 4.5 C 83 % 1.87 C
3767 05-05-2016 01:50:00 4.4 C 82 % 1.6 C
3768 05-05-2016 01:55:00 4.3 C 83 % 1.67 C
3769 05-05-2016 02:00:00 4.3 C 83 % 1.67 C
3770 05-05-2016 02:05:00 4.3 C 84 % 1.84 C
3771 05-05-2016 02:10:00 4.3 C 84 % 1.84 C
3772 05-05-2016 02:15:00 4.3 C 84 % 1.84 C
3773 05-05-2016 02:20:00 4.2 C 84 % 1.74 C
3774 05-05-2016 02:25:00 4.1 C 84 % 1.65 C
3775 05-05-2016 02:30:00 4 C 84 % 1.55 C
Sensor: Nr:Datum:Temp:Feuchte:Taupunkt:
Aussen-T/F 3776 05-05-2016 02:35:00 3.9 C 85 % 1.61 C
3777 05-05-2016 02:40:00 3.8 C 85 % 1.52 C
3778 05-05-2016 02:45:00 3.8 C 86 % 1.68 C
3779 05-05-2016 02:50:00 3.8 C 86 % 1.68 C
3780 05-05-2016 02:55:00 3.7 C 87 % 1.74 C
3781 05-05-2016 03:00:00 3.7 C 87 % 1.74 C
3782 05-05-2016 03:05:00 3.6 C 87 % 1.64 C
3783 05-05-2016 03:10:00 3.6 C 87 % 1.64 C
3784 05-05-2016 03:15:00 3.5 C 87 % 1.55 C
3785 05-05-2016 03:20:00 3.4 C 87 % 1.45 C
3786 05-05-2016 03:25:00 3.4 C 87 % 1.45 C
3787 05-05-2016 03:30:00 3.3 C 87 % 1.35 C
3788 05-05-2016 03:35:00 3.4 C 87 % 1.45 C
3789 05-05-2016 03:40:00 3.4 C 87 % 1.45 C
3790 05-05-2016 03:45:00 3.5 C 87 % 1.55 C
3791 05-05-2016 03:50:00 3.5 C 87 % 1.55 C
3792 05-05-2016 03:55:00 3.4 C 87 % 1.45 C
3793 05-05-2016 04:00:00 3.4 C 88 % 1.61 C
3794 05-05-2016 04:05:00 3.5 C 89 % 1.86 C
3795 05-05-2016 04:10:00 3.6 C 89 % 1.96 C
3796 05-05-2016 04:15:00 3.6 C 89 % 1.96 C
3797 05-05-2016 04:20:00 3.5 C 88 % 1.7 C
3798 05-05-2016 04:25:00 3.3 C 88 % 1.51 C
3799 05-05-2016 04:30:00 3.2 C 88 % 1.41 C
3800 05-05-2016 04:35:00 3 C 88 % 1.21 C
Sensor: Nr:Datum:Temp:Feuchte:Taupunkt:
Aussen-T/F 3801 05-05-2016 04:40:00 3 C 88 % 1.21 C
3802 05-05-2016 04:45:00 3 C 88 % 1.21 C
3803 05-05-2016 04:50:00 2.9 C 89 % 1.27 C
3804 05-05-2016 04:55:00 2.9 C 89 % 1.27 C
3805 05-05-2016 05:00:00 2.9 C 90 % 1.43 C
3806 05-05-2016 05:05:00 2.8 C 90 % 1.33 C
3807 05-05-2016 05:10:00 2.8 C 90 % 1.33 C
3808 05-05-2016 05:15:00 2.7 C 90 % 1.23 C
3809 05-05-2016 05:20:00 2.6 C 90 % 1.13 C
3810 05-05-2016 05:25:00 2.6 C 90 % 1.13 C
3811 05-05-2016 05:30:00 2.4 C 90 % 0.93 C
3812 05-05-2016 05:35:00 2.4 C 90 % 0.93 C
3813 05-05-2016 05:40:00 2.3 C 90 % 0.83 C
3814 05-05-2016 05:45:00 2.3 C 90 % 0.83 C
3815 05-05-2016 05:50:00 2.2 C 90 % 0.73 C
3816 05-05-2016 05:55:00 2.1 C 90 % 0.64 C
3817 05-05-2016 06:00:00 2.1 C 90 % 0.64 C
3818 05-05-2016 06:05:00 2.1 C 91 % 0.79 C
3819 05-05-2016 06:10:00 2.1 C 91 % 0.79 C
3820 05-05-2016 06:15:00 2.1 C 91 % 0.79 C
3821 05-05-2016 06:20:00 2.1 C 91 % 0.79 C
3822 05-05-2016 06:25:00 2 C 91 % 0.69 C
3823 05-05-2016 06:30:00 1.9 C 91 % 0.59 C
3824 05-05-2016 06:35:00 2 C 91 % 0.69 C
3825 05-05-2016 06:40:00 2 C 91 % 0.69 C
Sensor: Nr:Datum:Temp:Feuchte:Taupunkt:
Aussen-T/F 3826 05-05-2016 06:45:00 2.1 C 91 % 0.79 C
3827 05-05-2016 06:50:00 2.1 C 92 % 0.94 C
3828 05-05-2016 06:55:00 2.2 C 92 % 1.04 C
3829 05-05-2016 07:00:00 2.2 C 92 % 1.04 C
3830 05-05-2016 07:05:00 2.2 C 92 % 1.04 C
3831 05-05-2016 07:10:00 2.2 C 92 % 1.04 C
3832 05-05-2016 07:15:00 2.3 C 92 % 1.14 C
3833 05-05-2016 07:20:00 2.3 C 92 % 1.14 C
3834 05-05-2016 07:25:00 2.3 C 92 % 1.14 C
3835 05-05-2016 07:30:00 2.4 C 92 % 1.24 C
3836 05-05-2016 07:35:00 2.4 C 92 % 1.24 C
3837 05-05-2016 07:40:00 2.4 C 92 % 1.24 C
3838 05-05-2016 07:45:00 2.5 C 92 % 1.34 C
3839 05-05-2016 07:50:00 2.6 C 93 % 1.59 C
3840 05-05-2016 07:55:00 2.7 C 93 % 1.68 C
3841 05-05-2016 08:00:00 2.8 C 93 % 1.78 C
3842 05-05-2016 08:05:00 2.9 C 93 % 1.88 C
3843 05-05-2016 08:10:00 3 C 93 % 1.98 C
3844 05-05-2016 08:15:00 3.1 C 93 % 2.08 C
3845 05-05-2016 08:20:00 3.3 C 93 % 2.28 C
3846 05-05-2016 08:25:00 3.4 C 93 % 2.38 C
3847 05-05-2016 08:30:00 3.6 C 93 % 2.58 C
3848 05-05-2016 08:35:00 3.7 C 93 % 2.68 C
3849 05-05-2016 08:40:00 3.8 C 93 % 2.77 C
3850 05-05-2016 08:45:00 4 C 93 % 2.97 C
Sensor: Nr:Datum:Temp:Feuchte:Taupunkt:
Aussen-T/F 3851 05-05-2016 08:50:00 4.3 C 94 % 3.42 C
3852 05-05-2016 08:55:00 4.6 C 94 % 3.72 C
3853 05-05-2016 09:00:00 5 C 93 % 3.96 C
3854 05-05-2016 09:05:00 5.6 C 92 % 4.41 C
3855 05-05-2016 09:10:00 6.2 C 89 % 4.53 C
3856 05-05-2016 09:15:00 6.6 C 85 % 4.26 C
3857 05-05-2016 09:20:00 7.1 C 82 % 4.24 C
3858 05-05-2016 09:25:00 7.4 C 83 % 4.71 C
3859 05-05-2016 09:30:00 7.6 C 81 % 4.55 C
3860 05-05-2016 09:35:00 7.8 C 81 % 4.75 C
3861 05-05-2016 09:40:00 7.9 C 81 % 4.85 C
3862 05-05-2016 09:45:00 8.2 C 81 % 5.14 C
3863 05-05-2016 09:50:00 8.4 C 81 % 5.33 C
3864 05-05-2016 09:55:00 8.5 C 81 % 5.43 C
3865 05-05-2016 10:00:00 8.7 C 79 % 5.27 C
3866 05-05-2016 10:05:00 9.3 C 73 % 4.72 C
3867 05-05-2016 10:10:00 10.1 C 70 % 4.89 C
3868 05-05-2016 10:15:00 10.6 C 67 % 4.74 C
3869 05-05-2016 10:20:00 11.1 C 66 % 5 C
3870 05-05-2016 10:25:00 11.6 C 68 % 5.9 C
3871 05-05-2016 10:30:00 11.8 C 63 % 5 C
3872 05-05-2016 10:35:00 12.3 C 64 % 5.69 C
3873 05-05-2016 10:40:00 12.4 C 61 % 5.1 C
3874 05-05-2016 10:45:00 12.6 C 59 % 4.81 C
3875 05-05-2016 10:50:00 12.8 C 58 % 4.75 C
Sensor: Nr:Datum:Temp:Feuchte:Taupunkt:
Aussen-T/F 3876 05-05-2016 10:55:00 13.1 C 58 % 5.03 C
3877 05-05-2016 11:00:00 13.3 C 58 % 5.22 C
3878 05-05-2016 11:05:00 13.4 C 57 % 5.07 C
3879 05-05-2016 11:10:00 13.6 C 57 % 5.25 C
3880 05-05-2016 11:15:00 13.7 C 56 % 5.09 C
3881 05-05-2016 11:20:00 13.8 C 57 % 5.44 C
3882 05-05-2016 11:25:00 13.9 C 56 % 5.28 C
3883 05-05-2016 11:30:00 14 C 56 % 5.37 C
3884 05-05-2016 11:35:00 14.1 C 56 % 5.46 C
3885 05-05-2016 11:40:00 14.2 C 56 % 5.56 C
3886 05-05-2016 11:45:00 14.4 C 57 % 6 C
3887 05-05-2016 11:50:00 14.4 C 55 % 5.49 C
3888 05-05-2016 11:55:00 14.5 C 56 % 5.84 C
3889 05-05-2016 12:00:00 14.6 C 54 % 5.41 C
3890 05-05-2016 12:05:00 14.7 C 54 % 5.5 C
3891 05-05-2016 12:10:00 14.7 C 55 % 5.76 C
3892 05-05-2016 12:15:00 15.1 C 52 % 5.33 C
3893 05-05-2016 12:20:00 15.3 C 52 % 5.51 C
3894 05-05-2016 12:25:00 15.4 C 51 % 5.33 C
3895 05-05-2016 12:30:00 15.6 C 51 % 5.51 C
3896 05-05-2016 12:35:00 15.7 C 51 % 5.6 C
3897 05-05-2016 12:40:00 15.9 C 50 % 5.5 C
3898 05-05-2016 12:45:00 16.1 C 51 % 5.97 C
3899 05-05-2016 12:50:00 16.2 C 48 % 5.19 C
3900 05-05-2016 12:55:00 16.3 C 48 % 5.28 C
Sensor: Nr:Datum:Temp:Feuchte:Taupunkt:
Aussen-T/F 3901 05-05-2016 13:00:00 16.4 C